Provisional Data: Loyalsock Creek near Ringdale, PA


Please select a monitoring station.
Please select start date.
Please select start date.

Toggle Unit: C/F Toggle Unit: C/F
Sample Time Temperature (C) Temperature (F) Specific Conductivity (mS/cm) pH   Turbidity (NTU+) DO (mg/L)
5/4/2021 12:00:00 AM 11.77 53.186 0.025 6.43 4.37 9.89
5/4/2021 12:15:00 AM 11.76 53.168 0.025 6.43 3.96 9.9
5/4/2021 12:30:00 AM 11.75 53.15 0.025 6.43 4.01 9.9
5/4/2021 12:45:00 AM 11.73 53.114 0.025 6.4 4.14 9.9
5/4/2021 1:00:00 AM 11.72 53.096 0.025 6.4 3.99 9.9
5/4/2021 1:15:00 AM 11.7 53.06 0.025 6.39 4.25 9.91
5/4/2021 1:30:00 AM 11.69 53.042 0.025 6.39 4.03 9.92
5/4/2021 1:45:00 AM 11.68 53.024 0.025 6.39 4.11 9.92
5/4/2021 2:00:00 AM 11.67 53.006 0.025 6.39 4.13 9.91
5/4/2021 2:15:00 AM 11.66 52.988 0.025 6.38 4.09 9.92
5/4/2021 2:30:00 AM 11.65 52.97 0.025 6.38 4.12 9.92
5/4/2021 2:45:00 AM 11.64 52.952 0.025 6.37 4.2 9.92
5/4/2021 3:00:00 AM 11.63 52.934 0.025 6.36 5.75 9.93
5/4/2021 3:15:00 AM 11.61 52.898 0.025 6.35 4.16 9.93
5/4/2021 3:30:00 AM 11.6 52.88 0.025 6.36 4.26 9.93
5/4/2021 3:45:00 AM 11.59 52.862 0.025 6.36 4.28 9.94
5/4/2021 4:00:00 AM 11.58 52.844 0.025 6.36 4.23 9.94
5/4/2021 4:15:00 AM 11.57 52.826 0.025 6.37 4.19 9.94
5/4/2021 4:30:00 AM 11.55 52.79 0.025 6.35 4.29 9.95
5/4/2021 4:45:00 AM 11.54 52.772 0.025 6.35 4.26 9.95
5/4/2021 5:00:00 AM 11.53 52.754 0.025 6.35 4.34 9.95
5/4/2021 5:15:00 AM 11.51 52.718 0.025 6.36 4.19 9.94
5/4/2021 5:30:00 AM 11.5 52.7 0.025 6.35 4.13 9.95
5/4/2021 5:45:00 AM 11.49 52.682 0.025 6.36 4.12 9.96
5/4/2021 6:00:00 AM 11.48 52.664 0.025 6.35 4.11 9.96
5/4/2021 6:15:00 AM 11.47 52.646 0.025 6.34 4.15 9.97
5/4/2021 6:30:00 AM 11.46 52.628 0.025 6.33 4.21 9.98
5/4/2021 6:45:00 AM 11.46 52.628 0.025 6.32 4.16 9.99
5/4/2021 7:00:00 AM 11.46 52.628 0.025 6.33 4.26 10.01
5/4/2021 7:15:00 AM 11.46 52.628 0.025 6.34 4.26 10.05
5/4/2021 7:30:00 AM 11.46 52.628 0.024 6.35 4.25 10.06
5/4/2021 7:45:00 AM 11.47 52.646 0.025 6.36 4.14 10.09
5/4/2021 8:00:00 AM 11.49 52.682 0.025 6.37 4.13 10.12
5/4/2021 8:15:00 AM 11.52 52.736 0.024 6.41 4.23 10.16
5/4/2021 8:30:00 AM 11.56 52.808 0.025 6.43 3.99 10.2
5/4/2021 8:45:00 AM 11.62 52.916 0.024 6.46 4.21 10.24
5/4/2021 9:00:00 AM 11.68 53.024 0.024 6.47 4.07 10.26
5/4/2021 9:15:00 AM 11.76 53.168 0.024 6.48 4.14 10.28
5/4/2021 9:30:00 AM 11.82 53.276 0.025 6.5 3.91 10.29
5/4/2021 9:45:00 AM 11.91 53.438 0.024 6.52 4 10.29
5/4/2021 10:00:00 AM 12.01 53.618 0.024 6.54 4.15 10.29
5/4/2021 10:15:00 AM 12.16 53.888 0.024 6.56 4.01 10.31
5/4/2021 10:30:00 AM 12.32 54.176 0.024 6.6 4.14 10.3
5/4/2021 10:45:00 AM 12.5 54.5 0.024 6.6 4.01 10.28
5/4/2021 11:00:00 AM 12.67 54.806 0.024 6.63 4.25 10.25
5/4/2021 11:15:00 AM 12.86 55.148 0.024 6.65 4.08 10.23
5/4/2021 11:30:00 AM 13.07 55.526 0.024 6.66 4.29 10.2
5/4/2021 11:45:00 AM 13.23 55.814 0.024 6.67 4.08 10.16
5/4/2021 12:00:00 PM 13.52 56.336 0.024 6.7 4.03 10.12
5/4/2021 12:15:00 PM 13.84 56.912 0.024 6.74 3.98 10.08
5/4/2021 12:30:00 PM 14.12 57.416 0.024 6.76 3.9 10.03
5/4/2021 12:45:00 PM 14.29 57.722 0.024 6.77 3.9 9.99
5/4/2021 1:00:00 PM 14.4 57.92 0.024 6.76 3.94 9.96
5/4/2021 1:15:00 PM 14.49 58.082 0.024 6.76 4.07 9.92
5/4/2021 1:30:00 PM 14.57 58.226 0.024 6.77 4.07 9.88
5/4/2021 1:45:00 PM 14.67 58.406 0.024 6.77 4.11 9.85
5/4/2021 2:00:00 PM 14.76 58.568 0.024 6.78 4.29 9.82
5/4/2021 2:15:00 PM 14.88 58.784 0.024 6.8 4.11 9.8
5/4/2021 2:30:00 PM 15.03 59.054 0.024 6.81 4.14 9.78
5/4/2021 2:45:00 PM 15.16 59.288 0.024 6.83 3.97 9.75
5/4/2021 3:00:00 PM 15.24 59.432 0.024 6.84 4.12 9.73
5/4/2021 3:15:00 PM 15.33 59.594 0.024 6.85 3.92 9.71
5/4/2021 3:30:00 PM 15.35 59.63 0.024 6.84 4.08 9.69
5/4/2021 3:45:00 PM 15.39 59.702 0.024 6.85 4.22 9.66
5/4/2021 4:00:00 PM 15.37 59.666 0.024 6.82 3.95 9.63
5/4/2021 4:15:00 PM 15.36 59.648 0.024 6.81 3.9 9.61
5/4/2021 4:30:00 PM 15.38 59.684 0.024 6.83 4.01 9.61
5/4/2021 4:45:00 PM 15.35 59.63 0.023 6.82 4 9.58
5/4/2021 5:00:00 PM 15.31 59.558 0.023 6.82 4.09 9.57
5/4/2021 5:15:00 PM 15.35 59.63 0.024 6.82 3.97 9.57
5/4/2021 5:30:00 PM 15.36 59.648 0.024 6.83 4.43 9.54
5/4/2021 5:45:00 PM 15.35 59.63 0.024 6.84 3.97 9.53
5/4/2021 6:00:00 PM 15.3 59.54 0.024 6.82 4.09 9.49
5/4/2021 6:15:00 PM 15.23 59.414 0.024 6.8 4.25 9.45
5/4/2021 6:30:00 PM 15.17 59.306 0.024 6.77 4.02 9.41
5/4/2021 6:45:00 PM 15.11 59.198 0.024 6.76 4.75 9.35
5/4/2021 7:00:00 PM 15.04 59.072 0.024 6.74 5.1 9.32
5/4/2021 7:15:00 PM 14.98 58.964 0.024 6.74 4.37 9.31
5/4/2021 7:30:00 PM 14.92 58.856 0.024 6.73 4.19 9.3
5/4/2021 7:45:00 PM 14.87 58.766 0.024 6.71 4.21 9.3
5/4/2021 8:00:00 PM 14.82 58.676 0.024 6.71 4.32 9.29
5/4/2021 8:15:00 PM 14.75 58.55 0.024 6.7 4.39 9.28
5/4/2021 8:30:00 PM 14.69 58.442 0.024 6.69 4.21 9.26
5/4/2021 8:45:00 PM 14.63 58.334 0.024 6.67 4.57 9.25
5/4/2021 9:00:00 PM 14.58 58.244 0.024 6.65 4.44 9.25
5/4/2021 9:15:00 PM 14.54 58.172 0.024 6.66 4.72 9.25
5/4/2021 9:30:00 PM 14.51 58.118 0.024 6.65 4.6 9.25
5/4/2021 9:45:00 PM 14.46 58.028 0.024 6.64 4.55 9.25
5/4/2021 10:00:00 PM 14.42 57.956 0.024 6.64 4.36 9.27
5/4/2021 10:15:00 PM 14.38 57.884 0.024 6.63 4.34 9.27
5/4/2021 10:30:00 PM 14.36 57.848 0.024 6.62 4.64 9.27
5/4/2021 10:45:00 PM 14.35 57.83 0.024 6.62 4.41 9.28
5/4/2021 11:00:00 PM 14.35 57.83 0.024 6.62 4.55 9.28
5/4/2021 11:15:00 PM 14.34 57.812 0.024 6.61 4.69 9.28
5/4/2021 11:30:00 PM 14.33 57.794 0.024 6.62 4.89 9.28
5/4/2021 11:45:00 PM 14.32 57.776 0.024 6.63 4.82 9.28
5/5/2021 12:00:00 AM 14.32 57.776 0.024 6.62 4.8 9.29
5/5/2021 12:15:00 AM 14.31 57.758 0.024 6.61 5.28 9.29
5/5/2021 12:30:00 AM 14.31 57.758 0.024 6.62 5.34 9.3
5/5/2021 12:45:00 AM 14.3 57.74 0.025 6.63 5.67 9.31
5/5/2021 1:00:00 AM 14.28 57.704 0.025 6.64 5.64 9.31
5/5/2021 1:15:00 AM 14.25 57.65 0.024 6.65 6.17 9.32
5/5/2021 1:30:00 AM 14.22 57.596 0.025 6.64 5.92 9.32
5/5/2021 1:45:00 AM 14.18 57.524 0.025 6.65 6.05 9.32
5/5/2021 2:00:00 AM 14.15 57.47 0.024 6.64 5.69 9.34
5/5/2021 2:15:00 AM 14.11 57.398 0.024 6.63 5.52 9.34
5/5/2021 2:30:00 AM 14.07 57.326 0.024 6.62 5.35 9.35
5/5/2021 2:45:00 AM 14.02 57.236 0.024 6.61 5.38 9.36
5/5/2021 3:00:00 AM 13.96 57.128 0.025 6.59 5.03 9.37
5/5/2021 3:15:00 AM 13.91 57.038 0.024 6.59 4.94 9.38
5/5/2021 3:30:00 AM 13.87 56.966 0.024 6.57 4.76 9.39
5/5/2021 3:45:00 AM 13.84 56.912 0.024 6.58 4.58 9.4
5/5/2021 4:00:00 AM 13.81 56.858 0.024 6.59 4.68 9.42
5/5/2021 4:15:00 AM 13.76 56.768 0.024 6.59 4.73 9.43
5/5/2021 4:30:00 AM 13.72 56.696 0.024 6.59 4.57 9.43
5/5/2021 4:45:00 AM 13.68 56.624 0.024 6.55 4.77 9.44
5/5/2021 5:00:00 AM 13.64 56.552 0.024 6.56 4.74 9.44
5/5/2021 5:15:00 AM 13.6 56.48 0.024 6.56 4.66 9.46
5/5/2021 5:30:00 AM 13.57 56.426 0.024 6.57 4.83 9.47
5/5/2021 5:45:00 AM 13.55 56.39 0.024 6.56 4.51 9.47
5/5/2021 6:00:00 AM 13.53 56.354 0.024 6.57 4.66 9.48
5/5/2021 6:15:00 AM 13.5 56.3 0.024 6.56 4.56 9.49
5/5/2021 6:30:00 AM 13.48 56.264 0.024 6.57 4.61 9.51
5/5/2021 6:45:00 AM 13.46 56.228 0.024 6.55 4.77 9.53
5/5/2021 7:00:00 AM 13.45 56.21 0.024 6.56 4.63 9.55
5/5/2021 7:15:00 AM 13.45 56.21 0.024 6.55 4.61 9.57
5/5/2021 7:30:00 AM 13.44 56.192 0.024 6.57 4.73 9.57
5/5/2021 7:45:00 AM 13.43 56.174 0.024 6.57 4.66 9.59
5/5/2021 8:00:00 AM 13.42 56.156 0.024 6.58 4.67 9.6
5/5/2021 8:15:00 AM 13.42 56.156 0.024 6.57 4.65 9.62
5/5/2021 8:30:00 AM 13.43 56.174 0.024 6.59 4.63 9.63
5/5/2021 8:45:00 AM 13.44 56.192 0.024 6.59 4.67 9.67
5/5/2021 9:00:00 AM 13.44 56.192 0.023 6.6 4.59 9.69
5/5/2021 9:15:00 AM 13.44 56.192 0.024 6.6 4.74 9.69
5/5/2021 9:30:00 AM 13.44 56.192 0.024 6.6 4.78 9.69
5/5/2021 9:45:00 AM 13.43 56.174 0.023 6.61 5.01 9.68
5/5/2021 10:00:00 AM 13.44 56.192 0.023 6.63 4.87 9.71
5/5/2021 10:15:00 AM 13.45 56.21 0.023 6.64 4.74 9.72
5/5/2021 10:30:00 AM 13.46 56.228 0.023 6.65 5.28 9.73
5/5/2021 10:45:00 AM 13.46 56.228 0.023 6.66 4.93 9.74
5/5/2021 11:00:00 AM 13.46 56.228 0.023 6.67 4.92 9.74
5/5/2021 11:15:00 AM 13.45 56.21 0.024 6.67 5.12 9.73
5/5/2021 11:30:00 AM 13.45 56.21 0.024 6.69 6.78 9.73
5/5/2021 11:45:00 AM 13.45 56.21 0.024 6.68 6.14 9.74
5/5/2021 12:00:00 PM 13.47 56.246 0.024 6.7 5.74 9.77
5/5/2021 12:15:00 PM 13.5 56.3 0.024 6.69 5.35 9.79
5/5/2021 12:30:00 PM 13.51 56.318 0.023 6.69 5.14 9.78
5/5/2021 12:45:00 PM 13.53 56.354 0.023 6.71 5.7 9.8
5/5/2021 1:00:00 PM 13.55 56.39 0.023 6.73 5.57 9.82
5/5/2021 1:15:00 PM 13.57 56.426 0.023 6.74 5.66 9.83
5/5/2021 1:30:00 PM 13.57 56.426 0.023 6.73 6.08 9.82
5/5/2021 1:45:00 PM 13.55 56.39 0.023 6.74 6.03 9.82
5/5/2021 2:00:00 PM 13.57 56.426 0.023 6.75 5.84 9.84
5/5/2021 2:15:00 PM 13.57 56.426 0.023 6.75 5.88 9.84
5/5/2021 2:30:00 PM 13.56 56.408 0.023 6.75 5.92 9.84
5/5/2021 2:45:00 PM 13.55 56.39 0.023 6.71 6.49 9.86
5/5/2021 3:00:00 PM 13.55 56.39 0.023 6.71 6.58 9.87
5/5/2021 3:15:00 PM 13.53 56.354 0.023 6.68 6.88 9.86
5/5/2021 3:30:00 PM 13.47 56.246 0.023 6.66 6.97 9.83
5/5/2021 3:45:00 PM 13.41 56.138 0.023 6.65 7.34 9.82
5/5/2021 4:00:00 PM 13.36 56.048 0.023 6.65 6.89 9.81
5/5/2021 4:15:00 PM 13.31 55.958 0.023 6.64 7.29 9.8
5/5/2021 4:30:00 PM 13.28 55.904 0.023 6.64 7.63 9.82
5/5/2021 4:45:00 PM 13.26 55.868 0.022 6.64 7.25 9.84
5/5/2021 5:00:00 PM 13.23 55.814 0.022 6.62 7.48 9.85
5/5/2021 5:15:00 PM 13.21 55.778 0.022 6.64 7.22 9.87
5/5/2021 5:30:00 PM 13.17 55.706 0.022 6.64 7.27 9.86
5/5/2021 5:45:00 PM 13.12 55.616 0.022 6.61 7.18 9.85
5/5/2021 6:00:00 PM 13.06 55.508 0.022 6.57 6.91 9.83
5/5/2021 6:15:00 PM 13.01 55.418 0.022 6.58 6.62 9.81
5/5/2021 6:30:00 PM 12.96 55.328 0.022 6.6 6.58 9.81
5/5/2021 6:45:00 PM 12.91 55.238 0.022 6.55 6.52 9.8
5/5/2021 7:00:00 PM 12.86 55.148 0.022 6.54 6.3 9.81
5/5/2021 7:15:00 PM 12.81 55.058 0.022 6.55 6.45 9.82
5/5/2021 7:30:00 PM 12.77 54.986 0.022 6.56 6.4 9.83
5/5/2021 7:45:00 PM 12.71 54.878 0.022 6.55 6.51 9.83
5/5/2021 8:00:00 PM 12.65 54.77 0.022 6.5 6.24 9.83
5/5/2021 8:15:00 PM 12.6 54.68 0.022 6.49 6.32 9.83
5/5/2021 8:30:00 PM 12.56 54.608 0.022 6.47 6.64 9.83
5/5/2021 8:45:00 PM 12.51 54.518 0.022 6.47 6.89 9.84
5/5/2021 9:00:00 PM 12.46 54.428 0.022 6.49 7.36 9.84
5/5/2021 9:15:00 PM 12.4 54.32 0.022 6.46 7.12 9.85
5/5/2021 9:30:00 PM 12.34 54.212 0.022 6.45 7.1 9.87
5/5/2021 9:45:00 PM 12.29 54.122 0.022 6.5 7.03 9.88
5/5/2021 10:00:00 PM 12.25 54.05 0.022 6.49 7.27 9.89
5/5/2021 10:15:00 PM 12.2 53.96 0.022 6.45 7.16 9.9
5/5/2021 10:30:00 PM 12.15 53.87 0.021 6.43 192.55 9.91
5/5/2021 10:45:00 PM 12.09 53.762 0.022 6.45 7.21 9.92
5/5/2021 11:00:00 PM 12.05 53.69 0.021 6.44 6.73 9.94
5/5/2021 11:15:00 PM 12 53.6 0.021 6.42 6.44 9.95
5/5/2021 11:30:00 PM 11.95 53.51 0.021 6.47 6.06 9.96
5/5/2021 11:45:00 PM 11.9 53.42 0.021 6.49 5.93 9.97
5/6/2021 12:00:00 AM 11.85 53.33 0.021 6.45 5.76 9.99
5/6/2021 12:15:00 AM 11.79 53.222 0.021 6.44 5.66 10
5/6/2021 12:30:00 AM 11.73 53.114 0.021 6.4 5.76 10.01
5/6/2021 12:45:00 AM 11.68 53.024 0.021 6.42 5.71 10.02
5/6/2021 1:00:00 AM 11.62 52.916 0.021 6.38 5.48 10.03
5/6/2021 1:15:00 AM 11.57 52.826 0.021 6.38 5.4 10.05
5/6/2021 1:30:00 AM 11.52 52.736 0.021 6.4 5.43 10.06
5/6/2021 1:45:00 AM 11.47 52.646 0.021 6.4 5.28 10.07
5/6/2021 2:00:00 AM 11.42 52.556 0.021 6.36 5.39 10.08
5/6/2021 2:15:00 AM 11.36 52.448 0.021 6.35 5.14 10.09
5/6/2021 2:30:00 AM 11.3 52.34 0.021 6.38 5.24 10.11
5/6/2021 2:45:00 AM 11.24 52.232 0.021 6.35 5.25 10.12
5/6/2021 3:00:00 AM 11.19 52.142 0.021 6.33 5.2 10.13
5/6/2021 3:15:00 AM 11.15 52.07 0.021 6.36 5.1 10.15
5/6/2021 3:30:00 AM 11.11 51.998 0.021 6.38 5.23 10.16
5/6/2021 3:45:00 AM 11.07 51.926 0.021 6.36 5.19 10.17
5/6/2021 4:00:00 AM 11.02 51.836 0.021 6.33 5.18 10.18
5/6/2021 4:15:00 AM 10.99 51.782 0.021 6.35 5.07 10.19
5/6/2021 4:30:00 AM 10.95 51.71 0.021 6.38 5.28 10.2
5/6/2021 4:45:00 AM 10.9 51.62 0.021 6.37 5.08 10.22
5/6/2021 5:00:00 AM 10.86 51.548 0.021 6.37 5.06 10.22
5/6/2021 5:15:00 AM 10.82 51.476 0.021 6.34 5.01 10.23
5/6/2021 5:30:00 AM 10.78 51.404 0.021 6.31 5.24 10.25
5/6/2021 5:45:00 AM 10.73 51.314 0.021 6.28 5.05 10.26
5/6/2021 6:00:00 AM 10.69 51.242 0.021 6.3 4.97 10.28
5/6/2021 6:15:00 AM 10.64 51.152 0.021 6.29 4.93 10.29
5/6/2021 6:30:00 AM 10.6 51.08 0.021 6.26 5.03 10.31
5/6/2021 6:45:00 AM 10.55 50.99 0.021 6.29 4.88 10.35
5/6/2021 7:00:00 AM 10.52 50.936 0.021 6.3 4.87 10.38
5/6/2021 7:15:00 AM 10.48 50.864 0.021 6.33 4.81 10.41
5/6/2021 7:30:00 AM 10.46 50.828 0.021 6.31 4.99 10.46
5/6/2021 7:45:00 AM 10.41 50.738 0.021 6.32 4.94 10.47
5/6/2021 8:00:00 AM 10.38 50.684 0.021 6.3 4.93 10.51
5/6/2021 8:15:00 AM 10.41 50.738 0.021 6.35 4.85 10.54
5/6/2021 8:30:00 AM 10.48 50.864 0.021 6.39 15.19 10.57
5/6/2021 8:45:00 AM 10.45 50.81 0.021 6.37 4.91 10.57
5/6/2021 9:00:00 AM 10.44 50.792 0.021 6.36 4.85 10.59
5/6/2021 9:15:00 AM 10.49 50.882 0.021 6.37 4.69 10.61
5/6/2021 9:30:00 AM 10.54 50.972 0.021 6.37 4.69 10.6
5/6/2021 9:45:00 AM 10.63 51.134 0.021 6.38 4.66 10.6
5/6/2021 10:00:00 AM 10.76 51.368 0.021 6.4 4.52 10.6
5/6/2021 10:15:00 AM 10.9 51.62 0.021 6.43 4.66 10.58
5/6/2021 10:30:00 AM 11 51.8 0.021 6.43 4.61 10.57
5/6/2021 10:45:00 AM 11.14 52.052 0.021 6.44 4.6 10.57
5/6/2021 11:00:00 AM 11.27 52.286 0.021 6.48 4.51 10.55
5/6/2021 11:15:00 AM 11.42 52.556 0.021 6.46 4.64 10.54
5/6/2021 11:30:00 AM 11.47 52.646 0.021 6.46 4.79 10.53
5/6/2021 11:45:00 AM 11.57 52.826 0.021 6.45 4.62 10.52
5/6/2021 12:00:00 PM 11.77 53.186 0.021 6.48 4.93 10.49
5/6/2021 12:15:00 PM 11.81 53.258 0.021 6.47 4.54 10.47
5/6/2021 12:30:00 PM 11.92 53.456 0.021 6.49 4.46 10.45
5/6/2021 12:45:00 PM 12.03 53.654 0.021 6.5 4.64 10.43
5/6/2021 1:00:00 PM 12.14 53.852 0.021 6.52 4.47 10.4
5/6/2021 1:15:00 PM 12.25 54.05 0.021 6.53 4.42 10.37
5/6/2021 1:30:00 PM 12.42 54.356 0.021 6.56 4.42 10.35
5/6/2021 1:45:00 PM 12.56 54.608 0.021 6.57 4.41 10.32
5/6/2021 2:00:00 PM 12.69 54.842 0.021 6.58 4.52 10.29
5/6/2021 2:15:00 PM 12.79 55.022 0.021 6.59 4.91 10.27
5/6/2021 2:30:00 PM 12.85 55.13 0.021 6.57 4.42 10.24
5/6/2021 2:45:00 PM 12.9 55.22 0.021 6.57 4.47 10.21
5/6/2021 3:00:00 PM 12.94 55.292 0.021 6.57 4.42 10.2
5/6/2021 3:15:00 PM 13.01 55.418 0.021 6.58 4.19 10.17
5/6/2021 3:30:00 PM 13.03 55.454 0.021 6.58 4.39 10.16
5/6/2021 3:45:00 PM 12.97 55.346 0.021 6.56 4.24 10.14
5/6/2021 4:00:00 PM 12.91 55.238 0.021 6.55 4.32 10.14
5/6/2021 4:15:00 PM 12.86 55.148 0.021 6.55 4.25 10.13
5/6/2021 4:30:00 PM 12.88 55.184 0.021 6.56 4.27 10.13
5/6/2021 4:45:00 PM 12.89 55.202 0.021 6.57 4.18 10.13
5/6/2021 5:00:00 PM 12.84 55.112 0.021 6.56 4.14 10.13
5/6/2021 5:15:00 PM 12.8 55.04 0.021 6.56 4.26 10.12
5/6/2021 5:30:00 PM 12.75 54.95 0.021 6.53 4.28 10.11
5/6/2021 5:45:00 PM 12.7 54.86 0.021 6.53 4.21 10.11
5/6/2021 6:00:00 PM 12.65 54.77 0.021 6.53 4.23 10.11
5/6/2021 6:15:00 PM 12.59 54.662 0.021 6.52 4.29 10.11
5/6/2021 6:30:00 PM 12.54 54.572 0.021 6.52 4.3 10.11
5/6/2021 6:45:00 PM 12.51 54.518 0.021 6.51 4.24 10.11
5/6/2021 7:00:00 PM 12.47 54.446 0.021 6.49 4.21 10.1
5/6/2021 7:15:00 PM 12.43 54.374 0.021 6.49 4.27 10.08
5/6/2021 7:30:00 PM 12.4 54.32 0.021 6.49 4.25 10.06
5/6/2021 7:45:00 PM 12.35 54.23 0.021 6.48 4.26 10.03
5/6/2021 8:00:00 PM 12.3 54.14 0.021 6.47 4.45 10
5/6/2021 8:15:00 PM 12.25 54.05 0.021 6.45 4.26 9.97
5/6/2021 8:30:00 PM 12.19 53.942 0.021 6.45 4.73 9.95
5/6/2021 8:45:00 PM 12.13 53.834 0.022 6.44 4.39 9.93
5/6/2021 9:00:00 PM 12.08 53.744 0.021 6.42 4.37 9.92
5/6/2021 9:15:00 PM 12.03 53.654 0.022 6.42 4.41 9.92
5/6/2021 9:30:00 PM 11.97 53.546 0.022 6.42 4.34 9.93
5/6/2021 9:45:00 PM 11.92 53.456 0.022 6.42 4.36 9.95
5/6/2021 10:00:00 PM 11.85 53.33 0.022 6.41 4.34 9.96
5/6/2021 10:15:00 PM 11.78 53.204 0.022 6.41 4.25 9.96
5/6/2021 10:30:00 PM 11.7 53.06 0.022 6.41 4.29 9.98
5/6/2021 10:45:00 PM 11.63 52.934 0.022 6.37 4.5 10
5/6/2021 11:00:00 PM 11.54 52.772 0.022 6.37 4.28 10.02
5/6/2021 11:15:00 PM 11.46 52.628 0.022 6.36 4.35 10.03
5/6/2021 11:30:00 PM 11.37 52.466 0.022 6.37 4.38 10.05
5/6/2021 11:45:00 PM 11.28 52.304 0.021 6.36 4.4 10.07
5/7/2021 12:00:00 AM 11.19 52.142 0.021 6.34 4.37 10.1
5/7/2021 12:15:00 AM 11.09 51.962 0.022 6.34 4.47 10.11
5/7/2021 12:30:00 AM 10.99 51.782 0.022 6.35 4.5 10.14
5/7/2021 12:45:00 AM 10.9 51.62 0.022 6.34 4.36 10.16
5/7/2021 1:00:00 AM 10.8 51.44 0.022 6.34 4.45 10.19
5/7/2021 1:15:00 AM 10.7 51.26 0.022 6.33 4.65 10.21
5/7/2021 1:30:00 AM 10.6 51.08 0.022 6.31 4.64 10.24
5/7/2021 1:45:00 AM 10.51 50.918 0.022 6.31 4.5 10.25
5/7/2021 2:00:00 AM 10.42 50.756 0.022 6.3 4.49 10.28
5/7/2021 2:15:00 AM 10.33 50.594 0.022 6.3 4.5 10.3
5/7/2021 2:30:00 AM 10.23 50.414 0.022 6.3 4.34 10.33
5/7/2021 2:45:00 AM 10.15 50.27 0.022 6.29 4.46 10.35
5/7/2021 3:00:00 AM 10.06 50.108 0.022 6.3 4.64 10.37
5/7/2021 3:15:00 AM 9.97 49.946 0.022 6.28 4.33 10.39
5/7/2021 3:30:00 AM 9.88 49.784 0.022 6.28 4.33 10.42
5/7/2021 3:45:00 AM 9.8 49.64 0.022 6.27 4.36 10.43
5/7/2021 4:00:00 AM 9.72 49.496 0.022 6.29 4.48 10.46
5/7/2021 4:15:00 AM 9.64 49.352 0.022 6.28 4.34 10.48
5/7/2021 4:30:00 AM 9.56 49.208 0.022 6.28 4.52 10.5
5/7/2021 4:45:00 AM 9.48 49.064 0.022 6.26 4.44 10.52
5/7/2021 5:00:00 AM 9.4 48.92 0.022 6.27 4.55 10.54
5/7/2021 5:15:00 AM 9.32 48.776 0.022 6.27 4.45 10.55
5/7/2021 5:30:00 AM 9.24 48.632 0.022 6.27 4.34 10.59
5/7/2021 5:45:00 AM 9.17 48.506 0.022 6.26 4.39 10.59
5/7/2021 6:00:00 AM 9.1 48.38 0.022 6.27 4.28 10.62
5/7/2021 6:15:00 AM 9.03 48.254 0.022 6.27 4.32 10.65
5/7/2021 6:30:00 AM 8.97 48.146 0.022 6.27 4.44 10.69
5/7/2021 6:45:00 AM 8.94 48.092 0.022 6.27 4.34 10.74
5/7/2021 7:00:00 AM 8.9 48.02 0.022 6.27 4.32 10.77
5/7/2021 7:15:00 AM 8.89 48.002 0.022 6.3 4.27 10.83
5/7/2021 7:30:00 AM 8.89 48.002 0.022 6.31 4.24 10.87
5/7/2021 7:45:00 AM 8.89 48.002 0.022 6.33 4.42 10.9
5/7/2021 8:00:00 AM 8.91 48.038 0.022 6.33 4.34 10.94
5/7/2021 8:15:00 AM 8.96 48.128 0.022 6.34 4.26 10.96
5/7/2021 8:30:00 AM 9 48.2 0.022 6.35 4.3 10.97
5/7/2021 8:45:00 AM 9.04 48.272 0.022 6.35 4.24 10.98
5/7/2021 9:00:00 AM 9.08 48.344 0.022 6.36 4.24 10.98
5/7/2021 9:15:00 AM 9.17 48.506 0.022 6.38 4.15 11
5/7/2021 9:30:00 AM 9.28 48.704 0.022 6.39 4.3 11
5/7/2021 9:45:00 AM 9.39 48.902 0.022 6.39 4.37 10.98
5/7/2021 10:00:00 AM 9.5 49.1 0.022 6.4 4.16 10.97
5/7/2021 10:15:00 AM 9.6 49.28 0.022 6.42 4.26 10.95
5/7/2021 10:30:00 AM 9.77 49.586 0.022 6.44 4.24 10.94
5/7/2021 10:45:00 AM 9.96 49.928 0.022 6.44 4.28 10.91
5/7/2021 11:00:00 AM 10.14 50.252 0.021 6.47 4.13 10.88
5/7/2021 11:15:00 AM 10.2 50.36 0.022 6.46 4.22 10.84
5/7/2021 11:30:00 AM 10.18 50.324 0.022 6.44 4.25 10.82
5/7/2021 11:45:00 AM 10.15 50.27 0.022 6.44 4.23 10.8
5/7/2021 12:00:00 PM 10.16 50.288 0.022 6.44 4.31 10.79
5/7/2021 12:15:00 PM 10.21 50.378 0.022 6.44 4.2 10.78
5/7/2021 12:30:00 PM 10.24 50.432 0.022 6.44 4.1 10.76
5/7/2021 12:45:00 PM 10.28 50.504 0.022 6.45 4.22 10.75
5/7/2021 1:00:00 PM 10.34 50.612 0.022 6.45 4.16 10.74
5/7/2021 1:15:00 PM 10.41 50.738 0.022 6.46 4.79 10.73
5/7/2021 1:30:00 PM 10.45 50.81 0.022 6.47 4.24 10.72
5/7/2021 1:45:00 PM 10.48 50.864 0.022 6.46 4.25 10.71
5/7/2021 2:00:00 PM 10.52 50.936 0.022 6.46 4.3 10.71
5/7/2021 2:15:00 PM 10.54 50.972 0.022 6.47 4.19 10.69
5/7/2021 2:30:00 PM 10.53 50.954 0.022 6.46 4.17 10.66
5/7/2021 2:45:00 PM 10.5 50.9 0.022 6.45 4.16 10.63
5/7/2021 3:00:00 PM 10.48 50.864 0.022 6.44 4.19 10.63
5/7/2021 3:15:00 PM 10.48 50.864 0.022 6.45 4.15 10.64
5/7/2021 3:30:00 PM 10.51 50.918 0.022 6.46 4.2 10.65
5/7/2021 3:45:00 PM 10.56 51.008 0.022 6.46 4.15 10.64
5/7/2021 4:00:00 PM 10.58 51.044 0.022 6.47 4.19 10.63
5/7/2021 4:15:00 PM 10.6 51.08 0.022 6.47 4.18 10.62
5/7/2021 4:30:00 PM 10.61 51.098 0.022 6.47 4.15 10.62
5/7/2021 4:45:00 PM 10.62 51.116 0.022 6.48 4.12 10.6
5/7/2021 5:00:00 PM 10.62 51.116 0.022 6.47 4.03 10.59
5/7/2021 5:15:00 PM 10.61 51.098 0.022 6.46 4.16 10.58
5/7/2021 5:30:00 PM 10.6 51.08 0.022 6.45 4 10.55
5/7/2021 5:45:00 PM 10.58 51.044 0.022 6.44 4.13 10.53
5/7/2021 6:00:00 PM 10.55 50.99 0.022 6.44 4.25 10.51
5/7/2021 6:15:00 PM 10.53 50.954 0.022 6.44 4.21 10.49
5/7/2021 6:30:00 PM 10.5 50.9 0.022 6.43 4.15 10.47
5/7/2021 6:45:00 PM 10.48 50.864 0.022 6.41 4.23 10.45
5/7/2021 7:00:00 PM 10.46 50.828 0.022 6.41 4.21 10.43
5/7/2021 7:15:00 PM 10.44 50.792 0.022 6.42 4.15 10.44
5/7/2021 7:30:00 PM 10.42 50.756 0.022 6.4 4.21 10.42
5/7/2021 7:45:00 PM 10.39 50.702 0.022 6.4 4.19 10.39
5/7/2021 8:00:00 PM 10.36 50.648 0.023 6.39 4.18 10.37
5/7/2021 8:15:00 PM 10.33 50.594 0.022 6.37 4.33 10.36
5/7/2021 8:30:00 PM 10.31 50.558 0.022 6.37 4.17 10.35
5/7/2021 8:45:00 PM 10.28 50.504 0.022 6.36 4.33 10.34
5/7/2021 9:00:00 PM 10.25 50.45 0.023 6.36 4.2 10.34
5/7/2021 9:15:00 PM 10.23 50.414 0.023 6.36 4.4 10.34
5/7/2021 9:30:00 PM 10.2 50.36 0.022 6.35 4.33 10.34
5/7/2021 9:45:00 PM 10.18 50.324 0.023 6.35 4.4 10.35
5/7/2021 10:00:00 PM 10.15 50.27 0.023 6.36 4.46 10.35
5/7/2021 10:15:00 PM 10.13 50.234 0.023 6.35 4.31 10.35
5/7/2021 10:30:00 PM 10.11 50.198 0.023 6.35 4.27 10.36
5/7/2021 10:45:00 PM 10.08 50.144 0.023 6.35 4.39 10.36
5/7/2021 11:00:00 PM 10.05 50.09 0.023 6.36 4.38 10.38
5/7/2021 11:15:00 PM 10.02 50.036 0.023 6.35 4.43 10.38
5/7/2021 11:30:00 PM 9.99 49.982 0.023 6.36 4.64 10.39
5/7/2021 11:45:00 PM 9.96 49.928 0.023 6.35 4.55 10.4
5/8/2021 12:00:00 AM 9.93 49.874 0.023 6.36 4.6 10.41
5/8/2021 12:15:00 AM 9.9 49.82 0.023 6.36 4.78 10.42
5/8/2021 12:30:00 AM 9.87 49.766 0.023 6.35 4.68 10.42
5/8/2021 12:45:00 AM 9.83 49.694 0.023 6.34 4.83 10.43
5/8/2021 1:00:00 AM 9.8 49.64 0.023 6.34 4.78 10.44
5/8/2021 1:15:00 AM 9.76 49.568 0.023 6.32 4.93 10.45
5/8/2021 1:30:00 AM 9.72 49.496 0.023 6.34 5.12 10.46
5/8/2021 1:45:00 AM 9.67 49.406 0.023 6.33 4.94 10.47
5/8/2021 2:00:00 AM 9.63 49.334 0.023 6.34 5.16 10.49
5/8/2021 2:15:00 AM 9.58 49.244 0.023 6.34 5.28 10.51
5/8/2021 2:30:00 AM 9.53 49.154 0.023 6.35 5.2 10.52
5/8/2021 2:45:00 AM 9.49 49.082 0.023 6.35 5.45 10.53
5/8/2021 3:00:00 AM 9.45 49.01 0.023 6.34 5.61 10.54
5/8/2021 3:15:00 AM 9.41 48.938 0.023 6.33 5.96 10.56
5/8/2021 3:30:00 AM 9.37 48.866 0.023 6.32 6.02 10.57
5/8/2021 3:45:00 AM 9.33 48.794 0.023 6.32 6.52 10.58
5/8/2021 4:00:00 AM 9.29 48.722 0.023 6.31 6.56 10.6
5/8/2021 4:15:00 AM 9.25 48.65 0.023 6.31 7.02 10.6
5/8/2021 4:30:00 AM 9.21 48.578 0.023 6.28 6.91 10.62
5/8/2021 4:45:00 AM 9.17 48.506 0.023 6.3 7.14 10.63
5/8/2021 5:00:00 AM 9.13 48.434 0.022 6.27 7.59 10.65
5/8/2021 5:15:00 AM 9.09 48.362 0.022 6.24 7.68 10.66
5/8/2021 5:30:00 AM 9.05 48.29 0.022 6.23 8.03 10.67
5/8/2021 5:45:00 AM 9.01 48.218 0.022 6.16 8.66 10.69
5/8/2021 6:00:00 AM 8.98 48.164 0.022 6.17 8.93 10.7
5/8/2021 6:15:00 AM 8.95 48.11 0.022 6.17 9.35 10.71
5/8/2021 6:30:00 AM 8.92 48.056 0.021 6.18 9.14 10.73
5/8/2021 6:45:00 AM 8.9 48.02 0.021 6.17 9.16 10.75
5/8/2021 7:00:00 AM 8.88 47.984 0.021 6.19 8.69 10.76
5/8/2021 7:15:00 AM 8.86 47.948 0.021 6.18 8.4 10.78
5/8/2021 7:30:00 AM 8.84 47.912 0.021 6.16 8.23 10.79
5/8/2021 7:45:00 AM 8.82 47.876 0.021 6.15 8.29 10.81
5/8/2021 8:00:00 AM 8.81 47.858 0.021 6.18 7.86 10.84
5/8/2021 8:15:00 AM 8.8 47.84 0.021 6.19 7.81 10.86
5/8/2021 8:30:00 AM 8.78 47.804 0.021 6.19 7.46 10.87
5/8/2021 8:45:00 AM 8.77 47.786 0.021 6.16 7.69 10.89
5/8/2021 9:00:00 AM 8.76 47.768 0.021 6.18 7.28 10.9
5/8/2021 9:15:00 AM 8.76 47.768 0.021 6.17 6.99 10.92
5/8/2021 9:30:00 AM 8.77 47.786 0.021 6.16 7.29 10.94
5/8/2021 9:45:00 AM 8.79 47.822 0.021 6.19 7.32 10.96
5/8/2021 10:00:00 AM 8.83 47.894 0.021 6.2 7.44 10.96
5/8/2021 10:15:00 AM 8.83 47.894 0.021 6.18 7.27 10.96
5/8/2021 10:30:00 AM 8.82 47.876 0.02 6.2 7.4 10.96
5/8/2021 10:45:00 AM 8.84 47.912 0.02 6.16 7.42 10.96
5/8/2021 11:00:00 AM 8.87 47.966 0.02 6.16 7.03 10.96
5/8/2021 11:15:00 AM 8.88 47.984 0.02 6.17 6.99 10.96
5/8/2021 11:30:00 AM 8.9 48.02 0.02 6.15 6.88 10.96
5/8/2021 11:45:00 AM 8.91 48.038 0.02 6.17 6.68 10.96
5/8/2021 12:00:00 PM 8.93 48.074 0.02 6.1 6.6 10.95
5/8/2021 12:15:00 PM 8.95 48.11 0.02 6.18 6.5 10.95
5/8/2021 12:30:00 PM 8.98 48.164 0.02 6.21 6.37 10.95
5/8/2021 12:45:00 PM 9.06 48.308 0.02 6.18 6.35 10.95
5/8/2021 1:00:00 PM 9.17 48.506 0.02 6.2 6.31 10.94
5/8/2021 1:15:00 PM 9.22 48.596 0.02 6.18 6.15 10.94
5/8/2021 1:30:00 PM 9.28 48.704 0.02 6.21 6.08 10.93
5/8/2021 1:45:00 PM 9.34 48.812 0.02 6.22 5.87 10.92
5/8/2021 2:00:00 PM 9.43 48.974 0.02 6.2 6.04 10.91
5/8/2021 2:15:00 PM 9.48 49.064 0.02 6.21 5.92 10.88
5/8/2021 2:30:00 PM 9.54 49.172 0.02 6.21 5.75 10.87
5/8/2021 2:45:00 PM 9.65 49.37 0.02 6.21 5.94 10.85
5/8/2021 3:00:00 PM 9.73 49.514 0.019 6.2 5.72 10.84
5/8/2021 3:15:00 PM 9.72 49.496 0.019 6.21 5.61 10.83
5/8/2021 3:30:00 PM 9.73 49.514 0.019 6.17 6.6 10.81
5/8/2021 3:45:00 PM 9.74 49.532 0.019 6.16 5.53 10.81
5/8/2021 4:00:00 PM 9.8 49.64 0.019 6.17 5.63 10.81
5/8/2021 4:15:00 PM 9.86 49.748 0.019 6.19 5.47 10.8
5/8/2021 4:30:00 PM 9.87 49.766 0.019 6.17 5.38 10.77
5/8/2021 4:45:00 PM 9.83 49.694 0.019 6.13 5.98 10.75
5/8/2021 5:00:00 PM 9.85 49.73 0.019 6.13 5.52 10.75
5/8/2021 5:15:00 PM 9.96 49.928 0.019 6.16 5.48 10.76
5/8/2021 5:30:00 PM 10.01 50.018 0.019 6.2 5.34 10.75
5/8/2021 5:45:00 PM 10.02 50.036 0.019 6.18 5.32 10.74
5/8/2021 6:00:00 PM 10.05 50.09 0.019 6.2 5.12 10.74
5/8/2021 6:15:00 PM 9.97 49.946 0.019 6.17 5.39 10.72
5/8/2021 6:30:00 PM 9.88 49.784 0.019 6.14 5.33 10.7
5/8/2021 6:45:00 PM 9.81 49.658 0.019 6.14 5.43 10.69
5/8/2021 7:00:00 PM 9.79 49.622 0.019 6.16 5.26 10.69
5/8/2021 7:15:00 PM 9.78 49.604 0.019 6.16 5.33 10.69
5/8/2021 7:30:00 PM 9.76 49.568 0.019 6.07 5.33 10.67
5/8/2021 7:45:00 PM 9.72 49.496 0.019 6.08 5.09 10.66
5/8/2021 8:00:00 PM 9.67 49.406 0.019 6.07 5.14 10.66
5/8/2021 8:15:00 PM 9.61 49.298 0.019 6.06 5.21 10.65
5/8/2021 8:30:00 PM 9.55 49.19 0.019 6.1 5.34 10.65
5/8/2021 8:45:00 PM 9.49 49.082 0.019 6.07 5.24 10.65
5/8/2021 9:00:00 PM 9.43 48.974 0.019 6.03 5.32 10.66
5/8/2021 9:15:00 PM 9.39 48.902 0.019 6.06 5.33 10.66
5/8/2021 9:30:00 PM 9.34 48.812 0.019 6.05 5.39 10.68
5/8/2021 9:45:00 PM 9.28 48.704 0.019 6.06 5.26 10.68
5/8/2021 10:00:00 PM 9.22 48.596 0.019 6.07 5.19 10.7
5/8/2021 10:15:00 PM 9.16 48.488 0.019 6.05 5.23 10.72
5/8/2021 10:30:00 PM 9.1 48.38 0.019 6.06 5.23 10.73
5/8/2021 10:45:00 PM 9.04 48.272 0.019 6.01 5.38 10.75
5/8/2021 11:00:00 PM 8.99 48.182 0.019 6.03 5.34 10.76
5/8/2021 11:15:00 PM 8.94 48.092 0.019 6.08 5.27 10.78
5/8/2021 11:30:00 PM 8.88 47.984 0.019 6.03 5.23 10.79
5/8/2021 11:45:00 PM 8.82 47.876 0.019 6.03 5.21 10.81
5/9/2021 12:00:00 AM 8.76 47.768 0.019 5.98 5.38 10.82
5/9/2021 12:15:00 AM 8.71 47.678 0.02 6.01 5.14 10.84
5/9/2021 12:30:00 AM 8.64 47.552 0.02 6.01 5.01 10.85
5/9/2021 12:45:00 AM 8.59 47.462 0.02 6.06 4.96 10.87
5/9/2021 1:00:00 AM 8.54 47.372 0.019 6.06 5.07 10.88
5/9/2021 1:15:00 AM 8.49 47.282 0.019 6.04 5.02 10.9
5/9/2021 1:30:00 AM 8.44 47.192 0.019 6.04 4.96 10.91
5/9/2021 1:45:00 AM 8.38 47.084 0.02 6.04 5.05 10.93
5/9/2021 2:00:00 AM 8.33 46.994 0.019 6.05 4.96 10.94
5/9/2021 2:15:00 AM 8.28 46.904 0.02 6.04 4.89 10.97
5/9/2021 2:30:00 AM 8.23 46.814 0.019 6.04 4.98 10.98
5/9/2021 2:45:00 AM 8.17 46.706 0.02 6.03 4.89 10.99
5/9/2021 3:00:00 AM 8.11 46.598 0.02 6.03 4.91 11.01
5/9/2021 3:15:00 AM 8.05 46.49 0.02 6.04 4.95 11.02
5/9/2021 3:30:00 AM 8 46.4 0.02 6.02 4.84 11.03
5/9/2021 3:45:00 AM 7.95 46.31 0.02 6.02 4.91 11.05
5/9/2021 4:00:00 AM 7.89 46.202 0.02 6.02 4.95 11.06
5/9/2021 4:15:00 AM 7.83 46.094 0.02 6.02 4.94 11.08
5/9/2021 4:30:00 AM 7.78 46.004 0.02 6.02 4.79 11.1
5/9/2021 4:45:00 AM 7.71 45.878 0.019 6.01 4.92 11.11
5/9/2021 5:00:00 AM 7.65 45.77 0.02 6.01 4.81 11.13
5/9/2021 5:15:00 AM 7.59 45.662 0.02 6.02 4.72 11.14
5/9/2021 5:30:00 AM 7.53 45.554 0.02 6 4.62 11.16
5/9/2021 5:45:00 AM 7.48 45.464 0.02 5.94 4.53 11.19
5/9/2021 6:00:00 AM 7.43 45.374 0.02 5.99 4.67 11.2
5/9/2021 6:15:00 AM 7.39 45.302 0.02 6.01 4.85 11.22
5/9/2021 6:30:00 AM 7.36 45.248 0.02 6 4.57 11.26
5/9/2021 6:45:00 AM 7.33 45.194 0.02 5.99 4.52 11.28
5/9/2021 7:00:00 AM 7.29 45.122 0.02 5.99 4.67 11.31
5/9/2021 7:15:00 AM 7.27 45.086 0.02 5.99 4.52 11.34
5/9/2021 7:30:00 AM 7.26 45.068 0.02 6.03 4.56 11.37
5/9/2021 7:45:00 AM 7.26 45.068 0.02 6.02 4.4 11.39
5/9/2021 8:00:00 AM 7.29 45.122 0.02 6.04 4.38 11.41
5/9/2021 8:15:00 AM 7.34 45.212 0.02 6.04 4.41 11.43
5/9/2021 8:30:00 AM 7.4 45.32 0.02 6.02 4.44 11.43
5/9/2021 8:45:00 AM 7.47 45.446 0.02 6.07 4.42 11.44
5/9/2021 9:00:00 AM 7.55 45.59 0.02 6.05 4.45 11.44
5/9/2021 9:15:00 AM 7.64 45.752 0.02 6.08 4.42 11.43
5/9/2021 9:30:00 AM 7.72 45.896 0.02 6.1 4.29 11.42
5/9/2021 9:45:00 AM 7.84 46.112 0.02 6.13 4.31 11.41
5/9/2021 10:00:00 AM 7.99 46.382 0.02 6.13 4.21 11.4
5/9/2021 10:15:00 AM 8.12 46.616 0.02 6.14 4.26 11.36
5/9/2021 10:30:00 AM 8.13 46.634 0.02 6.13 4.3 11.34
5/9/2021 10:45:00 AM 8.2 46.76 0.02 6.13 4.24 11.33
5/9/2021 11:00:00 AM 8.32 46.976 0.02 6.15 4.31 11.32
5/9/2021 11:15:00 AM 8.41 47.138 0.02 6.17 4.28 11.29
5/9/2021 11:30:00 AM 8.46 47.228 0.02 6.17 4.19 11.27
5/9/2021 11:45:00 AM 8.52 47.336 0.02 6.19 4.34 11.25
5/9/2021 12:00:00 PM 8.6 47.48 0.02 6.21 4.24 11.23
5/9/2021 12:15:00 PM 8.7 47.66 0.02 6.22 4.26 11.21
5/9/2021 12:30:00 PM 8.8 47.84 0.02 6.23 4.12 11.19
5/9/2021 12:45:00 PM 8.85 47.93 0.02 6.23 4.14 11.17
5/9/2021 1:00:00 PM 8.85 47.93 0.02 6.21 4.3 11.16
5/9/2021 1:15:00 PM 8.82 47.876 0.02 6.2 4.2 11.14
5/9/2021 1:30:00 PM 8.81 47.858 0.02 6.19 4.05 11.13
5/9/2021 1:45:00 PM 8.79 47.822 0.02 6.1 4.15 11.12
5/9/2021 2:00:00 PM 8.76 47.768 0.02 6.08 4.02 11.1
5/9/2021 2:15:00 PM 8.74 47.732 0.02 6.1 4.23 11.08
5/9/2021 2:30:00 PM 8.71 47.678 0.02 6.13 4.08 11.07
5/9/2021 2:45:00 PM 8.7 47.66 0.02 6.13 4.15 11.08
5/9/2021 3:00:00 PM 8.7 47.66 0.02 6.16 4.25 11.08
5/9/2021 3:15:00 PM 8.7 47.66 0.02 6.16 4.24 11.09
5/9/2021 3:30:00 PM 8.71 47.678 0.02 6.2 4.26 11.08
5/9/2021 3:45:00 PM 8.7 47.66 0.021 6.2 4.22 11.07
5/9/2021 4:00:00 PM 8.69 47.642 0.021 6.2 4.12 11.05
5/9/2021 4:15:00 PM 8.67 47.606 0.021 6.19 4.23 11.04
5/9/2021 4:30:00 PM 8.66 47.588 0.021 6.15 4.22 11.02
5/9/2021 4:45:00 PM 8.66 47.588 0.021 6.15 4.14 11.02
5/9/2021 5:00:00 PM 8.64 47.552 0.021 6.14 4.19 11.01
5/9/2021 5:15:00 PM 8.63 47.534 0.021 6.13 4.23 11
5/9/2021 5:30:00 PM 8.61 47.498 0.021 6.13 4.3 10.99
5/9/2021 5:45:00 PM 8.6 47.48 0.021 6.14 4.33 10.98
5/9/2021 6:00:00 PM 8.58 47.444 0.021 6.16 4.39 10.98
5/9/2021 6:15:00 PM 8.56 47.408 0.021 6.16 4.48 10.98
5/9/2021 6:30:00 PM 8.53 47.354 0.021 6.16 4.57 10.97
5/9/2021 6:45:00 PM 8.51 47.318 0.021 6.15 4.67 10.97
5/9/2021 7:00:00 PM 8.48 47.264 0.021 6.15 4.74 10.96
5/9/2021 7:15:00 PM 8.45 47.21 0.021 6.12 4.76 10.96
5/9/2021 7:30:00 PM 8.42 47.156 0.021 6.13 4.86 10.95
5/9/2021 7:45:00 PM 8.39 47.102 0.021 6.13 5.07 10.95
5/9/2021 8:00:00 PM 8.35 47.03 0.021 6.13 5.33 10.94
5/9/2021 8:15:00 PM 8.32 46.976 0.021 6.13 5.35 10.94
5/9/2021 8:30:00 PM 8.28 46.904 0.021 6.15 5.49 10.94
5/9/2021 8:45:00 PM 8.25 46.85 0.021 6.13 5.94 10.94
5/9/2021 9:00:00 PM 8.22 46.796 0.021 6.13 5.83 10.95
5/9/2021 9:15:00 PM 8.18 46.724 0.021 6.1 5.92 10.95
5/9/2021 9:30:00 PM 8.15 46.67 0.021 6.13 6.23 10.96
5/9/2021 9:45:00 PM 8.12 46.616 0.021 6.12 6.45 10.97
5/9/2021 10:00:00 PM 8.09 46.562 0.021 6.11 6.75 10.97
5/9/2021 10:15:00 PM 8.06 46.508 0.021 6.09 6.79 10.98
5/9/2021 10:30:00 PM 8.03 46.454 0.021 6.07 7.14 11
5/9/2021 10:45:00 PM 8 46.4 0.021 6.04 7.14 11
5/9/2021 11:00:00 PM 7.97 46.346 0.021 6.03 7.21 11.01
5/9/2021 11:15:00 PM 7.95 46.31 0.021 6.02 7.41 11.01
5/9/2021 11:30:00 PM 7.92 46.256 0.021 6.03 7.61 11.02
5/9/2021 11:45:00 PM 7.9 46.22 0.02 6.01 7.9 11.03
5/10/2021 12:00:00 AM 7.88 46.184 0.02 6.01 7.94 11.03
5/10/2021 12:15:00 AM 7.86 46.148 0.02 5.99 8.12 11.04
5/10/2021 12:30:00 AM 7.84 46.112 0.02 6 8.72 11.04
5/10/2021 12:45:00 AM 7.82 46.076 0.02 5.99 8.68 11.05
5/10/2021 1:00:00 AM 7.8 46.04 0.02 5.96 8.89 11.05
5/10/2021 1:15:00 AM 7.77 45.986 0.02 5.96 9.25 11.06
5/10/2021 1:30:00 AM 7.76 45.968 0.02 5.95 9.57 11.07
5/10/2021 1:45:00 AM 7.74 45.932 0.02 5.95 10.64 11.07
5/10/2021 2:00:00 AM 7.73 45.914 0.02 5.93 10.67 11.08
5/10/2021 2:15:00 AM 7.72 45.896 0.02 5.93 11.16 11.08
5/10/2021 2:30:00 AM 7.71 45.878 0.02 5.93 12.12 11.08
5/10/2021 2:45:00 AM 7.7 45.86 0.02 5.92 11.79 11.09
5/10/2021 3:00:00 AM 7.69 45.842 0.02 5.9 12.4 11.09
5/10/2021 3:15:00 AM 7.68 45.824 0.02 5.9 12.79 11.1
5/10/2021 3:30:00 AM 7.67 45.806 0.02 5.89 13.39 11.1
5/10/2021 3:45:00 AM 7.66 45.788 0.019 5.89 13.15 11.1
5/10/2021 4:00:00 AM 7.65 45.77 0.019 5.87 12.76 11.11
5/10/2021 4:15:00 AM 7.63 45.734 0.019 5.85 13.25 11.12
5/10/2021 4:30:00 AM 7.62 45.716 0.019 5.9 13.35 11.12
5/10/2021 4:45:00 AM 7.61 45.698 0.019 5.86 13.36 11.13
5/10/2021 5:00:00 AM 7.61 45.698 0.019 5.84 12.05 11.13
5/10/2021 5:15:00 AM 7.6 45.68 0.019 5.83 11.95 11.14
5/10/2021 5:30:00 AM 7.59 45.662 0.019 5.84 12.11 11.14
5/10/2021 5:45:00 AM 7.58 45.644 0.019 5.82 12.24 11.14
5/10/2021 6:00:00 AM 7.57 45.626 0.019 5.84 11.51 11.15
5/10/2021 6:15:00 AM 7.57 45.626 0.019 5.83 12.68 11.16
5/10/2021 6:30:00 AM 7.56 45.608 0.019 5.84 11.46 11.16
5/10/2021 6:45:00 AM 7.55 45.59 0.019 5.83 10.94 11.17
5/10/2021 7:00:00 AM 7.55 45.59 0.019 5.83 10.63 11.18
5/10/2021 7:15:00 AM 7.54 45.572 0.019 5.84 10.54 11.19
5/10/2021 7:30:00 AM 7.54 45.572 0.019 5.83 10.14 11.2
5/10/2021 7:45:00 AM 7.53 45.554 0.019 5.83 9.97 11.21
5/10/2021 8:00:00 AM 7.54 45.572 0.019 5.82 9.77 11.23
5/10/2021 8:15:00 AM 7.54 45.572 0.019 5.81 9.78 11.24
5/10/2021 8:30:00 AM 7.54 45.572 0.019 5.8 9.19 11.24
5/10/2021 8:45:00 AM 7.55 45.59 0.019 5.81 8.97 11.25
5/10/2021 9:00:00 AM 7.55 45.59 0.019 5.82 9.26 11.27
5/10/2021 9:15:00 AM 7.56 45.608 0.018 5.82 8.49 11.27
5/10/2021 9:30:00 AM 7.56 45.608 0.018 5.82 8.39 11.27
5/10/2021 9:45:00 AM 7.57 45.626 0.018 5.82 7.98 11.27
5/10/2021 10:00:00 AM 7.58 45.644 0.018 5.81 7.99 11.28
5/10/2021 10:15:00 AM 7.6 45.68 0.018 5.82 7.94 11.29
5/10/2021 10:30:00 AM 7.62 45.716 0.018 5.81 7.86 11.29
5/10/2021 10:45:00 AM 7.63 45.734 0.018 5.86 7.81 11.29
5/10/2021 11:00:00 AM 7.63 45.734 0.018 5.82 7.54 11.29
5/10/2021 11:15:00 AM 7.64 45.752 0.018 5.85 7.41 11.29
5/10/2021 11:30:00 AM 7.67 45.806 0.018 5.84 7.59 11.3
5/10/2021 11:45:00 AM 7.69 45.842 0.018 5.84 7.14 11.31
5/10/2021 12:00:00 PM 7.71 45.878 0.018 5.87 6.88 11.31
5/10/2021 12:15:00 PM 7.79 46.022 0.018 5.86 7.13 11.31
5/10/2021 12:30:00 PM 7.87 46.166 0.018 5.85 6.74 11.3
5/10/2021 12:45:00 PM 7.99 46.382 0.018 5.85 6.72 11.3
5/10/2021 1:00:00 PM 8.09 46.562 0.018 5.91 6.83 11.28
5/10/2021 1:15:00 PM 8.17 46.706 0.018 5.89 6.48 11.26
5/10/2021 1:30:00 PM 8.35 47.03 0.018 5.92 6.48 11.25
5/10/2021 1:45:00 PM 8.5 47.3 0.018 5.92 6.23 11.21
5/10/2021 2:00:00 PM 8.58 47.444 0.018 5.91 6.16 11.18
5/10/2021 2:15:00 PM 8.65 47.57 0.018 5.91 6.22 11.16
5/10/2021 2:30:00 PM 8.74 47.732 0.018 5.93 6.34 11.13
5/10/2021 2:45:00 PM 8.77 47.786 0.018 5.89 6.01 11.11
5/10/2021 3:00:00 PM 8.87 47.966 0.018 5.93 5.89 11.09
5/10/2021 3:15:00 PM 9 48.2 0.018 5.97 5.78 11.07
5/10/2021 3:30:00 PM 9.09 48.362 0.018 5.98 5.78 11.04
5/10/2021 3:45:00 PM 9.15 48.47 0.018 5.97 5.82 11.01
5/10/2021 4:00:00 PM 9.21 48.578 0.018 5.96 5.72 10.98
5/10/2021 4:15:00 PM 9.25 48.65 0.018 5.99 5.61 10.97
5/10/2021 4:30:00 PM 9.28 48.704 0.018 5.96 5.76 10.94
5/10/2021 4:45:00 PM 9.34 48.812 0.018 5.96 5.65 10.92
5/10/2021 5:00:00 PM 9.38 48.884 0.018 5.96 5.59 10.9
5/10/2021 5:15:00 PM 9.4 48.92 0.018 5.97 5.5 10.88
5/10/2021 5:30:00 PM 9.44 48.992 0.018 5.99 5.59 10.86
5/10/2021 5:45:00 PM 9.47 49.046 0.018 5.97 5.64 10.84
5/10/2021 6:00:00 PM 9.48 49.064 0.018 5.97 5.62 10.83
5/10/2021 6:15:00 PM 9.49 49.082 0.018 5.96 5.37 10.82
5/10/2021 6:30:00 PM 9.5 49.1 0.018 5.98 5.5 10.8
5/10/2021 6:45:00 PM 9.5 49.1 0.018 5.99 5.63 10.8
5/10/2021 7:00:00 PM 9.5 49.1 0.018 5.97 5.63 10.79
5/10/2021 7:15:00 PM 9.49 49.082 0.018 5.97 5.51 10.78
5/10/2021 7:30:00 PM 9.49 49.082 0.018 5.97 5.6 10.77
5/10/2021 7:45:00 PM 9.47 49.046 0.018 5.97 5.29 10.76
5/10/2021 8:00:00 PM 9.43 48.974 0.018 5.97 5.5 10.75
5/10/2021 8:15:00 PM 9.4 48.92 0.018 5.98 5.44 10.74
5/10/2021 8:30:00 PM 9.35 48.83 0.018 5.94 5.33 10.73
5/10/2021 8:45:00 PM 9.31 48.758 0.018 5.94 5.49 10.74
5/10/2021 9:00:00 PM 9.26 48.668 0.018 5.94 5.45 10.74
5/10/2021 9:15:00 PM 9.21 48.578 0.018 5.91 5.5 10.75
5/10/2021 9:30:00 PM 9.16 48.488 0.018 5.91 5.41 10.76
5/10/2021 9:45:00 PM 9.11 48.398 0.018 5.92 5.44 10.77
5/10/2021 10:00:00 PM 9.06 48.308 0.018 5.9 5.26 10.78
5/10/2021 10:15:00 PM 9 48.2 0.018 5.91 5.38 10.8
5/10/2021 10:30:00 PM 8.95 48.11 0.018 5.92 5.24 10.81
5/10/2021 10:45:00 PM 8.9 48.02 0.018 5.92 5.33 10.82
5/10/2021 11:00:00 PM 8.84 47.912 0.018 5.9 5.23 10.84
5/10/2021 11:15:00 PM 8.79 47.822 0.018 5.89 5.24 10.85
5/10/2021 11:30:00 PM 8.74 47.732 0.018 5.89 5.17 10.86
5/10/2021 11:45:00 PM 8.69 47.642 0.018 5.9 5.19 10.88
5/11/2021 12:00:00 AM 8.63 47.534 0.018 5.9 5.15 10.89
5/11/2021 12:15:00 AM 8.58 47.444 0.018 5.88 4.98 10.9
5/11/2021 12:30:00 AM 8.52 47.336 0.018 5.89 5.03 10.92
5/11/2021 12:45:00 AM 8.46 47.228 0.018 5.88 5.04 10.93
5/11/2021 1:00:00 AM 8.41 47.138 0.018 5.91 5.1 10.95
5/11/2021 1:15:00 AM 8.35 47.03 0.018 5.89 5.08 10.97
5/11/2021 1:30:00 AM 8.3 46.94 0.018 5.89 5.1 10.98
5/11/2021 1:45:00 AM 8.24 46.832 0.018 5.9 9.69 10.99
5/11/2021 2:00:00 AM 8.19 46.742 0.018 5.92 5.04 11.01
5/11/2021 2:15:00 AM 8.14 46.652 0.019 5.91 5.11 11.03
5/11/2021 2:30:00 AM 8.09 46.562 0.019 5.91 4.83 11.04
5/11/2021 2:45:00 AM 8.04 46.472 0.019 5.92 4.86 11.06
5/11/2021 3:00:00 AM 7.99 46.382 0.019 5.92 4.8 11.07
5/11/2021 3:15:00 AM 7.94 46.292 0.019 5.9 4.73 11.07
5/11/2021 3:30:00 AM 7.89 46.202 0.019 5.9 4.81 11.09
5/11/2021 3:45:00 AM 7.84 46.112 0.018 5.87 4.71 11.11
5/11/2021 4:00:00 AM 7.8 46.04 0.019 5.84 4.8 11.12
5/11/2021 4:15:00 AM 7.75 45.95 0.018 5.84 4.7 11.14
5/11/2021 4:30:00 AM 7.7 45.86 0.019 5.82 4.8 11.15
5/11/2021 4:45:00 AM 7.64 45.752 0.019 5.86 4.9 11.16
5/11/2021 5:00:00 AM 7.59 45.662 0.019 5.85 4.8 11.17
5/11/2021 5:15:00 AM 7.54 45.572 0.019 5.83 4.69 11.19
5/11/2021 5:30:00 AM 7.5 45.5 0.019 5.84 4.78 11.2
5/11/2021 5:45:00 AM 7.45 45.41 0.019 5.83 6.65 11.21
5/11/2021 6:00:00 AM 7.41 45.338 0.019 5.82 4.74 11.23
5/11/2021 6:15:00 AM 7.36 45.248 0.019 5.83 4.66 11.25
5/11/2021 6:30:00 AM 7.31 45.158 0.019 5.82 4.55 11.28
5/11/2021 6:45:00 AM 7.28 45.104 0.019 5.83 4.61 11.31
5/11/2021 7:00:00 AM 7.25 45.05 0.019 5.83 4.53 11.33
5/11/2021 7:15:00 AM 7.23 45.014 0.019 5.86 4.53 11.36
5/11/2021 7:30:00 AM 7.22 44.996 0.019 5.85 4.48 11.38
5/11/2021 7:45:00 AM 7.23 45.014 0.019 5.85 4.49 11.4
5/11/2021 8:00:00 AM 7.25 45.05 0.019 5.87 4.46 11.42
5/11/2021 8:15:00 AM 7.28 45.104 0.019 5.87 4.43 11.43
5/11/2021 8:30:00 AM 7.33 45.194 0.019 5.9 4.46 11.44
5/11/2021 8:45:00 AM 7.39 45.302 0.019 5.91 4.52 11.44
5/11/2021 9:00:00 AM 7.46 45.428 0.019 5.91 4.37 11.44
5/11/2021 9:15:00 AM 7.55 45.59 0.019 5.93 4.37 11.43
5/11/2021 9:30:00 AM 7.64 45.752 0.019 5.92 4.45 11.42
5/11/2021 9:45:00 AM 7.75 45.95 0.019 5.93 4.33 11.41
5/11/2021 10:00:00 AM 7.87 46.166 0.019 5.95 4.28 11.39
5/11/2021 10:15:00 AM 8 46.4 0.019 5.98 4.36 11.37
5/11/2021 10:30:00 AM 8.13 46.634 0.019 5.98 4.3 11.35
5/11/2021 10:45:00 AM 8.26 46.868 0.019 5.99 4.32 11.33
5/11/2021 11:00:00 AM 8.32 46.976 0.019 5.99 4.2 11.3
5/11/2021 11:15:00 AM 8.36 47.048 0.019 6 4.2 11.28
5/11/2021 11:30:00 AM 8.41 47.138 0.019 5.98 4.15 11.26
5/11/2021 11:45:00 AM 8.43 47.174 0.019 5.99 4.26 11.24
5/11/2021 12:00:00 PM 8.42 47.156 0.019 5.97 4.22 11.23
5/11/2021 12:15:00 PM 8.46 47.228 0.019 5.99 4.07 11.23
5/11/2021 12:30:00 PM 8.52 47.336 0.019 5.98 4.36 11.22
5/11/2021 12:45:00 PM 8.58 47.444 0.019 6.02 4.16 11.21
5/11/2021 1:00:00 PM 8.62 47.516 0.019 6.01 4.21 11.2
5/11/2021 1:15:00 PM 8.68 47.624 0.019 6.01 4.2 11.18
5/11/2021 1:30:00 PM 8.78 47.804 0.019 6.02 4.23 11.15
5/11/2021 1:45:00 PM 8.79 47.822 0.019 6.03 4.09 11.12
5/11/2021 2:00:00 PM 8.77 47.786 0.019 6 4.15 11.11
5/11/2021 2:15:00 PM 8.85 47.93 0.019 6.01 4.2 11.1
5/11/2021 2:30:00 PM 9.02 48.236 0.019 6.06 4.16 11.08
5/11/2021 2:45:00 PM 9.07 48.326 0.019 6.07 4.16 11.06
5/11/2021 3:00:00 PM 9.1 48.38 0.019 6.06 4.3 11.05
5/11/2021 3:15:00 PM 9.23 48.614 0.019 6.08 4.22 11.03
5/11/2021 3:30:00 PM 9.26 48.668 0.019 6.08 4.17 11
5/11/2021 3:45:00 PM 9.27 48.686 0.019 6.07 4.32 11
5/11/2021 4:00:00 PM 9.34 48.812 0.019 6.07 4.05 10.99
5/11/2021 4:15:00 PM 9.47 49.046 0.019 6.09 4.03 10.95
5/11/2021 4:30:00 PM 9.45 49.01 0.019 6.06 4.21 10.93
5/11/2021 4:45:00 PM 9.42 48.956 0.019 6.07 4.14 10.92
5/11/2021 5:00:00 PM 9.42 48.956 0.019 6.06 4.13 10.9
5/11/2021 5:15:00 PM 9.37 48.866 0.019 6.06 4.11 10.91
5/11/2021 5:30:00 PM 9.35 48.83 0.019 6.07 4.04 10.92
5/11/2021 5:45:00 PM 9.34 48.812 0.019 6.08 4.12 10.91
5/11/2021 6:00:00 PM 9.31 48.758 0.02 6.07 4.18 10.9
5/11/2021 6:15:00 PM 9.28 48.704 0.02 6.07 4.24 10.9
5/11/2021 6:30:00 PM 9.26 48.668 0.02 6.07 4.17 10.9
5/11/2021 6:45:00 PM 9.23 48.614 0.02 6.11 4.17 10.9
5/11/2021 7:00:00 PM 9.19 48.542 0.02 6.12 4.1 10.89
5/11/2021 7:15:00 PM 9.15 48.47 0.02 6.1 4.21 10.88
5/11/2021 7:30:00 PM 9.1 48.38 0.02 6.06 4.11 10.87
5/11/2021 7:45:00 PM 9.07 48.326 0.02 6.03 4.23 10.87
5/11/2021 8:00:00 PM 9.02 48.236 0.02 6.04 4.14 10.86
5/11/2021 8:15:00 PM 8.95 48.11 0.02 6.02 4.08 10.86
5/11/2021 8:30:00 PM 8.9 48.02 0.02 6.02 4.25 10.85
5/11/2021 8:45:00 PM 8.85 47.93 0.02 6.01 4.28 10.85
5/11/2021 9:00:00 PM 8.79 47.822 0.02 6 4.32 10.86
5/11/2021 9:15:00 PM 8.74 47.732 0.02 5.99 4.19 10.86
5/11/2021 9:30:00 PM 8.69 47.642 0.021 5.98 4.02 10.87
5/11/2021 9:45:00 PM 8.63 47.534 0.02 5.98 4.37 10.89
5/11/2021 10:00:00 PM 8.58 47.444 0.02 5.97 4.31 10.9
5/11/2021 10:15:00 PM 8.52 47.336 0.02 5.98 4.21 10.92
5/11/2021 10:30:00 PM 8.46 47.228 0.02 5.97 4.32 10.94
5/11/2021 10:45:00 PM 8.4 47.12 0.02 5.97 4.23 10.95
5/11/2021 11:00:00 PM 8.34 47.012 0.02 5.98 4.26 10.97
5/11/2021 11:15:00 PM 8.28 46.904 0.02 5.98 4.14 10.99
5/11/2021 11:30:00 PM 8.22 46.796 0.02 5.98 4.25 11
5/11/2021 11:45:00 PM 8.15 46.67 0.02 5.99 4.18 11.02
5/12/2021 12:00:00 AM 8.08 46.544 0.02 5.98 4.22 11.04
5/12/2021 12:15:00 AM 8.01 46.418 0.02 5.95 4.15 11.06
5/12/2021 12:30:00 AM 7.94 46.292 0.02 5.96 4.16 11.08
5/12/2021 12:45:00 AM 7.87 46.166 0.02 5.97 4.1 11.1
5/12/2021 1:00:00 AM 7.8 46.04 0.02 5.96 4.1 11.12
5/12/2021 1:15:00 AM 7.73 45.914 0.02 5.95 4.08 11.14
5/12/2021 1:30:00 AM 7.66 45.788 0.02 5.97 4.15 11.16
5/12/2021 1:45:00 AM 7.59 45.662 0.02 5.96 4.2 11.18
5/12/2021 2:00:00 AM 7.53 45.554 0.02 5.95 4.11 11.19
5/12/2021 2:15:00 AM 7.46 45.428 0.021 5.97 12.43 11.21
5/12/2021 2:30:00 AM 7.4 45.32 0.02 5.92 4.18 11.23
5/12/2021 2:45:00 AM 7.33 45.194 0.02 5.89 4.14 11.25
5/12/2021 3:00:00 AM 7.27 45.086 0.02 5.9 4.15 11.27
5/12/2021 3:15:00 AM 7.21 44.978 0.02 5.91 4.2 11.28
5/12/2021 3:30:00 AM 7.16 44.888 0.02 5.94 4.19 11.3
5/12/2021 3:45:00 AM 7.1 44.78 0.02 5.94 4.28 11.32
5/12/2021 4:00:00 AM 7.05 44.69 0.02 5.91 4.22 11.33
5/12/2021 4:15:00 AM 6.99 44.582 0.02 5.93 4.16 11.35
5/12/2021 4:30:00 AM 6.94 44.492 0.02 5.92 4.23 11.37
5/12/2021 4:45:00 AM 6.89 44.402 0.021 5.94 4.09 11.38
5/12/2021 5:00:00 AM 6.85 44.33 0.021 5.96 4.14 11.4
5/12/2021 5:15:00 AM 6.82 44.276 0.021 5.96 4.09 11.4
5/12/2021 5:30:00 AM 6.8 44.24 0.021 5.95 4.1 11.42
5/12/2021 5:45:00 AM 6.79 44.222 0.021 5.95 4.2 11.43
5/12/2021 6:00:00 AM 6.77 44.186 0.02 5.95 4.05 11.43
5/12/2021 6:15:00 AM 6.76 44.168 0.021 5.95 4.06 11.45
5/12/2021 6:30:00 AM 6.75 44.15 0.021 5.95 4.02 11.47
5/12/2021 6:45:00 AM 6.75 44.15 0.021 5.95 3.99 11.48
5/12/2021 7:00:00 AM 6.75 44.15 0.021 5.95 4.09 11.51
5/12/2021 7:15:00 AM 6.76 44.168 0.021 5.97 4 11.54
5/12/2021 7:30:00 AM 6.77 44.186 0.021 5.97 4.16 11.56
5/12/2021 7:45:00 AM 6.79 44.222 0.021 5.99 4.1 11.6
5/12/2021 8:00:00 AM 6.83 44.294 0.021 6 4.08 11.61
5/12/2021 8:15:00 AM 6.87 44.366 0.021 6.01 4.08 11.62
5/12/2021 8:30:00 AM 6.91 44.438 0.02 6.03 3.96 11.63
5/12/2021 8:45:00 AM 7 44.6 0.021 6.03 3.93 11.64
5/12/2021 9:00:00 AM 7.13 44.834 0.021 6.04 4.01 11.63
5/12/2021 9:15:00 AM 7.26 45.068 0.02 6.05 4.06 11.62
5/12/2021 9:30:00 AM 7.37 45.266 0.021 6.05 3.87 11.6
5/12/2021 9:45:00 AM 7.5 45.5 0.021 6.07 3.96 11.59
5/12/2021 10:00:00 AM 7.65 45.77 0.02 6.08 3.88 11.56
5/12/2021 10:15:00 AM 7.82 46.076 0.02 6.09 3.98 11.53
5/12/2021 10:30:00 AM 8 46.4 0.021 6.1 3.94 11.5
5/12/2021 10:45:00 AM 8.17 46.706 0.021 6.12 3.95 11.47
5/12/2021 11:00:00 AM 8.38 47.084 0.021 6.13 3.9 11.43
5/12/2021 11:15:00 AM 8.6 47.48 0.02 6.14 3.93 11.38
5/12/2021 11:30:00 AM 8.82 47.876 0.021 6.16 3.88 11.33
5/12/2021 11:45:00 AM 9.05 48.29 0.02 6.18 3.83 11.29
5/12/2021 12:00:00 PM 9.25 48.65 0.02 6.2 3.83 11.23
5/12/2021 12:15:00 PM 9.32 48.776 0.021 6.21 3.86 11.18
5/12/2021 12:30:00 PM 9.39 48.902 0.02 6.2 3.79 11.15
5/12/2021 12:45:00 PM 9.46 49.028 0.021 6.19 3.73 11.11
5/12/2021 1:00:00 PM 9.67 49.406 0.021 6.21 3.77 11.08
5/12/2021 1:15:00 PM 9.81 49.658 0.02 6.22 3.8 11.05
5/12/2021 1:30:00 PM 9.98 49.964 0.021 6.23 3.83 11.01
5/12/2021 1:45:00 PM 10.19 50.342 0.02 6.26 3.77 10.98
5/12/2021 2:00:00 PM 10.22 50.396 0.02 6.25 3.86 10.94
5/12/2021 2:15:00 PM 10.13 50.234 0.02 6.25 3.84 10.93
5/12/2021 2:30:00 PM 10.21 50.378 0.02 6.25 3.83 10.92
5/12/2021 2:45:00 PM 10.36 50.648 0.02 6.26 3.83 10.89
5/12/2021 3:00:00 PM 10.36 50.648 0.021 6.26 3.79 10.86
5/12/2021 3:15:00 PM 10.36 50.648 0.021 6.25 3.79 10.86
5/12/2021 3:30:00 PM 10.44 50.792 0.02 6.25 3.82 10.83
5/12/2021 3:45:00 PM 10.52 50.936 0.02 6.27 3.8 10.8
5/12/2021 4:00:00 PM 10.61 51.098 0.021 6.27 3.79 10.77
5/12/2021 4:15:00 PM 10.67 51.206 0.02 6.28 3.74 10.76
5/12/2021 4:30:00 PM 10.71 51.278 0.021 6.29 3.73 10.74
5/12/2021 4:45:00 PM 10.75 51.35 0.021 6.29 3.76 10.72
5/12/2021 5:00:00 PM 10.78 51.404 0.021 6.3 3.86 10.7
5/12/2021 5:15:00 PM 10.73 51.314 0.021 6.29 3.83 10.68
5/12/2021 5:30:00 PM 10.66 51.188 0.02 6.28 3.89 10.67
5/12/2021 5:45:00 PM 10.6 51.08 0.021 6.28 3.83 10.64
5/12/2021 6:00:00 PM 10.57 51.026 0.02 6.27 3.86 10.64
5/12/2021 6:15:00 PM 10.56 51.008 0.02 6.27 3.84 10.64
5/12/2021 6:30:00 PM 10.58 51.044 0.021 6.28 3.8 10.64
5/12/2021 6:45:00 PM 10.52 50.936 0.021 6.27 3.78 10.62
5/12/2021 7:00:00 PM 10.46 50.828 0.021 6.26 4.01 10.6
5/12/2021 7:15:00 PM 10.41 50.738 0.021 6.25 3.82 10.58
5/12/2021 7:30:00 PM 10.38 50.684 0.021 6.24 3.87 10.57
5/12/2021 7:45:00 PM 10.34 50.612 0.021 6.24 3.92 10.55
5/12/2021 8:00:00 PM 10.29 50.522 0.021 6.24 3.83 10.55
5/12/2021 8:15:00 PM 10.23 50.414 0.021 6.22 3.92 10.54
5/12/2021 8:30:00 PM 10.17 50.306 0.021 6.22 3.92 10.54
5/12/2021 8:45:00 PM 10.11 50.198 0.021 6.21 4.03 10.53
5/12/2021 9:00:00 PM 10.05 50.09 0.021 6.2 3.99 10.53
5/12/2021 9:15:00 PM 9.99 49.982 0.021 6.19 3.99 10.54
5/12/2021 9:30:00 PM 9.92 49.856 0.021 6.18 3.93 10.55
5/12/2021 9:45:00 PM 9.85 49.73 0.021 6.18 3.94 10.57
5/12/2021 10:00:00 PM 9.77 49.586 0.021 6.17 4.16 10.58
5/12/2021 10:15:00 PM 9.68 49.424 0.021 6.16 4.1 10.6
5/12/2021 10:30:00 PM 9.6 49.28 0.021 6.17 3.98 10.63
5/12/2021 10:45:00 PM 9.51 49.118 0.021 6.16 4.05 10.65
5/12/2021 11:00:00 PM 9.43 48.974 0.021 6.15 3.99 10.67
5/12/2021 11:15:00 PM 9.34 48.812 0.021 6.15 4.06 10.69
5/12/2021 11:30:00 PM 9.25 48.65 0.021 6.15 5 10.72
5/12/2021 11:45:00 PM 9.16 48.488 0.021 6.13 4.52 10.74
5/13/2021 12:00:00 AM 9.08 48.344 0.021 6.11 4 10.77
5/13/2021 12:15:00 AM 8.99 48.182 0.021 6.08 3.89 10.79
5/13/2021 12:30:00 AM 8.9 48.02 0.021 6.07 3.94 10.81
5/13/2021 12:45:00 AM 8.81 47.858 0.021 6.06 4 10.84
5/13/2021 1:00:00 AM 8.73 47.714 0.021 6.07 4.07 10.86
5/13/2021 1:15:00 AM 8.65 47.57 0.022 6.06 4.12 10.88
5/13/2021 1:30:00 AM 8.56 47.408 0.021 6.07 4.1 10.91
5/13/2021 1:45:00 AM 8.48 47.264 0.021 6.1 4.17 10.93
5/13/2021 2:00:00 AM 8.4 47.12 0.021 6.09 4.04 10.95
5/13/2021 2:15:00 AM 8.32 46.976 0.022 6.1 4 10.97
5/13/2021 2:30:00 AM 8.24 46.832 0.021 6.1 4.06 10.99
5/13/2021 2:45:00 AM 8.16 46.688 0.021 6.1 4.06 11.02
5/13/2021 3:00:00 AM 8.08 46.544 0.022 6.09 4.08 11.04
5/13/2021 3:15:00 AM 8 46.4 0.022 6.09 3.91 11.07
5/13/2021 3:30:00 AM 7.92 46.256 0.022 6.08 3.99 11.09
5/13/2021 3:45:00 AM 7.84 46.112 0.021 6.07 3.9 11.11
5/13/2021 4:00:00 AM 7.76 45.968 0.021 6.05 4.12 11.13
5/13/2021 4:15:00 AM 7.68 45.824 0.021 6.03 4.06 11.15
5/13/2021 4:30:00 AM 7.61 45.698 0.021 6.03 3.92 11.18
5/13/2021 4:45:00 AM 7.53 45.554 0.022 6.02 4.19 11.2
5/13/2021 5:00:00 AM 7.46 45.428 0.022 6.03 4.02 11.22
5/13/2021 5:15:00 AM 7.39 45.302 0.022 6.03 3.94 11.24
5/13/2021 5:30:00 AM 7.31 45.158 0.022 6.01 4.16 11.26
5/13/2021 5:45:00 AM 7.25 45.05 0.021 6.01 3.84 11.29
5/13/2021 6:00:00 AM 7.18 44.924 0.022 5.99 3.77 11.31
5/13/2021 6:15:00 AM 7.12 44.816 0.022 5.98 3.84 11.34
5/13/2021 6:30:00 AM 7.07 44.726 0.021 6 4.03 11.37
5/13/2021 6:45:00 AM 7.02 44.636 0.022 6.01 3.86 11.41
5/13/2021 7:00:00 AM 6.99 44.582 0.022 6.02 3.94 11.45
5/13/2021 7:15:00 AM 6.98 44.564 0.022 6.03 3.91 11.49
5/13/2021 7:30:00 AM 6.98 44.564 0.022 6.03 3.85 11.52
5/13/2021 7:45:00 AM 6.99 44.582 0.021 6.05 3.77 11.56
5/13/2021 8:00:00 AM 7.03 44.654 0.022 6.05 4.06 11.59
5/13/2021 8:15:00 AM 7.08 44.744 0.021 6.06 3.66 11.6
5/13/2021 8:30:00 AM 7.15 44.87 0.021 6.08 3.77 11.61
5/13/2021 8:45:00 AM 7.24 45.032 0.022 6.09 3.71 11.61
5/13/2021 9:00:00 AM 7.35 45.23 0.022 6.1 3.77 11.6
5/13/2021 9:15:00 AM 7.48 45.464 0.022 6.12 3.86 11.6
5/13/2021 9:30:00 AM 7.63 45.734 0.021 6.14 3.72 11.58
5/13/2021 9:45:00 AM 7.79 46.022 0.022 6.15 3.75 11.56
5/13/2021 10:00:00 AM 7.99 46.382 0.021 6.17 3.72 11.53
5/13/2021 10:15:00 AM 8.18 46.724 0.022 6.18 3.74 11.5
5/13/2021 10:30:00 AM 8.39 47.102 0.021 6.2 3.63 11.45
5/13/2021 10:45:00 AM 8.61 47.498 0.021 6.22 3.57 11.42
5/13/2021 11:00:00 AM 8.82 47.876 0.022 6.23 3.7 11.37
5/13/2021 11:15:00 AM 9.04 48.272 0.021 6.25 3.79 11.33
5/13/2021 11:30:00 AM 9.33 48.794 0.021 6.28 3.61 11.28
5/13/2021 11:45:00 AM 9.56 49.208 0.021 6.3 3.67 11.22
5/13/2021 12:00:00 PM 9.75 49.55 0.021 6.31 3.56 11.16
5/13/2021 12:15:00 PM 9.87 49.766 0.021 6.31 3.59 11.1
5/13/2021 12:30:00 PM 10.02 50.036 0.021 6.32 3.61 11.06
5/13/2021 12:45:00 PM 10.17 50.306 0.021 6.32 3.65 11
5/13/2021 1:00:00 PM 10.39 50.702 0.021 6.35 3.61 10.96
5/13/2021 1:15:00 PM 10.71 51.278 0.021 6.37 3.66 10.92
5/13/2021 1:30:00 PM 10.88 51.584 0.021 6.38 3.56 10.86
5/13/2021 1:45:00 PM 10.95 51.71 0.021 6.39 3.61 10.83
5/13/2021 2:00:00 PM 11.11 51.998 0.021 6.4 3.83 10.78
5/13/2021 2:15:00 PM 11.28 52.304 0.021 6.41 3.54 10.74
5/13/2021 2:30:00 PM 11.33 52.394 0.021 6.4 3.57 10.71
5/13/2021 2:45:00 PM 11.27 52.286 0.021 6.39 3.58 10.69
5/13/2021 3:00:00 PM 11.23 52.214 0.021 6.39 3.48 10.7
5/13/2021 3:15:00 PM 11.16 52.088 0.021 6.38 3.57 10.69
5/13/2021 3:30:00 PM 11.12 52.016 0.022 6.37 3.63 10.67
5/13/2021 3:45:00 PM 11.07 51.926 0.021 6.37 3.78 10.66
5/13/2021 4:00:00 PM 11.12 52.016 0.021 6.38 3.66 10.67
5/13/2021 4:15:00 PM 11.06 51.908 0.022 6.37 3.68 10.66
5/13/2021 4:30:00 PM 10.97 51.746 0.021 6.37 3.69 10.67
5/13/2021 4:45:00 PM 10.87 51.566 0.022 6.35 3.51 10.68
5/13/2021 5:00:00 PM 10.8 51.44 0.021 6.34 3.6 10.68
5/13/2021 5:15:00 PM 10.75 51.35 0.022 6.32 3.61 10.65
5/13/2021 5:30:00 PM 10.75 51.35 0.021 6.34 3.62 10.66
5/13/2021 5:45:00 PM 10.8 51.44 0.021 6.36 3.71 10.66
5/13/2021 6:00:00 PM 10.87 51.566 0.022 6.37 3.64 10.65
5/13/2021 6:15:00 PM 10.92 51.656 0.021 6.37 3.6 10.65
5/13/2021 6:30:00 PM 10.92 51.656 0.021 6.38 3.59 10.63
5/13/2021 6:45:00 PM 10.9 51.62 0.022 6.38 3.7 10.61
5/13/2021 7:00:00 PM 10.86 51.548 0.022 6.37 3.56 10.57
5/13/2021 7:15:00 PM 10.81 51.458 0.021 6.36 3.67 10.56
5/13/2021 7:30:00 PM 10.74 51.332 0.022 6.34 3.62 10.53
5/13/2021 7:45:00 PM 10.68 51.224 0.022 6.33 3.62 10.5
5/13/2021 8:00:00 PM 10.63 51.134 0.022 6.32 3.64 10.47
5/13/2021 8:15:00 PM 10.58 51.044 0.022 6.31 3.72 10.46
5/13/2021 8:30:00 PM 10.54 50.972 0.022 6.3 3.89 10.43
5/13/2021 8:45:00 PM 10.49 50.882 0.022 6.3 3.65 10.43
5/13/2021 9:00:00 PM 10.43 50.774 0.022 6.29 3.68 10.42
5/13/2021 9:15:00 PM 10.38 50.684 0.022 6.28 3.8 10.42
5/13/2021 9:30:00 PM 10.32 50.576 0.022 6.28 3.75 10.43
5/13/2021 9:45:00 PM 10.26 50.468 0.022 6.28 3.86 10.44
5/13/2021 10:00:00 PM 10.19 50.342 0.022 6.27 3.72 10.45
5/13/2021 10:15:00 PM 10.12 50.216 0.023 6.26 3.84 10.47
5/13/2021 10:30:00 PM 10.05 50.09 0.022 6.26 3.72 10.49
5/13/2021 10:45:00 PM 9.98 49.964 0.022 6.26 3.77 10.5
5/13/2021 11:00:00 PM 9.91 49.838 0.022 6.25 3.8 10.52
5/13/2021 11:15:00 PM 9.83 49.694 0.022 6.25 3.86 10.53
5/13/2021 11:30:00 PM 9.76 49.568 0.022 6.26 3.97 10.54
5/13/2021 11:45:00 PM 9.69 49.442 0.022 6.22 3.88 10.57
5/14/2021 12:00:00 AM 9.61 49.298 0.023 6.25 3.8 10.57
5/14/2021 12:15:00 AM 9.54 49.172 0.022 6.23 3.99 10.61
5/14/2021 12:30:00 AM 9.46 49.028 0.022 6.22 3.76 10.63
5/14/2021 12:45:00 AM 9.38 48.884 0.022 6.22 3.74 10.65
5/14/2021 1:00:00 AM 9.3 48.74 0.022 6.21 3.79 10.66
5/14/2021 1:15:00 AM 9.22 48.596 0.022 6.21 3.88 10.7
5/14/2021 1:30:00 AM 9.14 48.452 0.022 6.2 3.79 10.72
5/14/2021 1:45:00 AM 9.06 48.308 0.023 6.19 3.78 10.74
5/14/2021 2:00:00 AM 8.98 48.164 0.022 6.2 3.87 10.76
5/14/2021 2:15:00 AM 8.9 48.02 0.022 6.19 3.88 10.78
5/14/2021 2:30:00 AM 8.82 47.876 0.022 6.19 3.99 10.8
5/14/2021 2:45:00 AM 8.74 47.732 0.022 6.19 3.96 10.83
5/14/2021 3:00:00 AM 8.66 47.588 0.023 6.17 4.7 10.83
5/14/2021 3:15:00 AM 8.58 47.444 0.022 6.18 3.81 10.86
5/14/2021 3:30:00 AM 8.51 47.318 0.022 6.17 3.8 10.89
5/14/2021 3:45:00 AM 8.43 47.174 0.022 6.17 3.85 10.91
5/14/2021 4:00:00 AM 8.35 47.03 0.023 6.16 3.88 10.93
5/14/2021 4:15:00 AM 8.27 46.886 0.023 6.16 3.72 10.96
5/14/2021 4:30:00 AM 8.2 46.76 0.023 6.15 3.83 10.98
5/14/2021 4:45:00 AM 8.13 46.634 0.023 6.15 5.08 10.99
5/14/2021 5:00:00 AM 8.05 46.49 0.023 6.15 3.76 11.03
5/14/2021 5:15:00 AM 7.98 46.364 0.022 6.15 3.69 11.05
5/14/2021 5:30:00 AM 7.91 46.238 0.023 6.14 3.83 11.07
5/14/2021 5:45:00 AM 7.84 46.112 0.023 6.13 3.88 11.09
5/14/2021 6:00:00 AM 7.77 45.986 0.022 6.14 3.81 11.12
5/14/2021 6:15:00 AM 7.7 45.86 0.022 6.13 3.76 11.15
5/14/2021 6:30:00 AM 7.65 45.77 0.023 6.14 3.88 11.19
5/14/2021 6:45:00 AM 7.6 45.68 0.023 6.14 3.77 11.24
5/14/2021 7:00:00 AM 7.57 45.626 0.023 6.14 3.81 11.28
5/14/2021 7:15:00 AM 7.55 45.59 0.023 6.15 3.79 11.32
5/14/2021 7:30:00 AM 7.55 45.59 0.022 6.16 3.66 11.37
5/14/2021 7:45:00 AM 7.58 45.644 0.023 6.17 3.75 11.4
5/14/2021 8:00:00 AM 7.62 45.716 0.022 6.18 3.7 11.43
5/14/2021 8:15:00 AM 7.67 45.806 0.023 6.2 3.72 11.45
5/14/2021 8:30:00 AM 7.75 45.95 0.023 6.21 3.72 11.46
5/14/2021 8:45:00 AM 7.85 46.13 0.022 6.22 3.68 11.47
5/14/2021 9:00:00 AM 7.97 46.346 0.022 6.24 3.76 11.47
5/14/2021 9:15:00 AM 8.1 46.58 0.022 6.25 3.71 11.46
5/14/2021 9:30:00 AM 8.26 46.868 0.023 6.27 3.65 11.44
5/14/2021 9:45:00 AM 8.45 47.21 0.022 6.28 3.69 11.42
5/14/2021 10:00:00 AM 8.64 47.552 0.022 6.3 3.67 11.39
5/14/2021 10:15:00 AM 8.85 47.93 0.023 6.31 3.7 11.35
5/14/2021 10:30:00 AM 9.1 48.38 0.022 6.34 3.71 11.31
5/14/2021 10:45:00 AM 9.32 48.776 0.022 6.35 3.65 11.27
5/14/2021 11:00:00 AM 9.56 49.208 0.023 6.37 4.02 11.22
5/14/2021 11:15:00 AM 9.82 49.676 0.023 6.39 3.6 11.17
5/14/2021 11:30:00 AM 10.08 50.144 0.022 6.43 3.66 11.12
5/14/2021 11:45:00 AM 10.34 50.612 0.023 6.44 3.55 11.06
5/14/2021 12:00:00 PM 10.52 50.936 0.022 6.44 3.63 10.99
5/14/2021 12:15:00 PM 10.75 51.35 0.022 6.46 3.71 10.95
5/14/2021 12:30:00 PM 11.11 51.998 0.022 6.49 3.67 10.88
5/14/2021 12:45:00 PM 11.45 52.61 0.022 6.52 3.58 10.82
5/14/2021 1:00:00 PM 11.76 53.168 0.022 6.54 3.54 10.76
5/14/2021 1:15:00 PM 11.96 53.528 0.022 6.55 3.52 10.7
5/14/2021 1:30:00 PM 12.14 53.852 0.022 6.56 3.62 10.63
5/14/2021 1:45:00 PM 12.36 54.248 0.023 6.58 3.65 10.58
5/14/2021 2:00:00 PM 12.55 54.59 0.022 6.59 3.6 10.52
5/14/2021 2:15:00 PM 12.55 54.59 0.022 6.58 3.78 10.45
5/14/2021 2:30:00 PM 12.45 54.41 0.022 6.57 3.66 10.43
5/14/2021 2:45:00 PM 12.48 54.464 0.023 6.57 3.67 10.42
5/14/2021 3:00:00 PM 12.47 54.446 0.023 6.57 3.71 10.39
5/14/2021 3:15:00 PM 12.4 54.32 0.023 6.56 3.68 10.39
5/14/2021 3:30:00 PM 12.37 54.266 0.022 6.56 3.94 10.39
5/14/2021 3:45:00 PM 12.4 54.32 0.022 6.57 3.52 10.38
5/14/2021 4:00:00 PM 12.44 54.392 0.022 6.57 3.61 10.36
5/14/2021 4:15:00 PM 12.39 54.302 0.023 6.56 3.58 10.34
5/14/2021 4:30:00 PM 12.28 54.104 0.022 6.55 3.64 10.34
5/14/2021 4:45:00 PM 12.22 53.996 0.023 6.55 3.64 10.35
5/14/2021 5:00:00 PM 12.18 53.924 0.022 6.54 3.75 10.36
5/14/2021 5:15:00 PM 12.13 53.834 0.023 6.54 3.69 10.38
5/14/2021 5:30:00 PM 12.08 53.744 0.022 6.54 3.72 10.39
5/14/2021 5:45:00 PM 12.04 53.672 0.022 6.55 3.62 10.4
5/14/2021 6:00:00 PM 11.99 53.582 0.022 6.54 3.69 10.4
5/14/2021 6:15:00 PM 11.95 53.51 0.022 6.53 3.73 10.39
5/14/2021 6:30:00 PM 11.9 53.42 0.022 6.53 3.62 10.38
5/14/2021 6:45:00 PM 11.87 53.366 0.022 6.51 3.76 10.36
5/14/2021 7:00:00 PM 11.86 53.348 0.022 6.53 3.85 10.36
5/14/2021 7:15:00 PM 11.82 53.276 0.023 6.52 3.75 10.34
5/14/2021 7:30:00 PM 11.78 53.204 0.023 6.53 3.75 10.32
5/14/2021 7:45:00 PM 11.73 53.114 0.023 6.52 3.66 10.29
5/14/2021 8:00:00 PM 11.67 53.006 0.024 6.51 3.72 10.25
5/14/2021 8:15:00 PM 11.62 52.916 0.023 6.5 3.64 10.23
5/14/2021 8:30:00 PM 11.56 52.808 0.023 6.49 3.63 10.21
5/14/2021 8:45:00 PM 11.5 52.7 0.024 6.47 3.91 10.18
5/14/2021 9:00:00 PM 11.45 52.61 0.023 6.46 3.9 10.18
5/14/2021 9:15:00 PM 11.39 52.502 0.023 6.45 3.76 10.16
5/14/2021 9:30:00 PM 11.33 52.394 0.024 6.45 3.93 10.16
5/14/2021 9:45:00 PM 11.28 52.304 0.023 6.45 3.83 10.16
5/14/2021 10:00:00 PM 11.22 52.196 0.023 6.43 4.05 10.17
5/14/2021 10:15:00 PM 11.16 52.088 0.023 6.43 3.91 10.19
5/14/2021 10:30:00 PM 11.09 51.962 0.024 6.42 4.14 10.19
5/14/2021 10:45:00 PM 11.02 51.836 0.024 6.42 3.84 10.2
5/14/2021 11:00:00 PM 10.95 51.71 0.023 6.41 4.06 10.23
5/14/2021 11:15:00 PM 10.88 51.584 0.023 6.41 3.82 10.24
5/14/2021 11:30:00 PM 10.8 51.44 0.023 6.41 3.87 10.25
5/14/2021 11:45:00 PM 10.74 51.332 0.023 6.41 3.99 10.26
5/15/2021 12:00:00 AM 10.66 51.188 0.024 6.4 3.81 10.28
5/15/2021 12:15:00 AM 10.59 51.062 0.024 6.38 3.81 10.3
5/15/2021 12:30:00 AM 10.53 50.954 0.023 6.38 3.79 10.31
5/15/2021 12:45:00 AM 10.46 50.828 0.023 6.38 3.84 10.34
5/15/2021 1:00:00 AM 10.39 50.702 0.023 6.38 3.83 10.35
5/15/2021 1:15:00 AM 10.31 50.558 0.024 6.37 3.92 10.36
5/15/2021 1:30:00 AM 10.24 50.432 0.024 6.36 3.91 10.38
5/15/2021 1:45:00 AM 10.17 50.306 0.023 6.37 3.9 10.41
5/15/2021 2:00:00 AM 10.1 50.18 0.024 6.36 3.75 10.42
5/15/2021 2:15:00 AM 10.03 50.054 0.024 6.35 3.88 10.44
5/15/2021 2:30:00 AM 9.95 49.91 0.024 6.34 3.76 10.46
5/15/2021 2:45:00 AM 9.87 49.766 0.024 6.32 3.83 10.48
5/15/2021 3:00:00 AM 9.79 49.622 0.024 6.32 3.93 10.5
5/15/2021 3:15:00 AM 9.71 49.478 0.024 6.32 3.73 10.52
5/15/2021 3:30:00 AM 9.63 49.334 0.024 6.31 3.93 10.55
5/15/2021 3:45:00 AM 9.56 49.208 0.024 6.31 3.99 10.57
5/15/2021 4:00:00 AM 9.48 49.064 0.023 6.31 3.94 10.59
5/15/2021 4:15:00 AM 9.4 48.92 0.024 6.29 3.97 10.61
5/15/2021 4:30:00 AM 9.32 48.776 0.024 6.3 3.82 10.64
5/15/2021 4:45:00 AM 9.24 48.632 0.024 6.29 3.89 10.66
5/15/2021 5:00:00 AM 9.16 48.488 0.024 6.28 3.92 10.68
5/15/2021 5:15:00 AM 9.09 48.362 0.024 6.29 4.02 10.69
5/15/2021 5:30:00 AM 9.01 48.218 0.024 6.28 3.75 10.73
5/15/2021 5:45:00 AM 8.94 48.092 0.024 6.27 3.9 10.74
5/15/2021 6:00:00 AM 8.86 47.948 0.024 6.26 3.72 10.77
5/15/2021 6:15:00 AM 8.79 47.822 0.024 6.27 3.9 10.81
5/15/2021 6:30:00 AM 8.73 47.714 0.024 6.27 3.78 10.86
5/15/2021 6:45:00 AM 8.68 47.624 0.023 6.28 3.69 10.92
5/15/2021 7:00:00 AM 8.64 47.552 0.024 6.28 3.67 10.96
5/15/2021 7:15:00 AM 8.62 47.516 0.024 6.29 3.77 11.01
5/15/2021 7:30:00 AM 8.61 47.498 0.024 6.29 3.72 11.07
5/15/2021 7:45:00 AM 8.63 47.534 0.024 6.31 3.78 11.11
5/15/2021 8:00:00 AM 8.67 47.606 0.024 6.32 3.65 11.15
5/15/2021 8:15:00 AM 8.72 47.696 0.024 6.33 3.73 11.15
5/15/2021 8:30:00 AM 8.81 47.858 0.023 6.34 3.77 11.18
5/15/2021 8:45:00 AM 8.91 48.038 0.023 6.37 3.83 11.19
5/15/2021 9:00:00 AM 9.03 48.254 0.024 6.37 3.76 11.19
5/15/2021 9:15:00 AM 9.17 48.506 0.024 6.4 3.8 11.19
5/15/2021 9:30:00 AM 9.33 48.794 0.024 6.41 3.74 11.18
5/15/2021 9:45:00 AM 9.5 49.1 0.024 6.43 3.8 11.15
5/15/2021 10:00:00 AM 9.68 49.424 0.024 6.45 3.9 11.13
5/15/2021 10:15:00 AM 9.89 49.802 0.023 6.47 3.62 11.1
5/15/2021 10:30:00 AM 10.14 50.252 0.023 6.49 3.71 11.07
5/15/2021 10:45:00 AM 10.37 50.666 0.024 6.51 3.49 11.03
5/15/2021 11:00:00 AM 10.61 51.098 0.023 6.53 3.64 10.98
5/15/2021 11:15:00 AM 10.72 51.296 0.024 6.54 3.65 10.93
5/15/2021 11:30:00 AM 10.75 51.35 0.024 6.53 3.63 10.88
5/15/2021 11:45:00 AM 10.69 51.242 0.023 6.52 3.67 10.83
5/15/2021 12:00:00 PM 10.59 51.062 0.023 6.51 3.7 10.81
5/15/2021 12:15:00 PM 10.49 50.882 0.023 6.49 3.57 10.79
5/15/2021 12:30:00 PM 10.45 50.81 0.024 6.48 3.69 10.77
5/15/2021 12:45:00 PM 10.47 50.846 0.023 6.48 3.58 10.76
5/15/2021 1:00:00 PM 10.52 50.936 0.023 6.49 3.53 10.76
5/15/2021 1:15:00 PM 10.55 50.99 0.024 6.49 3.59 10.75
5/15/2021 1:30:00 PM 10.58 51.044 0.023 6.51 3.7 10.76
5/15/2021 1:45:00 PM 10.63 51.134 0.023 6.52 3.62 10.78
5/15/2021 2:00:00 PM 10.74 51.332 0.023 6.53 3.63 10.81
5/15/2021 2:15:00 PM 10.99 51.782 0.023 6.56 3.64 10.81
5/15/2021 2:30:00 PM 11.33 52.394 0.024 6.59 3.61 10.79
5/15/2021 2:45:00 PM 11.71 53.078 0.023 6.64 3.6 10.76
5/15/2021 3:00:00 PM 11.98 53.564 0.023 6.66 3.58 10.71
5/15/2021 3:15:00 PM 12.06 53.708 0.023 6.66 3.68 10.65
5/15/2021 3:30:00 PM 12.02 53.636 0.023 6.64 3.61 10.62
5/15/2021 3:45:00 PM 11.92 53.456 0.023 6.64 3.71 10.61
5/15/2021 4:00:00 PM 11.86 53.348 0.023 6.62 3.56 10.6
5/15/2021 4:15:00 PM 11.94 53.492 0.024 6.63 3.67 10.59
5/15/2021 4:30:00 PM 12.15 53.87 0.023 6.65 3.52 10.57
5/15/2021 4:45:00 PM 12.37 54.266 0.024 6.67 3.56 10.52
5/15/2021 5:00:00 PM 12.5 54.5 0.023 6.68 3.57 10.48
5/15/2021 5:15:00 PM 12.47 54.446 0.023 6.67 3.96 10.45
5/15/2021 5:30:00 PM 12.34 54.212 0.023 6.66 3.61 10.42
5/15/2021 5:45:00 PM 12.21 53.978 0.024 6.63 3.72 10.4
5/15/2021 6:00:00 PM 12.15 53.87 0.024 6.62 3.69 10.4
5/15/2021 6:15:00 PM 12.13 53.834 0.023 6.62 3.61 10.4
5/15/2021 6:30:00 PM 12.1 53.78 0.024 6.61 3.57 10.38
5/15/2021 6:45:00 PM 12.06 53.708 0.023 6.61 3.67 10.38
5/15/2021 7:00:00 PM 11.99 53.582 0.023 6.61 3.81 10.38
5/15/2021 7:15:00 PM 11.92 53.456 0.023 6.59 3.63 10.38
5/15/2021 7:30:00 PM 11.84 53.312 0.024 6.57 3.6 10.35
5/15/2021 7:45:00 PM 11.76 53.168 0.024 6.55 3.64 10.33
5/15/2021 8:00:00 PM 11.7 53.06 0.024 6.55 3.61 10.31
5/15/2021 8:15:00 PM 11.65 52.97 0.024 6.54 3.62 10.27
5/15/2021 8:30:00 PM 11.59 52.862 0.024 6.5 3.99 10.23
5/15/2021 8:45:00 PM 11.54 52.772 0.024 6.49 3.83 10.2
5/15/2021 9:00:00 PM 11.48 52.664 0.024 6.48 3.75 10.18
5/15/2021 9:15:00 PM 11.43 52.574 0.024 6.48 3.63 10.17
5/15/2021 9:30:00 PM 11.37 52.466 0.024 6.47 3.81 10.16
5/15/2021 9:45:00 PM 11.3 52.34 0.025 6.46 3.74 10.16
5/15/2021 10:00:00 PM 11.23 52.214 0.024 6.45 3.7 10.17
5/15/2021 10:15:00 PM 11.15 52.07 0.025 6.45 3.68 10.18
5/15/2021 10:30:00 PM 11.08 51.944 0.024 6.45 4.11 10.19
5/15/2021 10:45:00 PM 11 51.8 0.024 6.44 3.82 10.19
5/15/2021 11:00:00 PM 10.93 51.674 0.024 6.44 3.77 10.21
5/15/2021 11:15:00 PM 10.86 51.548 0.024 6.44 3.73 10.24
5/15/2021 11:30:00 PM 10.79 51.422 0.024 6.43 3.79 10.26
5/15/2021 11:45:00 PM 10.72 51.296 0.025 6.41 3.69 10.25
5/16/2021 12:00:00 AM 10.67 51.206 0.024 6.43 3.69 10.29
5/16/2021 12:15:00 AM 10.61 51.098 0.025 6.41 3.69 10.29
5/16/2021 12:30:00 AM 10.57 51.026 0.025 6.41 3.78 10.29
5/16/2021 12:45:00 AM 10.53 50.954 0.025 6.41 3.84 10.31
5/16/2021 1:00:00 AM 10.5 50.9 0.024 6.41 4.31 10.32
5/16/2021 1:15:00 AM 10.46 50.828 0.025 6.41 3.73 10.32
5/16/2021 1:30:00 AM 10.43 50.774 0.025 6.4 3.79 10.33
5/16/2021 1:45:00 AM 10.39 50.702 0.025 6.41 3.73 10.34
5/16/2021 2:00:00 AM 10.36 50.648 0.024 6.41 3.74 10.36
5/16/2021 2:15:00 AM 10.33 50.594 0.025 6.41 3.72 10.37
5/16/2021 2:30:00 AM 10.3 50.54 0.025 6.39 3.75 10.36
5/16/2021 2:45:00 AM 10.28 50.504 0.025 6.4 3.68 10.38
5/16/2021 3:00:00 AM 10.25 50.45 0.024 6.4 3.74 10.39
5/16/2021 3:15:00 AM 10.21 50.378 0.025 6.4 3.88 10.41
5/16/2021 3:30:00 AM 10.17 50.306 0.025 6.4 3.81 10.41
5/16/2021 3:45:00 AM 10.11 50.198 0.025 6.39 3.8 10.42
5/16/2021 4:00:00 AM 10.06 50.108 0.025 6.38 4.06 10.43
5/16/2021 4:15:00 AM 10.01 50.018 0.025 6.38 4.04 10.44
5/16/2021 4:30:00 AM 9.95 49.91 0.024 6.38 3.67 10.46
5/16/2021 4:45:00 AM 9.89 49.802 0.025 6.37 3.74 10.47
5/16/2021 5:00:00 AM 9.84 49.712 0.024 6.37 3.69 10.49
5/16/2021 5:15:00 AM 9.78 49.604 0.024 6.37 3.78 10.5
5/16/2021 5:30:00 AM 9.72 49.496 0.025 6.36 3.76 10.52
5/16/2021 5:45:00 AM 9.66 49.388 0.025 6.37 3.8 10.54
5/16/2021 6:00:00 AM 9.6 49.28 0.025 6.36 3.73 10.55
5/16/2021 6:15:00 AM 9.54 49.172 0.025 6.35 3.71 10.57
5/16/2021 6:30:00 AM 9.51 49.118 0.024 6.37 3.94 10.65
5/16/2021 6:45:00 AM 9.48 49.064 0.024 6.37 3.78 10.69
5/16/2021 7:00:00 AM 9.48 49.064 0.024 6.38 3.7 10.75
5/16/2021 7:15:00 AM 9.48 49.064 0.025 6.4 3.74 10.81
5/16/2021 7:30:00 AM 9.51 49.118 0.024 6.42 3.7 10.87
5/16/2021 7:45:00 AM 9.53 49.154 0.024 6.43 3.74 10.9
5/16/2021 8:00:00 AM 9.58 49.244 0.025 6.44 3.68 10.93
5/16/2021 8:15:00 AM 9.63 49.334 0.025 6.45 3.6 10.96
5/16/2021 8:30:00 AM 9.69 49.442 0.024 6.47 3.63 10.97
5/16/2021 8:45:00 AM 9.77 49.586 0.025 6.48 3.67 10.99
5/16/2021 9:00:00 AM 9.86 49.748 0.024 6.5 3.7 11
5/16/2021 9:15:00 AM 9.95 49.91 0.024 6.52 3.73 11
5/16/2021 9:30:00 AM 10.05 50.09 0.024 6.53 3.75 11
5/16/2021 9:45:00 AM 10.16 50.288 0.024 6.55 3.7 10.98
5/16/2021 10:00:00 AM 10.26 50.468 0.025 6.55 3.71 10.97
5/16/2021 10:15:00 AM 10.34 50.612 0.024 6.56 3.63 10.95
5/16/2021 10:30:00 AM 10.36 50.648 0.025 6.55 3.93 10.91
5/16/2021 10:45:00 AM 10.38 50.684 0.025 6.56 3.73 10.88
5/16/2021 11:00:00 AM 10.42 50.756 0.024 6.56 3.66 10.88
5/16/2021 11:15:00 AM 10.5 50.9 0.024 6.57 3.65 10.87
5/16/2021 11:30:00 AM 10.63 51.134 0.024 6.58 3.63 10.88
5/16/2021 11:45:00 AM 10.8 51.44 0.024 6.59 3.69 10.85
5/16/2021 12:00:00 PM 11.02 51.836 0.024 6.62 3.64 10.86
5/16/2021 12:15:00 PM 11.24 52.232 0.024 6.66 3.54 10.83
5/16/2021 12:30:00 PM 11.46 52.628 0.024 6.66 3.62 10.79
5/16/2021 12:45:00 PM 11.67 53.006 0.024 6.69 3.73 10.75
5/16/2021 1:00:00 PM 11.8 53.24 0.025 6.69 3.7 10.7
5/16/2021 1:15:00 PM 11.91 53.438 0.023 6.71 3.77 10.68
5/16/2021 1:30:00 PM 11.97 53.546 0.024 6.68 3.68 10.65
5/16/2021 1:45:00 PM 12.01 53.618 0.024 6.69 3.68 10.62
5/16/2021 2:00:00 PM 12.03 53.654 0.023 6.69 3.7 10.59
5/16/2021 2:15:00 PM 12.02 53.636 0.024 6.69 3.69 10.55
5/16/2021 2:30:00 PM 11.99 53.582 0.024 6.68 3.66 10.52
5/16/2021 2:45:00 PM 11.96 53.528 0.023 6.67 3.7 10.49
5/16/2021 3:00:00 PM 11.91 53.438 0.024 6.66 3.67 10.48
5/16/2021 3:15:00 PM 11.9 53.42 0.023 6.65 3.83 10.46
5/16/2021 3:30:00 PM 11.89 53.402 0.024 6.64 3.61 10.45
5/16/2021 3:45:00 PM 11.91 53.438 0.023 6.66 3.6 10.46
5/16/2021 4:00:00 PM 11.92 53.456 0.024 6.66 3.72 10.46
5/16/2021 4:15:00 PM 11.97 53.546 0.025 6.65 3.67 10.45
5/16/2021 4:30:00 PM 12.05 53.69 0.024 6.68 3.69 10.48
5/16/2021 4:45:00 PM 12.17 53.906 0.023 6.7 3.66 10.49
5/16/2021 5:00:00 PM 12.24 54.032 0.024 6.71 3.65 10.48
5/16/2021 5:15:00 PM 12.31 54.158 0.024 6.71 3.66 10.47
5/16/2021 5:30:00 PM 12.36 54.248 0.024 6.7 3.89 10.45
5/16/2021 5:45:00 PM 12.43 54.374 0.023 6.73 3.67 10.45
5/16/2021 6:00:00 PM 12.47 54.446 0.023 6.74 3.58 10.45
5/16/2021 6:15:00 PM 12.45 54.41 0.024 6.76 3.58 10.42
5/16/2021 6:30:00 PM 12.4 54.32 0.023 6.74 3.8 10.4
5/16/2021 6:45:00 PM 12.33 54.194 0.023 6.72 3.7 10.38
5/16/2021 7:00:00 PM 12.26 54.068 0.024 6.7 3.65 10.37
5/16/2021 7:15:00 PM 12.18 53.924 0.024 6.68 3.63 10.35
5/16/2021 7:30:00 PM 12.11 53.798 0.024 6.66 3.75 10.32
5/16/2021 7:45:00 PM 12.04 53.672 0.024 6.64 3.84 10.29
5/16/2021 8:00:00 PM 11.97 53.546 0.024 6.62 3.62 10.26
5/16/2021 8:15:00 PM 11.88 53.384 0.024 6.61 3.56 10.22
5/16/2021 8:30:00 PM 11.79 53.222 0.024 6.59 3.69 10.18
5/16/2021 8:45:00 PM 11.71 53.078 0.024 6.58 3.74 10.17
5/16/2021 9:00:00 PM 11.62 52.916 0.024 6.55 3.67 10.14
5/16/2021 9:15:00 PM 11.56 52.808 0.024 6.55 3.68 10.14
5/16/2021 9:30:00 PM 11.5 52.7 0.024 6.53 3.72 10.13
5/16/2021 9:45:00 PM 11.45 52.61 0.024 6.54 3.69 10.13
5/16/2021 10:00:00 PM 11.39 52.502 0.024 6.52 3.78 10.13
5/16/2021 10:15:00 PM 11.31 52.358 0.025 6.51 3.67 10.13
5/16/2021 10:30:00 PM 11.25 52.25 0.024 6.51 3.83 10.15
5/16/2021 10:45:00 PM 11.17 52.106 0.024 6.5 3.76 10.16
5/16/2021 11:00:00 PM 11.09 51.962 0.025 6.49 3.85 10.15
5/16/2021 11:15:00 PM 11.03 51.854 0.025 6.51 3.75 10.19
5/16/2021 11:30:00 PM 10.96 51.728 0.024 6.49 4.03 10.2
5/16/2021 11:45:00 PM 10.89 51.602 0.025 6.49 3.68 10.21
5/17/2021 12:00:00 AM 10.82 51.476 0.025 6.48 3.69 10.23
5/17/2021 12:15:00 AM 10.75 51.35 0.024 6.48 3.66 10.26
5/17/2021 12:30:00 AM 10.68 51.224 0.025 6.47 3.76 10.26
5/17/2021 12:45:00 AM 10.6 51.08 0.025 6.46 3.68 10.28
5/17/2021 1:00:00 AM 10.53 50.954 0.025 6.46 3.91 10.29
5/17/2021 1:15:00 AM 10.47 50.846 0.025 6.46 3.79 10.3
5/17/2021 1:30:00 AM 10.4 50.72 0.024 6.46 3.81 10.33
5/17/2021 1:45:00 AM 10.33 50.594 0.025 6.46 3.85 10.35
5/17/2021 2:00:00 AM 10.26 50.468 0.025 6.45 3.81 10.37
5/17/2021 2:15:00 AM 10.19 50.342 0.025 6.43 3.98 10.37
5/17/2021 2:30:00 AM 10.11 50.198 0.025 6.44 3.83 10.39
5/17/2021 2:45:00 AM 10.04 50.072 0.025 6.43 4.82 10.41
5/17/2021 3:00:00 AM 9.98 49.964 0.025 6.44 3.69 10.44
5/17/2021 3:15:00 AM 9.91 49.838 0.025 6.44 3.7 10.46
5/17/2021 3:30:00 AM 9.84 49.712 0.025 6.43 4.96 10.48
5/17/2021 3:45:00 AM 9.76 49.568 0.025 6.42 3.82 10.48
5/17/2021 4:00:00 AM 9.69 49.442 0.025 6.42 3.75 10.5
5/17/2021 4:15:00 AM 9.62 49.316 0.025 6.42 3.8 10.53
5/17/2021 4:30:00 AM 9.56 49.208 0.025 6.42 4.21 10.54
5/17/2021 4:45:00 AM 9.48 49.064 0.026 6.4 3.91 10.57
5/17/2021 5:00:00 AM 9.41 48.938 0.025 6.4 3.64 10.57
5/17/2021 5:15:00 AM 9.34 48.812 0.025 6.41 3.74 10.6
5/17/2021 5:30:00 AM 9.27 48.686 0.025 6.4 3.78 10.61
5/17/2021 5:45:00 AM 9.2 48.56 0.025 6.41 3.79 10.66
5/17/2021 6:00:00 AM 9.13 48.434 0.025 6.4 3.73 10.67
5/17/2021 6:15:00 AM 9.07 48.326 0.025 6.4 3.87 10.71
5/17/2021 6:30:00 AM 9.01 48.218 0.025 6.39 3.76 10.73
5/17/2021 6:45:00 AM 8.97 48.146 0.025 6.4 3.68 10.81
5/17/2021 7:00:00 AM 8.94 48.092 0.025 6.42 3.74 10.86
5/17/2021 7:15:00 AM 8.92 48.056 0.025 6.42 3.68 10.92
5/17/2021 7:30:00 AM 8.93 48.074 0.025 6.43 3.74 10.97
5/17/2021 7:45:00 AM 8.97 48.146 0.025 6.44 3.66 11.02
5/17/2021 8:00:00 AM 9.03 48.254 0.025 6.47 3.68 11.07
5/17/2021 8:15:00 AM 9.1 48.38 0.026 6.46 3.67 11.07
5/17/2021 8:30:00 AM 9.21 48.578 0.024 6.5 3.66 11.11
5/17/2021 8:45:00 AM 9.33 48.794 0.025 6.51 3.63 11.11
5/17/2021 9:00:00 AM 9.44 48.992 0.026 6.5 3.66 11.09
5/17/2021 9:15:00 AM 9.62 49.316 0.025 6.55 3.73 11.11
5/17/2021 9:30:00 AM 9.79 49.622 0.024 6.56 3.55 11.1
5/17/2021 9:45:00 AM 9.96 49.928 0.025 6.56 3.71 11.07
5/17/2021 10:00:00 AM 10.14 50.252 0.026 6.57 3.64 11.04
5/17/2021 10:15:00 AM 10.36 50.648 0.026 6.59 3.83 11
5/17/2021 10:30:00 AM 10.63 51.134 0.024 6.63 3.64 10.98
5/17/2021 10:45:00 AM 10.83 51.494 0.025 6.63 3.77 10.92
5/17/2021 11:00:00 AM 11.08 51.944 0.024 6.66 3.54 10.89
5/17/2021 11:15:00 AM 11.34 52.412 0.024 6.68 3.77 10.86
5/17/2021 11:30:00 AM 11.52 52.736 0.024 6.7 3.76 10.79
5/17/2021 11:45:00 AM 11.56 52.808 0.025 6.71 4.14 10.75
5/17/2021 12:00:00 PM 11.51 52.718 0.025 6.7 3.56 10.74
5/17/2021 12:15:00 PM 11.43 52.574 0.024 6.68 3.59 10.72
5/17/2021 12:30:00 PM 11.38 52.484 0.024 6.67 3.56 10.72
5/17/2021 12:45:00 PM 11.42 52.556 0.025 6.68 3.65 10.72
5/17/2021 1:00:00 PM 11.56 52.808 0.024 6.69 3.47 10.7
5/17/2021 1:15:00 PM 11.7 53.06 0.025 6.71 3.61 10.67
5/17/2021 1:30:00 PM 11.88 53.384 0.025 6.7 3.49 10.63
5/17/2021 1:45:00 PM 12.1 53.78 0.025 6.72 3.56 10.59
5/17/2021 2:00:00 PM 12.43 54.374 0.025 6.75 3.57 10.53
5/17/2021 2:15:00 PM 12.85 55.13 0.025 6.79 3.54 10.48
5/17/2021 2:30:00 PM 13.06 55.508 0.025 6.8 3.6 10.41
5/17/2021 2:45:00 PM 13.26 55.868 0.024 6.84 3.48 10.38
5/17/2021 3:00:00 PM 13.36 56.048 0.025 6.83 3.51 10.33
5/17/2021 3:15:00 PM 13.35 56.03 0.025 6.82 3.56 10.29
5/17/2021 3:30:00 PM 13.4 56.12 0.026 6.82 3.51 10.28
5/17/2021 3:45:00 PM 13.45 56.21 0.025 6.83 3.55 10.28
5/17/2021 4:00:00 PM 13.59 56.462 0.025 6.85 3.56 10.25
5/17/2021 4:15:00 PM 13.71 56.678 0.025 6.86 3.5 10.23
5/17/2021 4:30:00 PM 13.85 56.93 0.025 6.86 3.62 10.19
5/17/2021 4:45:00 PM 14.04 57.272 0.024 6.88 3.6 10.17
5/17/2021 5:00:00 PM 14.14 57.452 0.024 6.91 3.56 10.14
5/17/2021 5:15:00 PM 14.2 57.56 0.025 6.91 3.47 10.1
5/17/2021 5:30:00 PM 14.24 57.632 0.024 6.92 3.51 10.07
5/17/2021 5:45:00 PM 14.23 57.614 0.024 6.91 3.54 10.08
5/17/2021 6:00:00 PM 14.17 57.506 0.025 6.91 3.55 10.07
5/17/2021 6:15:00 PM 14.07 57.326 0.024 6.91 3.58 10.08
5/17/2021 6:30:00 PM 13.96 57.128 0.024 6.89 3.72 10.06
5/17/2021 6:45:00 PM 13.85 56.93 0.024 6.88 3.45 10.05
5/17/2021 7:00:00 PM 13.71 56.678 0.025 6.86 3.67 10.03
5/17/2021 7:15:00 PM 13.58 56.444 0.025 6.84 3.62 10.02
5/17/2021 7:30:00 PM 13.42 56.156 0.025 6.82 3.79 9.99
5/17/2021 7:45:00 PM 13.25 55.85 0.025 6.8 3.61 9.95
5/17/2021 8:00:00 PM 13.12 55.616 0.025 6.77 3.57 9.93
5/17/2021 8:15:00 PM 12.98 55.364 0.025 6.75 3.55 9.92
5/17/2021 8:30:00 PM 12.86 55.148 0.026 6.72 3.54 9.88
5/17/2021 8:45:00 PM 12.73 54.914 0.025 6.71 3.54 9.88
5/17/2021 9:00:00 PM 12.61 54.698 0.027 6.67 3.6 9.84
5/17/2021 9:15:00 PM 12.51 54.518 0.025 6.68 3.61 9.88
5/17/2021 9:30:00 PM 12.39 54.302 0.026 6.67 3.61 9.87
5/17/2021 9:45:00 PM 12.28 54.104 0.026 6.65 3.59 9.88
5/17/2021 10:00:00 PM 12.17 53.906 0.026 6.65 3.59 9.9
5/17/2021 10:15:00 PM 12.07 53.726 0.025 6.64 3.69 9.93
5/17/2021 10:30:00 PM 11.96 53.528 0.026 6.64 3.63 9.93
5/17/2021 10:45:00 PM 11.86 53.348 0.027 6.61 3.66 9.92
5/17/2021 11:00:00 PM 11.76 53.168 0.026 6.62 3.55 9.98
5/17/2021 11:15:00 PM 11.67 53.006 0.026 6.63 3.63 10
5/17/2021 11:30:00 PM 11.58 52.844 0.026 6.61 3.68 10.01
5/17/2021 11:45:00 PM 11.48 52.664 0.026 6.62 3.87 10.04
5/18/2021 12:00:00 AM 11.37 52.466 0.026 6.6 3.59 10.06
5/18/2021 12:15:00 AM 11.28 52.304 0.026 6.61 3.88 10.09
5/18/2021 12:30:00 AM 11.18 52.124 0.026 6.59 3.54 10.11
5/18/2021 12:45:00 AM 11.09 51.962 0.026 6.58 3.58 10.13
5/18/2021 1:00:00 AM 11 51.8 0.026 6.59 3.65 10.15
5/18/2021 1:15:00 AM 10.91 51.638 0.027 6.57 3.62 10.17
5/18/2021 1:30:00 AM 10.83 51.494 0.026 6.57 3.61 10.19
5/18/2021 1:45:00 AM 10.76 51.368 0.026 6.57 3.59 10.2
5/18/2021 2:00:00 AM 10.69 51.242 0.026 6.58 3.71 10.23
5/18/2021 2:15:00 AM 10.62 51.116 0.025 6.57 3.9 10.25
5/18/2021 2:30:00 AM 10.55 50.99 0.026 6.56 3.69 10.28
5/18/2021 2:45:00 AM 10.49 50.882 0.025 6.56 3.79 10.28
5/18/2021 3:00:00 AM 10.43 50.774 0.026 6.55 4.46 10.3
5/18/2021 3:15:00 AM 10.38 50.684 0.026 6.55 3.68 10.31
5/18/2021 3:30:00 AM 10.32 50.576 0.026 6.54 3.58 10.32
5/18/2021 3:45:00 AM 10.26 50.468 0.026 6.55 3.55 10.36
5/18/2021 4:00:00 AM 10.21 50.378 0.026 6.52 3.75 10.35
5/18/2021 4:15:00 AM 10.15 50.27 0.027 6.53 3.64 10.36
5/18/2021 4:30:00 AM 10.09 50.162 0.026 6.54 3.64 10.38
5/18/2021 4:45:00 AM 10.04 50.072 0.026 6.52 4.44 10.4
5/18/2021 5:00:00 AM 9.98 49.964 0.026 6.53 3.68 10.42
5/18/2021 5:15:00 AM 9.93 49.874 0.026 6.52 3.75 10.43
5/18/2021 5:30:00 AM 9.87 49.766 0.027 6.5 3.63 10.43
5/18/2021 5:45:00 AM 9.82 49.676 0.026 6.51 3.72 10.45
5/18/2021 6:00:00 AM 9.76 49.568 0.026 6.5 3.71 10.47
5/18/2021 6:15:00 AM 9.71 49.478 0.025 6.51 3.76 10.53
5/18/2021 6:30:00 AM 9.67 49.406 0.026 6.52 3.69 10.57
5/18/2021 6:45:00 AM 9.64 49.352 0.025 6.52 3.68 10.62
5/18/2021 7:00:00 AM 9.62 49.316 0.025 6.52 3.79 10.68
5/18/2021 7:15:00 AM 9.63 49.334 0.026 6.54 3.68 10.73
5/18/2021 7:30:00 AM 9.64 49.352 0.026 6.55 3.76 10.79
5/18/2021 7:45:00 AM 9.69 49.442 0.027 6.55 3.66 10.82
5/18/2021 8:00:00 AM 9.77 49.586 0.025 6.58 3.67 10.87
5/18/2021 8:15:00 AM 9.86 49.748 0.026 6.58 3.82 10.89
5/18/2021 8:30:00 AM 9.97 49.946 0.026 6.6 3.61 10.91
5/18/2021 8:45:00 AM 10.12 50.216 0.025 6.63 3.63 10.93
5/18/2021 9:00:00 AM 10.27 50.486 0.026 6.64 3.58 10.92
5/18/2021 9:15:00 AM 10.44 50.792 0.025 6.66 3.57 10.91
5/18/2021 9:30:00 AM 10.61 51.098 0.026 6.67 3.64 10.89
5/18/2021 9:45:00 AM 10.81 51.458 0.026 6.67 3.62 10.87
5/18/2021 10:00:00 AM 11.04 51.872 0.026 6.72 3.59 10.85
5/18/2021 10:15:00 AM 11.26 52.268 0.026 6.73 3.67 10.81
5/18/2021 10:30:00 AM 11.47 52.646 0.027 6.73 3.62 10.76
5/18/2021 10:45:00 AM 11.82 53.276 0.025 6.78 3.68 10.75
5/18/2021 11:00:00 AM 12.09 53.762 0.025 6.81 3.55 10.69
5/18/2021 11:15:00 AM 12.35 54.23 0.026 6.79 3.6 10.64
5/18/2021 11:30:00 AM 12.64 54.752 0.026 6.85 3.61 10.59
5/18/2021 11:45:00 AM 12.94 55.292 0.025 6.86 3.53 10.53
5/18/2021 12:00:00 PM 13.24 55.832 0.025 6.89 3.46 10.48
5/18/2021 12:15:00 PM 13.55 56.39 0.025 6.91 3.51 10.4
5/18/2021 12:30:00 PM 13.76 56.768 0.026 6.92 3.59 10.34
5/18/2021 12:45:00 PM 14.13 57.434 0.026 6.93 3.73 10.28
5/18/2021 1:00:00 PM 14.41 57.938 0.025 6.99 3.71 10.23
5/18/2021 1:15:00 PM 14.65 58.37 0.025 7 3.49 10.17
5/18/2021 1:30:00 PM 14.78 58.604 0.026 7.02 4.05 10.1
5/18/2021 1:45:00 PM 15.08 59.144 0.025 7.06 3.68 10.05
5/18/2021 2:00:00 PM 15.23 59.414 0.026 7.05 3.44 10.01
5/18/2021 2:15:00 PM 15.51 59.918 0.025 7.09 3.69 9.97
5/18/2021 2:30:00 PM 15.75 60.35 0.025 7.12 3.52 9.93
5/18/2021 2:45:00 PM 16.01 60.818 0.026 7.13 3.43 9.85
5/18/2021 3:00:00 PM 16.23 61.214 0.026 7.15 3.56 9.81
5/18/2021 3:15:00 PM 16.47 61.646 0.025 7.22 3.51 9.77
5/18/2021 3:30:00 PM 16.64 61.952 0.025 7.2 3.44 9.73
5/18/2021 3:45:00 PM 16.79 62.222 0.025 7.23 3.45 9.68
5/18/2021 4:00:00 PM 16.87 62.366 0.026 7.23 3.43 9.64
5/18/2021 4:15:00 PM 16.98 62.564 0.025 7.26 3.63 9.62
5/18/2021 4:30:00 PM 17.05 62.69 0.025 7.26 3.41 9.61
5/18/2021 4:45:00 PM 17.08 62.744 0.025 7.26 3.49 9.58
5/18/2021 5:00:00 PM 17.1 62.78 0.025 7.27 3.47 9.55
5/18/2021 5:15:00 PM 17.06 62.708 0.026 7.25 3.43 9.52
5/18/2021 5:30:00 PM 17.02 62.636 0.026 7.27 3.5 9.51
5/18/2021 5:45:00 PM 16.94 62.492 0.026 7.24 3.45 9.51
5/18/2021 6:00:00 PM 16.84 62.312 0.026 7.25 3.52 9.52
5/18/2021 6:15:00 PM 16.66 61.988 0.025 7.26 3.53 9.53
5/18/2021 6:30:00 PM 16.46 61.628 0.025 7.24 3.59 9.52
5/18/2021 6:45:00 PM 16.28 61.304 0.025 7.22 3.45 9.54
5/18/2021 7:00:00 PM 16.06 60.908 0.025 7.23 3.62 9.54
5/18/2021 7:15:00 PM 15.86 60.548 0.025 7.18 3.52 9.53
5/18/2021 7:30:00 PM 15.66 60.188 0.027 7.13 3.49 9.49
5/18/2021 7:45:00 PM 15.48 59.864 0.026 7.12 3.62 9.47
5/18/2021 8:00:00 PM 15.3 59.54 0.026 7.08 3.51 9.44
5/18/2021 8:15:00 PM 15.14 59.252 0.026 7.05 3.62 9.41
5/18/2021 8:30:00 PM 14.97 58.946 0.026 7.03 3.81 9.37
5/18/2021 8:45:00 PM 14.81 58.658 0.026 7.03 3.61 9.4
5/18/2021 9:00:00 PM 14.66 58.388 0.026 7.01 3.71 9.38
5/18/2021 9:15:00 PM 14.53 58.154 0.026 6.98 3.64 9.37
5/18/2021 9:30:00 PM 14.38 57.884 0.026 6.96 3.67 9.36
5/18/2021 9:45:00 PM 14.24 57.632 0.026 6.97 3.67 9.4
5/18/2021 10:00:00 PM 14.12 57.416 0.027 6.96 3.61 9.4
5/18/2021 10:15:00 PM 13.98 57.164 0.026 6.94 3.65 9.44
5/18/2021 10:30:00 PM 13.86 56.948 0.026 6.94 3.77 9.47
5/18/2021 10:45:00 PM 13.74 56.732 0.026 6.92 3.65 9.47
5/18/2021 11:00:00 PM 13.64 56.552 0.026 6.91 3.66 9.49
5/18/2021 11:15:00 PM 13.49 56.282 0.026 6.94 3.78 9.53
5/18/2021 11:30:00 PM 13.38 56.084 0.027 6.93 3.89 9.54
5/18/2021 11:45:00 PM 13.25 55.85 0.026 6.91 3.78 9.57
5/19/2021 12:00:00 AM 13.16 55.688 0.027 6.9 3.7 9.6
5/19/2021 12:15:00 AM 13.03 55.454 0.026 6.89 4.3 9.62
5/19/2021 12:30:00 AM 12.92 55.256 0.027 6.88 3.81 9.66
5/19/2021 12:45:00 AM 12.8 55.04 0.027 6.9 3.81 9.68
5/19/2021 1:00:00 AM 12.69 54.842 0.027 6.87 3.78 9.71
5/19/2021 1:15:00 AM 12.59 54.662 0.026 6.87 3.8 9.75
5/19/2021 1:30:00 AM 12.48 54.464 0.027 6.85 3.78 9.76
5/19/2021 1:45:00 AM 12.4 54.32 0.028 6.83 3.72 9.76
5/19/2021 2:00:00 AM 12.28 54.104 0.026 6.85 3.59 9.82
5/19/2021 2:15:00 AM 12.19 53.942 0.027 6.83 3.82 9.83
5/19/2021 2:30:00 AM 12.09 53.762 0.026 6.85 3.7 9.86
5/19/2021 2:45:00 AM 12 53.6 0.027 6.83 3.82 9.87
5/19/2021 3:00:00 AM 11.92 53.456 0.027 6.83 3.67 9.89
5/19/2021 3:15:00 AM 11.83 53.294 0.026 6.84 3.78 9.93
5/19/2021 3:30:00 AM 11.74 53.132 0.027 6.82 3.69 9.93
5/19/2021 3:45:00 AM 11.67 53.006 0.026 6.82 3.79 9.96
5/19/2021 4:00:00 AM 11.59 52.862 0.027 6.81 3.8 9.97
5/19/2021 4:15:00 AM 11.51 52.718 0.028 6.78 3.69 9.95
5/19/2021 4:30:00 AM 11.44 52.592 0.027 6.8 3.72 9.99
5/19/2021 4:45:00 AM 11.36 52.448 0.027 6.79 3.81 10.03
5/19/2021 5:00:00 AM 11.3 52.34 0.027 6.78 4.89 10.04
5/19/2021 5:15:00 AM 11.21 52.178 0.027 6.78 3.86 10.07
5/19/2021 5:30:00 AM 11.14 52.052 0.027 6.77 3.84 10.07
5/19/2021 5:45:00 AM 11.08 51.944 0.027 6.77 3.83 10.11
5/19/2021 6:00:00 AM 11.02 51.836 0.028 6.74 3.95 10.07
5/19/2021 6:15:00 AM 10.95 51.71 0.027 6.76 3.85 10.16
5/19/2021 6:30:00 AM 10.9 51.62 0.027 6.76 3.77 10.21
5/19/2021 6:45:00 AM 10.86 51.548 0.027 6.76 3.75 10.26
5/19/2021 7:00:00 AM 10.84 51.512 0.027 6.78 3.87 10.33
5/19/2021 7:15:00 AM 10.83 51.494 0.027 6.8 3.74 10.4
5/19/2021 7:30:00 AM 10.85 51.53 0.027 6.8 3.84 10.47
5/19/2021 7:45:00 AM 10.87 51.566 0.028 6.9 3.77 10.48
5/19/2021 8:00:00 AM 10.95 51.71 0.027 6.92 3.69 10.56
5/19/2021 8:15:00 AM 11.04 51.872 0.027 6.85 3.72 10.59
5/19/2021 8:30:00 AM 11.14 52.052 0.028 6.86 3.83 10.6
5/19/2021 8:45:00 AM 11.29 52.322 0.026 6.88 3.62 10.65
5/19/2021 9:00:00 AM 11.41 52.538 0.027 6.88 3.68 10.62
5/19/2021 9:15:00 AM 11.6 52.88 0.026 6.92 4.01 10.65
5/19/2021 9:30:00 AM 11.76 53.168 0.027 6.91 3.68 10.62
5/19/2021 9:45:00 AM 11.95 53.51 0.027 6.95 3.73 10.61
5/19/2021 10:00:00 AM 12.19 53.942 0.027 6.97 3.72 10.6
5/19/2021 10:15:00 AM 12.43 54.374 0.027 6.97 3.72 10.56
5/19/2021 10:30:00 AM 12.69 54.842 0.027 7.02 3.61 10.53
5/19/2021 10:45:00 AM 12.97 55.346 0.026 7.05 3.63 10.5
5/19/2021 11:00:00 AM 13.24 55.832 0.026 7.07 3.6 10.44
5/19/2021 11:15:00 AM 13.51 56.318 0.027 7.07 3.61 10.38
5/19/2021 11:30:00 AM 13.86 56.948 0.026 7.14 3.72 10.34
5/19/2021 11:45:00 AM 14.15 57.47 0.026 7.14 3.55 10.28
5/19/2021 12:00:00 PM 14.45 58.01 0.026 7.15 3.55 10.22
5/19/2021 12:15:00 PM 14.78 58.604 0.026 7.16 3.55 10.16
5/19/2021 12:30:00 PM 15.04 59.072 0.026 7.18 3.54 10.07
5/19/2021 12:45:00 PM 15.38 59.684 0.026 7.21 3.51 10.03
5/19/2021 1:00:00 PM 15.74 60.332 0.026 7.24 3.61 9.97
5/19/2021 1:15:00 PM 16.02 60.836 0.026 7.3 3.51 9.9
5/19/2021 1:30:00 PM 16.36 61.448 0.026 7.31 3.67 9.85
5/19/2021 1:45:00 PM 16.65 61.97 0.026 7.34 3.63 9.79
5/19/2021 2:00:00 PM 16.96 62.528 0.026 7.39 3.66 9.73
5/19/2021 2:15:00 PM 17.23 63.014 0.025 7.44 3.61 9.67
5/19/2021 2:30:00 PM 17.47 63.446 0.026 7.44 3.57 9.59
5/19/2021 2:45:00 PM 17.79 64.022 0.026 7.48 3.56 9.55
5/19/2021 3:00:00 PM 18.04 64.472 0.026 7.52 3.64 9.5
5/19/2021 3:15:00 PM 18.23 64.814 0.026 7.54 3.57 9.44
5/19/2021 3:30:00 PM 18.48 65.264 0.025 7.59 3.44 9.41
5/19/2021 3:45:00 PM 18.63 65.534 0.026 7.6 3.61 9.37
5/19/2021 4:00:00 PM 18.79 65.82201 0.026 7.63 3.63 9.31
5/19/2021 4:15:00 PM 18.91 66.038 0.026 7.64 3.62 9.29
5/19/2021 4:30:00 PM 18.94 66.092 0.026 7.64 3.48 9.25
5/19/2021 4:45:00 PM 18.97 66.146 0.026 7.65 3.78 9.22
5/19/2021 5:00:00 PM 18.96 66.128 0.026 7.66 3.58 9.2
5/19/2021 5:15:00 PM 18.9 66.02 0.026 7.67 3.57 9.19
5/19/2021 5:30:00 PM 18.8 65.84 0.026 7.61 3.45 9.16
5/19/2021 5:45:00 PM 18.7 65.66 0.026 7.61 3.49 9.18
5/19/2021 6:00:00 PM 18.56 65.408 0.027 7.57 3.66 9.17
5/19/2021 6:15:00 PM 18.4 65.12 0.026 7.58 3.53 9.18
5/19/2021 6:30:00 PM 18.3 64.94 0.026 7.57 3.54 9.2
5/19/2021 6:45:00 PM 18.16 64.688 0.026 7.53 3.47 9.2
5/19/2021 7:00:00 PM 18.01 64.418 0.026 7.52 3.49 9.21
5/19/2021 7:15:00 PM 17.86 64.148 0.026 7.5 3.56 9.19
5/19/2021 7:30:00 PM 17.67 63.806 0.026 7.48 3.79 9.17
5/19/2021 7:45:00 PM 17.47 63.446 0.026 7.43 3.71 9.11
5/19/2021 8:00:00 PM 17.3 63.14 0.027 7.4 3.59 9.07
5/19/2021 8:15:00 PM 17.12 62.816 0.026 7.35 3.51 9.04
5/19/2021 8:30:00 PM 16.97 62.546 0.027 7.33 3.73 9.01
5/19/2021 8:45:00 PM 16.77 62.186 0.027 7.29 3.7 8.97
5/19/2021 9:00:00 PM 16.6 61.88 0.027 7.27 3.81 8.98
5/19/2021 9:15:00 PM 16.45 61.61 0.027 7.25 3.88 8.96
5/19/2021 9:30:00 PM 16.31 61.358 0.028 7.22 3.61 8.94
5/19/2021 9:45:00 PM 16.16 61.088 0.028 7.21 3.69 8.95
5/19/2021 10:00:00 PM 16.04 60.872 0.028 7.19 3.61 8.95
5/19/2021 10:15:00 PM 15.92 60.656 0.027 7.19 3.83 8.98
5/19/2021 10:30:00 PM 15.8 60.44 0.027 7.18 3.65 8.99
5/19/2021 10:45:00 PM 15.67 60.206 0.029 7.16 3.83 9.01
5/19/2021 11:00:00 PM 15.56 60.008 0.027 7.15 3.73 9.03
5/19/2021 11:15:00 PM 15.44 59.792 0.028 7.13 3.86 9.04
5/19/2021 11:30:00 PM 15.34 59.612 0.028 7.14 3.68 9.06
5/19/2021 11:45:00 PM 15.21 59.378 0.028 7.11 3.71 9.09
5/20/2021 12:00:00 AM 15.09 59.162 0.027 7.12 3.76 9.15
5/20/2021 12:15:00 AM 14.99 58.982 0.028 7.09 3.72 9.14
5/20/2021 12:30:00 AM 14.85 58.73 0.027 7.1 3.88 9.19
5/20/2021 12:45:00 AM 14.75 58.55 0.028 7.08 3.67 9.19
5/20/2021 1:00:00 AM 14.63 58.334 0.028 7.09 3.92 9.23
5/20/2021 1:15:00 AM 14.51 58.118 0.028 7.06 3.67 9.25
5/20/2021 1:30:00 AM 14.41 57.938 0.028 7.06 4.38 9.27
5/20/2021 1:45:00 AM 14.28 57.704 0.028 7.06 3.94 9.3
5/20/2021 2:00:00 AM 14.18 57.524 0.028 7.04 3.66 9.33
5/20/2021 2:15:00 AM 14.08 57.344 0.027 7.05 3.94 9.37
5/20/2021 2:30:00 AM 13.99 57.182 0.028 7.03 3.89 9.38
5/20/2021 2:45:00 AM 13.89 57.002 0.028 7.03 3.75 9.39
5/20/2021 3:00:00 AM 13.79 56.822 0.028 7.03 3.82 9.42
5/20/2021 3:15:00 AM 13.71 56.678 0.028 7.01 3.71 9.46
5/20/2021 3:30:00 AM 13.62 56.516 0.028 7.01 3.67 9.47
5/20/2021 3:45:00 AM 13.54 56.372 0.029 7 3.72 9.48
5/20/2021 4:00:00 AM 13.47 56.246 0.028 6.99 4.08 9.49
5/20/2021 4:15:00 AM 13.41 56.138 0.028 7 3.82 9.52
5/20/2021 4:30:00 AM 13.34 56.012 0.028 6.99 3.75 9.54
5/20/2021 4:45:00 AM 13.28 55.904 0.029 6.98 3.76 9.54
5/20/2021 5:00:00 AM 13.23 55.814 0.028 6.98 3.9 9.55
5/20/2021 5:15:00 AM 13.17 55.706 0.029 6.97 3.7 9.55
5/20/2021 5:30:00 AM 13.13 55.634 0.028 6.99 3.89 9.61
5/20/2021 5:45:00 AM 13.07 55.526 0.028 6.97 3.8 9.61
5/20/2021 6:00:00 AM 13.02 55.436 0.028 6.97 3.74 9.63
5/20/2021 6:15:00 AM 12.97 55.346 0.028 6.97 3.74 9.66
5/20/2021 6:30:00 AM 12.91 55.238 0.028 6.97 3.74 9.7
5/20/2021 6:45:00 AM 12.87 55.166 0.028 6.98 3.95 9.76
5/20/2021 7:00:00 AM 12.85 55.13 0.028 6.98 3.94 9.83
5/20/2021 7:15:00 AM 12.84 55.112 0.028 6.99 4.5 9.89
5/20/2021 7:30:00 AM 12.81 55.058 0.028 6.99 3.84 9.93
5/20/2021 7:45:00 AM 12.82 55.076 0.028 7 3.77 9.99
5/20/2021 8:00:00 AM 12.88 55.184 0.027 7.01 3.83 10.04
5/20/2021 8:15:00 AM 12.98 55.364 0.027 7.04 3.74 10.12
5/20/2021 8:30:00 AM 13.09 55.562 0.028 7.04 3.72 10.14
5/20/2021 8:45:00 AM 13.23 55.814 0.028 7.06 3.89 10.15
5/20/2021 9:00:00 AM 13.38 56.084 0.027 7.09 4.07 10.19
5/20/2021 9:15:00 AM 13.59 56.462 0.028 7.11 3.68 10.21
5/20/2021 9:30:00 AM 13.79 56.822 0.027 7.14 3.73 10.21
5/20/2021 9:45:00 AM 14.03 57.254 0.027 7.16 3.81 10.18
5/20/2021 10:00:00 AM 14.2 57.56 0.028 7.17 3.83 9.46
5/20/2021 10:15:00 AM 14.43 57.974 0.028 7.2 5.03 9.85
5/20/2021 10:30:00 AM 14.7 58.46 0.027 7.23 4.17 10.14
5/20/2021 10:45:00 AM 14.96 58.928 0.027 7.25 4.14 10.11
5/20/2021 11:00:00 AM 15.16 59.288 0.027 7.26 4.03 10.06
5/20/2021 11:15:00 AM 15.46 59.828 0.027 7.29 4.16 9.99
5/20/2021 11:30:00 AM 15.75 60.35 0.027 7.32 4.03 9.97
5/20/2021 11:45:00 AM 15.98 60.764 0.027 7.34 4.25 9.92
5/20/2021 12:00:00 PM 16.34 61.412 0.027 7.34 3.98 9.85
5/20/2021 12:15:00 PM 16.73 62.114 0.027 7.39 4.07 9.79
5/20/2021 12:30:00 PM 16.97 62.546 0.027 7.43 4.05 9.74
5/20/2021 12:45:00 PM 17.1 62.78 0.027 7.43 4.09 9.67
5/20/2021 1:00:00 PM 17.08 62.744 0.027 7.41 4.06 9.63
5/20/2021 1:15:00 PM 17.09 62.762 0.026 7.45 4.06 9.64
5/20/2021 1:30:00 PM 17.22 62.996 0.027 7.41 4.11 9.63
5/20/2021 1:45:00 PM 17.45 63.41 0.027 7.44 4.06 9.62
5/20/2021 2:00:00 PM 17.59 63.662 0.027 7.48 4.14 9.58
5/20/2021 2:15:00 PM 17.75 63.95 0.027 7.48 4.05 9.51
5/20/2021 2:30:00 PM 17.88 64.184 0.026 7.5 4.03 9.48
5/20/2021 2:45:00 PM 17.99 64.382 0.027 7.5 4.01 9.4
5/20/2021 3:00:00 PM 18.17 64.706 0.026 7.53 4.04 9.39
5/20/2021 3:15:00 PM 18.25 64.85 0.026 7.55 4.03 9.38
5/20/2021 3:30:00 PM 18.32 64.976 0.027 7.53 4 9.36
5/20/2021 3:45:00 PM 18.5 65.3 0.026 7.57 4.08 9.35
5/20/2021 4:00:00 PM 18.66 65.588 0.027 7.58 3.95 9.3
5/20/2021 4:15:00 PM 18.88 65.984 0.026 7.61 4.03 9.29
5/20/2021 4:30:00 PM 19.11 66.398 0.026 7.64 4 9.25
5/20/2021 4:45:00 PM 19.33 66.794 0.026 7.67 4.08 9.22
5/20/2021 5:00:00 PM 19.49 67.082 0.026 7.69 4.07 9.18
5/20/2021 5:15:00 PM 19.52 67.136 0.027 7.71 3.98 9.15
5/20/2021 5:30:00 PM 19.58 67.244 0.027 7.69 3.89 9.12
5/20/2021 5:45:00 PM 19.58 67.244 0.026 7.74 3.91 9.11
5/20/2021 6:00:00 PM 19.46 67.028 0.026 7.72 4.03 9.1
5/20/2021 6:15:00 PM 19.38 66.884 0.027 7.69 3.89 9.07
5/20/2021 6:30:00 PM 19.32 66.776 0.026 7.68 4.22 9.08
5/20/2021 6:45:00 PM 19.18 66.524 0.027 7.66 4.59 9.05
5/20/2021 7:00:00 PM 19.06 66.308 0.027 7.63 3.94 9.01
5/20/2021 7:15:00 PM 18.93 66.074 0.027 7.6 4.06 8.97
5/20/2021 7:30:00 PM 18.78 65.804 0.027 7.58 4.07 8.94
5/20/2021 7:45:00 PM 18.61 65.498 0.027 7.56 3.95 8.93
5/20/2021 8:00:00 PM 18.45 65.21 0.027 7.54 4.22 8.9
5/20/2021 8:15:00 PM 18.28 64.904 0.027 7.5 4.03 8.87
5/20/2021 8:30:00 PM 18.1 64.58 0.027 7.47 4.03 8.84
5/20/2021 8:45:00 PM 17.94 64.292 0.028 7.44 3.94 8.79
5/20/2021 9:00:00 PM 17.76 63.968 0.028 7.4 4.14 8.75
5/20/2021 9:15:00 PM 17.6 63.68 0.028 7.37 4.04 8.74
5/20/2021 9:30:00 PM 17.45 63.41 0.028 7.35 4.12 8.74
5/20/2021 9:45:00 PM 17.31 63.158 0.028 7.34 4.23 8.74
5/20/2021 10:00:00 PM 17.16 62.888 0.028 7.32 4.28 8.74
5/20/2021 10:15:00 PM 17.01 62.618 0.028 7.3 4.07 8.76
5/20/2021 10:30:00 PM 16.86 62.348 0.03 7.28 4.22 8.74
5/20/2021 10:45:00 PM 16.74 62.132 0.029 7.27 4.65 8.77
5/20/2021 11:00:00 PM 16.59 61.862 0.029 7.27 4.14 8.81
5/20/2021 11:15:00 PM 16.46 61.628 0.03 7.26 4.11 8.83
5/20/2021 11:30:00 PM 16.35 61.43 0.028 7.25 3.99 8.86
5/20/2021 11:45:00 PM 16.22 61.196 0.029 7.24 4.07 8.89
5/21/2021 12:00:00 AM 16.1 60.98 0.029 7.22 4.36 8.91
5/21/2021 12:15:00 AM 15.98 60.764 0.029 7.21 4.23 8.93
5/21/2021 12:30:00 AM 15.84 60.512 0.029 7.19 4.03 8.95
5/21/2021 12:45:00 AM 15.75 60.35 0.029 7.19 4.12 8.98
5/21/2021 1:00:00 AM 15.61 60.098 0.029 7.18 4.99 9
5/21/2021 1:15:00 AM 15.51 59.918 0.029 7.18 4.26 9.04
5/21/2021 1:30:00 AM 15.38 59.684 0.029 7.15 4.25 9.04
5/21/2021 1:45:00 AM 15.26 59.468 0.029 7.15 4.01 9.07
5/21/2021 2:00:00 AM 15.16 59.288 0.029 7.15 4.06 9.1
5/21/2021 2:15:00 AM 15.05 59.09 0.029 7.14 3.99 9.14
5/21/2021 2:30:00 AM 14.93 58.874 0.029 7.14 4.19 9.16
5/21/2021 2:45:00 AM 14.82 58.676 0.03 7.11 3.99 9.17
5/21/2021 3:00:00 AM 14.72 58.496 0.03 7.12 4.07 9.21
5/21/2021 3:15:00 AM 14.62 58.316 0.029 7.11 4.4 9.23
5/21/2021 3:30:00 AM 14.52 58.136 0.029 7.1 4.14 9.24
5/21/2021 3:45:00 AM 14.42 57.956 0.03 7.09 3.99 9.26
5/21/2021 4:00:00 AM 14.33 57.794 0.029 7.08 3.99 9.28
5/21/2021 4:15:00 AM 14.23 57.614 0.03 7.08 4.04 9.31
5/21/2021 4:30:00 AM 14.14 57.452 0.029 7.08 3.9 9.33
5/21/2021 4:45:00 AM 14.05 57.29 0.03 7.07 4.13 9.36
5/21/2021 5:00:00 AM 13.95 57.11 0.029 7.08 3.98 9.38
5/21/2021 5:15:00 AM 13.86 56.948 0.03 7.05 4.03 9.4
5/21/2021 5:30:00 AM 13.78 56.804 0.03 7.05 4.06 9.42
5/21/2021 5:45:00 AM 13.7 56.66 0.029 7.05 4.01 9.45
5/21/2021 6:00:00 AM 13.61 56.498 0.03 7.03 4 9.45
5/21/2021 6:15:00 AM 13.53 56.354 0.029 7.03 3.97 9.5
5/21/2021 6:30:00 AM 13.47 56.246 0.03 7.02 4.14 9.55
5/21/2021 6:45:00 AM 13.41 56.138 0.029 7.04 3.88 9.62
5/21/2021 7:00:00 AM 13.37 56.066 0.029 7.05 3.94 9.69
5/21/2021 7:15:00 AM 13.34 56.012 0.029 7.04 4.06 9.71
5/21/2021 7:30:00 AM 13.34 56.012 0.03 7.06 3.98 9.82
5/21/2021 7:45:00 AM 13.36 56.048 0.029 7.07 3.95 9.87
5/21/2021 8:00:00 AM 13.41 56.138 0.029 7.09 3.9 9.96
5/21/2021 8:15:00 AM 13.47 56.246 0.029 7.1 4.03 9.98
5/21/2021 8:30:00 AM 13.57 56.426 0.029 7.11 4.06 10.02
5/21/2021 8:45:00 AM 13.7 56.66 0.029 7.14 4 10.06
5/21/2021 9:00:00 AM 13.86 56.948 0.028 7.19 3.8 10.11
5/21/2021 9:15:00 AM 13.98 57.164 0.029 7.19 3.97 10.11
5/21/2021 9:30:00 AM 14.13 57.434 0.029 7.2 3.72 10.11
5/21/2021 9:45:00 AM 14.33 57.794 0.029 7.22 3.84 10.09
5/21/2021 10:00:00 AM 14.53 58.154 0.029 7.24 3.8 10.08
5/21/2021 10:15:00 AM 14.78 58.604 0.029 7.26 3.8 10.07
5/21/2021 10:30:00 AM 15.01 59.018 0.028 7.28 3.74 10.04
5/21/2021 10:45:00 AM 15.23 59.414 0.028 7.3 3.75 10.01
5/21/2021 11:00:00 AM 15.53 59.954 0.029 7.32 4.37 9.99
5/21/2021 11:15:00 AM 15.78 60.404 0.028 7.34 3.88 9.94
5/21/2021 11:30:00 AM 16.08 60.944 0.028 7.34 3.79 9.89
5/21/2021 11:45:00 AM 16.43 61.574 0.028 7.38 3.71 9.84
5/21/2021 12:00:00 PM 16.79 62.222 0.028 7.41 3.79 9.8
5/21/2021 12:15:00 PM 17.09 62.762 0.028 7.45 3.71 9.73
5/21/2021 12:30:00 PM 17.39 63.302 0.028 7.47 3.91 9.68
5/21/2021 12:45:00 PM 17.74 63.932 0.028 7.5 3.8 9.63
5/21/2021 1:00:00 PM 18.04 64.472 0.028 7.51 3.81 9.57
5/21/2021 1:15:00 PM 18.33 64.994 0.028 7.55 3.92 9.52
5/21/2021 1:30:00 PM 18.66 65.588 0.028 7.59 3.76 9.47
5/21/2021 1:45:00 PM 18.92 66.056 0.028 7.62 3.61 9.39
5/21/2021 2:00:00 PM 19.2 66.56 0.028 7.63 3.62 9.36
5/21/2021 2:15:00 PM 19.44 66.992 0.028 7.68 3.55 9.31
5/21/2021 2:30:00 PM 19.71 67.478 0.027 7.7 3.6 9.26
5/21/2021 2:45:00 PM 19.95 67.91 0.027 7.74 3.67 9.23
5/21/2021 3:00:00 PM 20.12 68.216 0.028 7.77 3.58 9.17
5/21/2021 3:15:00 PM 20.25 68.45 0.028 7.79 3.78 9.13
5/21/2021 3:30:00 PM 20.35 68.63 0.027 7.8 3.57 9.08
5/21/2021 3:45:00 PM 20.48 68.864 0.027 7.8 4.18 9.05
5/21/2021 4:00:00 PM 20.56 69.008 0.027 7.83 3.65 9.01
5/21/2021 4:15:00 PM 20.65 69.17 0.028 7.83 3.63 9
5/21/2021 4:30:00 PM 20.73 69.314 0.027 7.85 3.72 8.98
5/21/2021 4:45:00 PM 20.78 69.404 0.028 7.86 3.6 8.96
5/21/2021 5:00:00 PM 20.84 69.512 0.027 7.86 3.61 8.93
5/21/2021 5:15:00 PM 20.89 69.602 0.028 7.86 3.47 8.91
5/21/2021 5:30:00 PM 20.93 69.674 0.028 7.87 3.89 8.9
5/21/2021 5:45:00 PM 20.96 69.728 0.027 7.87 3.53 8.86
5/21/2021 6:00:00 PM 20.95 69.71 0.027 7.87 3.71 8.85
5/21/2021 6:15:00 PM 20.89 69.602 0.027 7.88 3.66 8.84
5/21/2021 6:30:00 PM 20.77 69.386 0.028 7.86 3.76 8.82
5/21/2021 6:45:00 PM 20.58 69.044 0.028 7.82 3.79 8.82
5/21/2021 7:00:00 PM 20.42 68.756 0.028 7.8 3.64 8.81
5/21/2021 7:15:00 PM 20.22 68.396 0.028 7.76 3.87 8.81
5/21/2021 7:30:00 PM 19.99 67.982 0.028 7.72 3.58 8.78
5/21/2021 7:45:00 PM 19.79 67.622 0.028 7.68 3.73 8.75
5/21/2021 8:00:00 PM 19.61 67.298 0.028 7.63 3.77 8.69
5/21/2021 8:15:00 PM 19.44 66.992 0.028 7.59 3.7 8.66
5/21/2021 8:30:00 PM 19.27 66.686 0.028 7.55 3.6 8.61
5/21/2021 8:45:00 PM 19.1 66.38 0.029 7.51 3.69 8.57
5/21/2021 9:00:00 PM 18.94 66.092 0.029 7.47 3.72 8.54
5/21/2021 9:15:00 PM 18.78 65.804 0.029 7.44 3.6 8.5
5/21/2021 9:30:00 PM 18.6 65.48 0.029 7.42 3.62 8.5
5/21/2021 9:45:00 PM 18.46 65.228 0.029 7.4 3.91 8.47
5/21/2021 10:00:00 PM 18.29 64.922 0.029 7.39 3.74 8.49
5/21/2021 10:15:00 PM 18.14 64.652 0.029 7.37 3.85 8.5
5/21/2021 10:30:00 PM 17.99 64.382 0.03 7.35 4.1 8.49
5/21/2021 10:45:00 PM 17.84 64.112 0.03 7.33 4.17 8.49
5/21/2021 11:00:00 PM 17.68 63.824 0.03 7.32 3.73 8.53
5/21/2021 11:15:00 PM 17.55 63.59 0.029 7.32 3.86 8.58
5/21/2021 11:30:00 PM 17.43 63.374 0.03 7.3 3.66 8.58
5/21/2021 11:45:00 PM 17.3 63.14 0.03 7.3 3.94 8.61
5/22/2021 12:00:00 AM 17.17 62.906 0.03 7.29 3.95 8.62
5/22/2021 12:15:00 AM 17.04 62.672 0.031 7.25 3.67 8.61
5/22/2021 12:30:00 AM 16.93 62.474 0.029 7.26 3.88 8.66
5/22/2021 12:45:00 AM 16.82 62.276 0.03 7.26 3.7 8.68
5/22/2021 1:00:00 AM 16.69 62.042 0.03 7.24 3.74 8.71
5/22/2021 1:15:00 AM 16.59 61.862 0.03 7.25 3.87 8.74
5/22/2021 1:30:00 AM 16.5 61.7 0.03 7.23 3.92 8.75
5/22/2021 1:45:00 AM 16.4 61.52 0.03 7.23 3.82 8.78
5/22/2021 2:00:00 AM 16.27 61.286 0.031 7.22 3.73 8.78
5/22/2021 2:15:00 AM 16.18 61.124 0.03 7.2 4.02 8.83
5/22/2021 2:30:00 AM 16.08 60.944 0.03 7.21 3.85 8.85
5/22/2021 2:45:00 AM 15.99 60.782 0.03 7.2 4.68 8.87
5/22/2021 3:00:00 AM 15.9 60.62 0.03 7.2 3.89 8.9
5/22/2021 3:15:00 AM 15.82 60.476 0.03 7.19 3.94 8.92
5/22/2021 3:30:00 AM 15.74 60.332 0.03 7.2 3.8 8.94
5/22/2021 3:45:00 AM 15.65 60.17 0.03 7.18 3.81 8.97
5/22/2021 4:00:00 AM 15.58 60.044 0.031 7.18 3.86 8.97
5/22/2021 4:15:00 AM 15.51 59.918 0.03 7.17 4.22 8.99
5/22/2021 4:30:00 AM 15.44 59.792 0.03 7.17 3.84 9.01
5/22/2021 4:45:00 AM 15.38 59.684 0.03 7.17 3.81 9.03
5/22/2021 5:00:00 AM 15.31 59.558 0.03 7.16 3.93 9.03
5/22/2021 5:15:00 AM 15.22 59.396 0.031 7.15 4.03 9.06
5/22/2021 5:30:00 AM 15.13 59.234 0.03 7.14 3.88 9.08
5/22/2021 5:45:00 AM 15.05 59.09 0.03 7.14 3.92 9.1
5/22/2021 6:00:00 AM 14.96 58.928 0.03 7.14 3.81 9.12
5/22/2021 6:15:00 AM 14.87 58.766 0.03 7.13 3.89 9.16
5/22/2021 6:30:00 AM 14.81 58.658 0.03 7.13 3.78 9.21
5/22/2021 6:45:00 AM 14.72 58.496 0.031 7.13 4.06 9.26
5/22/2021 7:00:00 AM 14.67 58.406 0.03 7.14 3.81 9.35
5/22/2021 7:15:00 AM 14.64 58.352 0.031 7.13 3.86 9.39
5/22/2021 7:30:00 AM 14.63 58.334 0.031 7.16 3.81 9.5
5/22/2021 7:45:00 AM 14.63 58.334 0.031 7.16 3.96 9.58
5/22/2021 8:00:00 AM 14.64 58.352 0.03 7.18 3.9 9.63
5/22/2021 8:15:00 AM 14.69 58.442 0.03 7.2 3.89 9.71
5/22/2021 8:30:00 AM 14.74 58.532 0.03 7.22 3.81 9.76
5/22/2021 8:45:00 AM 14.81 58.658 0.03 7.24 3.86 9.8
5/22/2021 9:00:00 AM 14.88 58.784 0.03 7.27 3.85 9.83
5/22/2021 9:15:00 AM 14.99 58.982 0.03 7.28 3.82 9.87
5/22/2021 9:30:00 AM 15.09 59.162 0.03 7.29 3.87 9.88
5/22/2021 9:45:00 AM 15.22 59.396 0.029 7.32 3.91 9.89
5/22/2021 10:00:00 AM 15.34 59.612 0.029 7.34 3.77 9.9
5/22/2021 10:15:00 AM 15.47 59.846 0.029 7.36 3.77 9.88
5/22/2021 10:30:00 AM 15.64 60.152 0.029 7.39 3.72 9.88
5/22/2021 10:45:00 AM 15.88 60.584 0.029 7.4 3.83 9.89
5/22/2021 11:00:00 AM 16.08 60.944 0.029 7.38 3.78 9.85
5/22/2021 11:15:00 AM 16.25 61.25 0.029 7.43 3.77 9.84
5/22/2021 11:30:00 AM 16.44 61.592 0.029 7.45 3.78 9.8
5/22/2021 11:45:00 AM 16.66 61.988 0.029 7.48 3.89 9.77
5/22/2021 12:00:00 PM 16.83 62.294 0.029 7.48 3.77 9.71
5/22/2021 12:15:00 PM 17.06 62.708 0.029 7.5 3.77 9.68
5/22/2021 12:30:00 PM 17.3 63.14 0.028 7.54 3.77 9.68
5/22/2021 12:45:00 PM 17.45 63.41 0.029 7.53 3.68 9.65
5/22/2021 1:00:00 PM 17.61 63.698 0.028 7.56 3.7 9.6
5/22/2021 1:15:00 PM 17.77 63.986 0.029 7.56 3.79 9.56
5/22/2021 1:30:00 PM 17.92 64.256 0.028 7.59 3.78 9.55
5/22/2021 1:45:00 PM 18.02 64.436 0.028 7.6 3.77 9.48
5/22/2021 2:00:00 PM 18.14 64.652 0.028 7.61 3.77 9.49
5/22/2021 2:15:00 PM 18.27 64.886 0.028 7.59 3.68 9.46
5/22/2021 2:30:00 PM 18.39 65.102 0.028 7.62 3.71 9.43
5/22/2021 2:45:00 PM 18.5 65.3 0.028 7.61 3.65 9.37
5/22/2021 3:00:00 PM 18.65 65.57 0.028 7.66 3.7 9.38
5/22/2021 3:15:00 PM 18.69 65.642 0.028 7.65 3.65 9.32
5/22/2021 3:30:00 PM 18.79 65.82201 0.028 7.65 3.62 9.31
5/22/2021 3:45:00 PM 18.9 66.02 0.028 7.67 3.66 9.28
5/22/2021 4:00:00 PM 18.94 66.092 0.028 7.67 3.71 9.26
5/22/2021 4:15:00 PM 19.03 66.254 0.028 7.71 3.64 9.26
5/22/2021 4:30:00 PM 19.13 66.434 0.028 7.71 3.91 9.24
5/22/2021 4:45:00 PM 19.16 66.488 0.028 7.73 3.71 9.21
5/22/2021 5:00:00 PM 19.21 66.578 0.028 7.73 3.63 9.19
5/22/2021 5:15:00 PM 19.24 66.632 0.028 7.72 3.75 9.16
5/22/2021 5:30:00 PM 19.23 66.614 0.029 7.71 3.6 9.12
5/22/2021 5:45:00 PM 19.21 66.578 0.028 7.73 3.77 9.1
5/22/2021 6:00:00 PM 19.2 66.56 0.028 7.7 3.67 9.07
5/22/2021 6:15:00 PM 19.18 66.524 0.028 7.71 3.78 9.03
5/22/2021 6:30:00 PM 19.16 66.488 0.028 7.71 3.76 9
5/22/2021 6:45:00 PM 19.12 66.416 0.028 7.72 3.68 9.05
5/22/2021 7:00:00 PM 19.05 66.29 0.028 7.71 3.7 8.98
5/22/2021 7:15:00 PM 18.99 66.182 0.028 7.71 3.61 8.97
5/22/2021 7:30:00 PM 18.9 66.02 0.029 7.69 3.61 8.95
5/22/2021 7:45:00 PM 18.81 65.858 0.028 7.68 3.87 8.91
5/22/2021 8:00:00 PM 18.73 65.714 0.029 7.65 3.66 8.81
5/22/2021 8:15:00 PM 18.63 65.534 0.029 7.63 3.66 8.78
5/22/2021 8:30:00 PM 18.53 65.354 0.029 7.61 3.89 8.73
5/22/2021 8:45:00 PM 18.42 65.156 0.029 7.58 3.73 8.69
5/22/2021 9:00:00 PM 18.3 64.94 0.029 7.55 3.9 8.63
5/22/2021 9:15:00 PM 18.21 64.778 0.029 7.53 3.76 8.59
5/22/2021 9:30:00 PM 18.12 64.616 0.03 7.52 3.88 8.54
5/22/2021 9:45:00 PM 18.03 64.454 0.03 7.5 3.76 8.52
5/22/2021 10:00:00 PM 17.95 64.31 0.03 7.48 4.6 8.5
5/22/2021 10:15:00 PM 17.87 64.166 0.03 7.47 3.77 8.5
5/22/2021 10:30:00 PM 17.78 64.004 0.029 7.49 4.05 8.51
5/22/2021 10:45:00 PM 17.7 63.86 0.029 7.49 3.77 8.54
5/22/2021 11:00:00 PM 17.57 63.626 0.028 7.49 4.37 8.57
5/22/2021 11:15:00 PM 17.34 63.212 0.028 7.48 4.33 8.64
5/22/2021 11:30:00 PM 17.16 62.888 0.028 7.45 4.51 8.67
5/22/2021 11:45:00 PM 17.06 62.708 0.028 7.42 4.25 8.7
5/23/2021 12:00:00 AM 16.99 62.582 0.028 7.41 4.53 8.71
5/23/2021 12:15:00 AM 16.95 62.51 0.029 7.4 4.93 8.7
5/23/2021 12:30:00 AM 16.91 62.438 0.028 7.41 4.42 8.72
5/23/2021 12:45:00 AM 16.86 62.348 0.029 7.4 4.23 8.72
5/23/2021 1:00:00 AM 16.82 62.276 0.029 7.41 4.29 8.72
5/23/2021 1:15:00 AM 16.79 62.222 0.029 7.4 4.15 8.72
5/23/2021 1:30:00 AM 16.75 62.15 0.029 7.39 4.65 8.71
5/23/2021 1:45:00 AM 16.72 62.096 0.029 7.39 4.21 8.7
5/23/2021 2:00:00 AM 16.69 62.042 0.029 7.39 4.24 8.7
5/23/2021 2:15:00 AM 16.66 61.988 0.029 7.39 4.35 8.7
5/23/2021 2:30:00 AM 16.64 61.952 0.029 7.39 4.23 8.69
5/23/2021 2:45:00 AM 16.6 61.88 0.03 7.38 4.2 8.67
5/23/2021 3:00:00 AM 16.58 61.844 0.03 7.4 4.4 8.68
5/23/2021 3:15:00 AM 16.56 61.808 0.03 7.39 4.24 8.7
5/23/2021 3:30:00 AM 16.52 61.736 0.03 7.39 4.19 8.69
5/23/2021 3:45:00 AM 16.49 61.682 0.03 7.39 4.1 8.7
5/23/2021 4:00:00 AM 16.46 61.628 0.03 7.4 4.62 8.71
5/23/2021 4:15:00 AM 16.42 61.556 0.03 7.4 4.21 8.72
5/23/2021 4:30:00 AM 16.38 61.484 0.03 7.4 4.2 8.71
5/23/2021 4:45:00 AM 16.32 61.376 0.03 7.39 4.1 8.72
5/23/2021 5:00:00 AM 16.28 61.304 0.03 7.4 4.39 8.74
5/23/2021 5:15:00 AM 16.23 61.214 0.03 7.4 4.17 8.75
5/23/2021 5:30:00 AM 16.16 61.088 0.03 7.4 4.03 8.75
5/23/2021 5:45:00 AM 16.1 60.98 0.03 7.4 4.11 8.76
5/23/2021 6:00:00 AM 16.06 60.908 0.03 7.41 4.13 8.79
5/23/2021 6:15:00 AM 16 60.8 0.03 7.41 3.96 8.81
5/23/2021 6:30:00 AM 15.95 60.71 0.03 7.42 4.23 8.86
5/23/2021 6:45:00 AM 15.9 60.62 0.031 7.43 4.32 8.92
5/23/2021 7:00:00 AM 15.87 60.566 0.031 7.44 4.09 8.98
5/23/2021 7:15:00 AM 15.83 60.494 0.03 7.46 3.92 9.05
5/23/2021 7:30:00 AM 15.79 60.422 0.03 7.47 4.5 9.09
5/23/2021 7:45:00 AM 15.8 60.44 0.03 7.48 3.96 9.17
5/23/2021 8:00:00 AM 15.84 60.512 0.03 7.5 3.97 9.23
5/23/2021 8:15:00 AM 15.91 60.638 0.03 7.53 3.8 9.32
5/23/2021 8:30:00 AM 16 60.8 0.03 7.54 3.8 9.36
5/23/2021 8:45:00 AM 16.1 60.98 0.03 7.56 3.81 9.39
5/23/2021 9:00:00 AM 16.24 61.232 0.03 7.57 3.88 9.43
5/23/2021 9:15:00 AM 16.43 61.574 0.03 7.63 3.82 9.47
5/23/2021 9:30:00 AM 16.63 61.934 0.03 7.66 3.82 9.48
5/23/2021 9:45:00 AM 16.81 62.258 0.03 7.67 3.92 9.44
5/23/2021 10:00:00 AM 17.03 62.654 0.03 7.7 3.75 9.47
5/23/2021 10:15:00 AM 17.23 63.014 0.03 7.75 3.99 9.47
5/23/2021 10:30:00 AM 17.37 63.266 0.03 7.75 3.79 9.44
5/23/2021 10:45:00 AM 17.59 63.662 0.03 7.79 3.92 9.43
5/23/2021 11:00:00 AM 17.81 64.058 0.03 7.82 3.85 9.41
5/23/2021 11:15:00 AM 18.01 64.418 0.03 7.87 3.61 9.4
5/23/2021 11:30:00 AM 18.16 64.688 0.029 7.86 3.72 9.35
5/23/2021 11:45:00 AM 18.36 65.048 0.03 7.89 3.64 9.31
5/23/2021 12:00:00 PM 18.64 65.552 0.029 7.93 3.7 9.31
5/23/2021 12:15:00 PM 18.83 65.894 0.029 7.99 3.73 9.27
5/23/2021 12:30:00 PM 19.01 66.218 0.029 7.98 3.65 9.25
5/23/2021 12:45:00 PM 19.24 66.632 0.029 8.03 3.69 9.23
5/23/2021 1:00:00 PM 19.41 66.938 0.029 8.05 3.62 9.18
5/23/2021 1:15:00 PM 19.59 67.262 0.029 8.08 3.63 9.13
5/23/2021 1:30:00 PM 19.8 67.64 0.029 8.1 3.66 9.13
5/23/2021 1:45:00 PM 20.02 68.036 0.029 8.15 3.66 9.09
5/23/2021 2:00:00 PM 20.14 68.252 0.029 8.18 3.67 9.04
5/23/2021 2:15:00 PM 20.33 68.594 0.029 8.21 3.75 9.01
5/23/2021 2:30:00 PM 20.5 68.9 0.029 8.22 3.58 8.98
5/23/2021 2:45:00 PM 20.63 69.134 0.029 8.25 3.57 8.96
5/23/2021 3:00:00 PM 20.78 69.404 0.029 8.26 3.63 8.94
5/23/2021 3:15:00 PM 20.98 69.764 0.029 8.27 3.91 8.88
5/23/2021 3:30:00 PM 21.14 70.052 0.029 8.32 3.55 8.86
5/23/2021 3:45:00 PM 21.33 70.394 0.029 8.3 3.58 8.85
5/23/2021 4:00:00 PM 21.52 70.736 0.029 8.35 3.68 8.81
5/23/2021 4:15:00 PM 21.67 71.006 0.029 8.39 3.65 8.79
5/23/2021 4:30:00 PM 21.72 71.096 0.029 8.39 3.75 8.72
5/23/2021 4:45:00 PM 21.75 71.15 0.029 8.4 3.53 8.68
5/23/2021 5:00:00 PM 21.86 71.348 0.029 8.38 3.57 8.65
5/23/2021 5:15:00 PM 21.86 71.348 0.029 8.4 3.61 8.66
5/23/2021 5:30:00 PM 21.8 71.24 0.029 8.39 3.77 8.63
5/23/2021 5:45:00 PM 21.74 71.132 0.029 8.38 3.66 8.61
5/23/2021 6:00:00 PM 21.64 70.952 0.029 8.35 3.6 8.6
5/23/2021 6:15:00 PM 21.52 70.736 0.029 8.32 3.59 8.56
5/23/2021 6:30:00 PM 21.37 70.466 0.029 8.28 3.8 8.52
5/23/2021 6:45:00 PM 21.21 70.17799 0.029 8.23 3.61 8.49
5/23/2021 7:00:00 PM 21.05 69.89 0.03 8.21 3.72 8.43
5/23/2021 7:15:00 PM 20.92 69.656 0.03 8.16 4.33 8.39
5/23/2021 7:30:00 PM 20.77 69.386 0.03 8.12 3.63 8.32
5/23/2021 7:45:00 PM 20.61 69.098 0.03 8.08 3.55 8.27
5/23/2021 8:00:00 PM 20.44 68.792 0.03 8.06 3.61 8.25
5/23/2021 8:15:00 PM 20.28 68.504 0.03 8.01 3.8 8.22
5/23/2021 8:30:00 PM 20.12 68.216 0.03 7.98 3.72 8.21
5/23/2021 8:45:00 PM 19.95 67.91 0.031 7.95 3.69 8.16
5/23/2021 9:00:00 PM 19.78 67.604 0.03 7.93 3.77 8.15
5/23/2021 9:15:00 PM 19.61 67.298 0.031 7.91 3.79 8.15
5/23/2021 9:30:00 PM 19.46 67.028 0.031 7.89 3.72 8.15
5/23/2021 9:45:00 PM 19.31 66.758 0.031 7.87 3.9 8.14
5/23/2021 10:00:00 PM 19.14 66.452 0.031 7.85 3.76 8.17
5/23/2021 10:15:00 PM 18.98 66.164 0.031 7.82 3.83 8.16
5/23/2021 10:30:00 PM 18.8 65.84 0.031 7.81 3.78 8.18
5/23/2021 10:45:00 PM 18.64 65.552 0.031 7.79 3.7 8.2
5/23/2021 11:00:00 PM 18.47 65.246 0.031 7.78 3.83 8.23
5/23/2021 11:15:00 PM 18.3 64.94 0.031 7.77 3.97 8.27
5/23/2021 11:30:00 PM 18.2 64.76 0.031 7.75 4.5 8.25
5/23/2021 11:45:00 PM 18.04 64.472 0.032 7.74 4.08 8.29
5/24/2021 12:00:00 AM 17.89 64.202 0.031 7.73 3.87 8.34
5/24/2021 12:15:00 AM 17.75 63.95 0.032 7.71 3.73 8.35
5/24/2021 12:30:00 AM 17.6 63.68 0.032 7.71 3.99 8.39
5/24/2021 12:45:00 AM 17.47 63.446 0.032 7.7 3.84 8.41
5/24/2021 1:00:00 AM 17.33 63.194 0.032 7.69 3.7 8.45
5/24/2021 1:15:00 AM 17.2 62.96 0.032 7.67 3.76 8.46
5/24/2021 1:30:00 AM 17.07 62.726 0.032 7.67 4.22 8.5
5/24/2021 1:45:00 AM 16.94 62.492 0.032 7.66 3.77 8.55
5/24/2021 2:00:00 AM 16.81 62.258 0.032 7.65 3.85 8.57
5/24/2021 2:15:00 AM 16.7 62.06 0.031 7.64 3.77 8.59
5/24/2021 2:30:00 AM 16.57 61.826 0.032 7.63 4.12 8.61
5/24/2021 2:45:00 AM 16.46 61.628 0.032 7.63 3.86 8.64
5/24/2021 3:00:00 AM 16.34 61.412 0.032 7.61 3.78 8.66
5/24/2021 3:15:00 AM 16.22 61.196 0.032 7.61 3.96 8.7
5/24/2021 3:30:00 AM 16.11 60.998 0.032 7.6 3.84 8.72
5/24/2021 3:45:00 AM 15.99 60.782 0.032 7.59 3.81 8.75
5/24/2021 4:00:00 AM 15.86 60.548 0.032 7.59 3.77 8.79
5/24/2021 4:15:00 AM 15.73 60.314 0.032 7.57 3.81 8.8
5/24/2021 4:30:00 AM 15.62 60.116 0.032 7.57 3.87 8.83
5/24/2021 4:45:00 AM 15.49 59.882 0.032 7.55 3.82 8.85
5/24/2021 5:00:00 AM 15.39 59.702 0.032 7.55 4.39 8.87
5/24/2021 5:15:00 AM 15.26 59.468 0.032 7.54 4 8.91
5/24/2021 5:30:00 AM 15.16 59.288 0.032 7.53 3.81 8.92
5/24/2021 5:45:00 AM 15.03 59.054 0.032 7.52 3.88 8.96
5/24/2021 6:00:00 AM 14.92 58.856 0.032 7.51 3.84 8.99
5/24/2021 6:15:00 AM 14.81 58.658 0.032 7.51 4.04 9.05
5/24/2021 6:30:00 AM 14.72 58.496 0.032 7.49 3.98 9.08
5/24/2021 6:45:00 AM 14.63 58.334 0.032 7.5 3.93 9.14
5/24/2021 7:00:00 AM 14.57 58.226 0.032 7.51 3.78 9.19
5/24/2021 7:15:00 AM 14.51 58.118 0.033 7.49 5.14 9.18
5/24/2021 7:30:00 AM 14.47 58.046 0.032 7.49 3.87 9.29
5/24/2021 7:45:00 AM 14.45 58.01 0.032 7.51 3.89 9.42
5/24/2021 8:00:00 AM 14.45 58.01 0.032 7.53 3.94 9.45
5/24/2021 8:15:00 AM 14.49 58.082 0.032 7.55 4.04 9.56
5/24/2021 8:30:00 AM 14.51 58.118 0.032 7.58 3.79 9.69
5/24/2021 8:45:00 AM 14.6 58.28 0.032 7.58 3.86 9.71
5/24/2021 9:00:00 AM 14.7 58.46 0.032 7.61 4.18 9.83
5/24/2021 9:15:00 AM 14.76 58.568 0.032 7.64 3.86 9.86
5/24/2021 9:30:00 AM 14.86 58.748 0.031 7.66 3.93 9.89
5/24/2021 9:45:00 AM 14.95 58.91 0.031 7.66 3.7 9.92
5/24/2021 10:00:00 AM 15.09 59.162 0.031 7.67 3.81 9.94
5/24/2021 10:15:00 AM 15.18 59.324 0.031 7.7 3.87 9.95
5/24/2021 10:30:00 AM 15.31 59.558 0.031 7.72 3.82 9.96
5/24/2021 10:45:00 AM 15.41 59.738 0.031 7.74 3.79 9.97
5/24/2021 11:00:00 AM 15.57 60.026 0.031 7.76 3.75 9.94
5/24/2021 11:15:00 AM 15.71 60.278 0.031 7.78 3.73 9.97
5/24/2021 11:30:00 AM 15.8 60.44 0.031 7.79 3.84 9.95
5/24/2021 11:45:00 AM 15.94 60.692 0.031 7.79 3.85 9.94
5/24/2021 12:00:00 PM 16.09 60.962 0.03 7.82 3.92 9.93
5/24/2021 12:15:00 PM 16.25 61.25 0.03 7.81 3.79 9.91
5/24/2021 12:30:00 PM 16.38 61.484 0.03 7.83 3.73 9.88
5/24/2021 12:45:00 PM 16.45 61.61 0.03 7.83 3.79 9.85
5/24/2021 1:00:00 PM 16.53 61.754 0.03 7.84 3.72 9.79
5/24/2021 1:15:00 PM 16.59 61.862 0.03 7.86 3.91 9.8
5/24/2021 1:30:00 PM 16.63 61.934 0.03 7.86 3.76 9.78
5/24/2021 1:45:00 PM 16.63 61.934 0.03 7.87 3.77 9.76
5/24/2021 2:00:00 PM 16.61 61.898 0.03 7.86 3.78 9.73
5/24/2021 2:15:00 PM 16.62 61.916 0.03 7.87 3.89 9.74
5/24/2021 2:30:00 PM 16.6 61.88 0.03 7.86 3.8 9.73
5/24/2021 2:45:00 PM 16.58 61.844 0.03 7.85 3.84 9.72
5/24/2021 3:00:00 PM 16.53 61.754 0.03 7.84 3.79 9.7
5/24/2021 3:15:00 PM 16.48 61.664 0.03 7.84 3.81 9.69
5/24/2021 3:30:00 PM 16.43 61.574 0.03 7.84 4.33 9.67
5/24/2021 3:45:00 PM 16.4 61.52 0.03 7.82 3.78 9.67
5/24/2021 4:00:00 PM 16.37 61.466 0.03 7.81 3.79 9.68
5/24/2021 4:15:00 PM 16.33 61.394 0.03 7.82 3.9 9.66
5/24/2021 4:30:00 PM 16.28 61.304 0.03 7.81 4 9.65
5/24/2021 4:45:00 PM 16.24 61.232 0.03 7.8 3.81 9.64
5/24/2021 5:00:00 PM 16.19 61.142 0.03 7.78 3.8 9.61
5/24/2021 5:15:00 PM 16.14 61.052 0.03 7.77 3.83 9.58
5/24/2021 5:30:00 PM 16.08 60.944 0.03 7.75 3.88 9.54
5/24/2021 5:45:00 PM 16.02 60.836 0.03 7.74 3.8 9.52
5/24/2021 6:00:00 PM 15.93 60.674 0.03 7.71 3.75 9.48
5/24/2021 6:15:00 PM 15.87 60.566 0.03 7.7 3.71 9.45
5/24/2021 6:30:00 PM 15.82 60.476 0.03 7.69 3.76 9.41
5/24/2021 6:45:00 PM 15.75 60.35 0.031 7.67 3.75 9.39
5/24/2021 7:00:00 PM 15.67 60.206 0.031 7.66 3.8 9.36
5/24/2021 7:15:00 PM 15.61 60.098 0.031 7.65 3.84 9.34
5/24/2021 7:30:00 PM 15.54 59.972 0.031 7.64 3.73 9.32
5/24/2021 7:45:00 PM 15.46 59.828 0.031 7.62 3.81 9.3
5/24/2021 8:00:00 PM 15.39 59.702 0.031 7.62 3.88 9.27
5/24/2021 8:15:00 PM 15.33 59.594 0.031 7.62 3.79 9.25
5/24/2021 8:30:00 PM 15.25 59.45 0.031 7.59 4.61 9.23
5/24/2021 8:45:00 PM 15.18 59.324 0.031 7.59 3.98 9.21
5/24/2021 9:00:00 PM 15.12 59.216 0.031 7.57 3.87 9.19
5/24/2021 9:15:00 PM 15.06 59.108 0.032 7.55 4.55 9.16
5/24/2021 9:30:00 PM 15 59 0.032 7.55 3.9 9.16
5/24/2021 9:45:00 PM 14.95 58.91 0.032 7.54 4.19 9.14
5/24/2021 10:00:00 PM 14.89 58.802 0.032 7.53 3.9 9.13
5/24/2021 10:15:00 PM 14.82 58.676 0.032 7.53 3.82 9.15
5/24/2021 10:30:00 PM 14.75 58.55 0.033 7.5 3.81 9.13
5/24/2021 10:45:00 PM 14.71 58.478 0.032 7.5 3.97 9.14
5/24/2021 11:00:00 PM 14.66 58.388 0.032 7.5 3.84 9.15
5/24/2021 11:15:00 PM 14.61 58.298 0.032 7.5 4.27 9.14
5/24/2021 11:30:00 PM 14.56 58.208 0.032 7.49 3.88 9.16
5/24/2021 11:45:00 PM 14.51 58.118 0.032 7.49 3.79 9.17
5/25/2021 12:00:00 AM 14.47 58.046 0.032 7.48 3.9 9.18
5/25/2021 12:15:00 AM 14.41 57.938 0.032 7.47 3.85 9.19
5/25/2021 12:30:00 AM 14.37 57.866 0.032 7.48 4.08 9.19
5/25/2021 12:45:00 AM 14.33 57.794 0.032 7.47 3.89 9.19
5/25/2021 1:00:00 AM 14.28 57.704 0.032 7.47 3.9 9.21
5/25/2021 1:15:00 AM 14.23 57.614 0.032 7.46 4.02 9.22
5/25/2021 1:30:00 AM 14.18 57.524 0.033 7.45 3.88 9.23
5/25/2021 1:45:00 AM 14.14 57.452 0.032 7.46 3.95 9.24
5/25/2021 2:00:00 AM 14.1 57.38 0.032 7.45 3.9 9.25
5/25/2021 2:15:00 AM 14.06 57.308 0.033 7.45 3.8 9.26
5/25/2021 2:30:00 AM 14.02 57.236 0.033 7.44 4.02 9.26
5/25/2021 2:45:00 AM 13.98 57.164 0.033 7.43 3.91 9.27
5/25/2021 3:00:00 AM 13.95 57.11 0.032 7.44 4.13 9.28
5/25/2021 3:15:00 AM 14.03 57.254 0.033 7.43 4.03 9.24
5/25/2021 3:30:00 AM 14 57.2 0.033 7.44 4.22 9.26
5/25/2021 3:45:00 AM 13.96 57.128 0.033 7.42 3.93 9.26
5/25/2021 4:00:00 AM 13.92 57.056 0.033 7.42 3.9 9.28
5/25/2021 4:15:00 AM 13.89 57.002 0.033 7.42 4.51 9.28
5/25/2021 4:30:00 AM 13.86 56.948 0.033 7.42 3.99 9.28
5/25/2021 4:45:00 AM 13.83 56.894 0.033 7.42 3.9 9.3
5/25/2021 5:00:00 AM 13.8 56.84 0.033 7.41 3.93 9.3
5/25/2021 5:15:00 AM 13.76 56.768 0.033 7.41 3.86 9.31
5/25/2021 5:30:00 AM 13.73 56.714 0.033 7.41 4 9.32
5/25/2021 5:45:00 AM 13.7 56.66 0.033 7.41 3.92 9.33
5/25/2021 6:00:00 AM 13.67 56.606 0.033 7.4 3.92 9.33
5/25/2021 6:15:00 AM 13.64 56.552 0.034 7.39 3.92 9.33
5/25/2021 6:30:00 AM 13.61 56.498 0.033 7.39 3.93 9.36
5/25/2021 6:45:00 AM 13.58 56.444 0.033 7.39 3.91 9.39
5/25/2021 7:00:00 AM 13.57 56.426 0.033 7.4 3.85 9.43
5/25/2021 7:15:00 AM 13.56 56.408 0.033 7.41 3.91 9.48
5/25/2021 7:30:00 AM 13.56 56.408 0.033 7.42 3.91 9.53
5/25/2021 7:45:00 AM 13.57 56.426 0.033 7.43 3.83 9.61
5/25/2021 8:00:00 AM 13.59 56.462 0.033 7.44 3.87 9.65
5/25/2021 8:15:00 AM 13.62 56.516 0.033 7.46 4.01 9.73
5/25/2021 8:30:00 AM 13.66 56.588 0.033 7.47 3.98 9.81
5/25/2021 8:45:00 AM 13.71 56.678 0.033 7.48 3.79 9.86
5/25/2021 9:00:00 AM 13.77 56.786 0.033 7.5 3.92 9.95
5/25/2021 9:15:00 AM 13.86 56.948 0.032 7.53 3.93 10
5/25/2021 9:30:00 AM 13.97 57.146 0.032 7.56 3.98 10.05
5/25/2021 9:45:00 AM 14.07 57.326 0.032 7.57 3.81 10.07
5/25/2021 10:00:00 AM 14.2 57.56 0.032 7.58 3.81 10.09
5/25/2021 10:15:00 AM 14.33 57.794 0.032 7.6 3.83 10.1
5/25/2021 10:30:00 AM 14.49 58.082 0.032 7.63 3.79 10.13
5/25/2021 10:45:00 AM 14.62 58.316 0.032 7.62 3.81 10.12
5/25/2021 11:00:00 AM 14.75 58.55 0.032 7.64 3.76 10.11
5/25/2021 11:15:00 AM 14.9 58.82 0.031 7.66 3.79 10.13
5/25/2021 11:30:00 AM 15.09 59.162 0.031 7.71 5.84 10.12
5/25/2021 11:45:00 AM 15.3 59.54 0.031 7.7 4.21 10.13
5/25/2021 12:00:00 PM 15.51 59.918 0.031 7.73 4.3 10.11
5/25/2021 12:15:00 PM 15.74 60.332 0.031 7.76 3.82 10.07
5/25/2021 12:30:00 PM 15.91 60.638 0.031 7.78 3.75 10.07
5/25/2021 12:45:00 PM 16.05 60.89 0.031 7.79 3.81 10.05
5/25/2021 1:00:00 PM 16.19 61.142 0.031 7.8 3.83 10.03
5/25/2021 1:15:00 PM 16.3 61.34 0.031 7.81 3.7 9.99
5/25/2021 1:30:00 PM 16.42 61.556 0.031 7.83 3.79 9.94
5/25/2021 1:45:00 PM 16.54 61.772 0.031 7.84 3.84 9.91
5/25/2021 2:00:00 PM 16.7 62.06 0.031 7.85 3.62 9.92
5/25/2021 2:15:00 PM 16.92 62.456 0.031 7.87 3.63 9.84
5/25/2021 2:30:00 PM 17.18 62.924 0.031 7.87 4.11 9.81
5/25/2021 2:45:00 PM 17.44 63.392 0.031 7.91 3.55 9.79
5/25/2021 3:00:00 PM 17.7 63.86 0.031 7.92 3.63 9.73
5/25/2021 3:15:00 PM 17.99 64.382 0.031 7.96 3.72 9.66
5/25/2021 3:30:00 PM 18.3 64.94 0.031 7.97 3.68 9.61
5/25/2021 3:45:00 PM 18.59 65.462 0.03 7.97 3.64 9.51
5/25/2021 4:00:00 PM 18.86 65.948 0.031 8.01 3.57 9.47
5/25/2021 4:15:00 PM 19.09 66.362 0.031 8.04 3.61 9.42
5/25/2021 4:30:00 PM 19.33 66.794 0.03 8.05 3.86 9.37
5/25/2021 4:45:00 PM 19.51 67.118 0.03 8.07 3.55 9.31
5/25/2021 5:00:00 PM 19.68 67.424 0.03 8.09 3.59 9.28
5/25/2021 5:15:00 PM 19.83 67.694 0.03 8.11 3.53 9.23
5/25/2021 5:30:00 PM 19.94 67.892 0.03 8.13 3.79 9.19
5/25/2021 5:45:00 PM 20.03 68.054 0.03 8.16 3.87 9.16
5/25/2021 6:00:00 PM 20.06 68.108 0.031 8.17 3.67 9.14
5/25/2021 6:15:00 PM 20.06 68.108 0.031 8.16 3.79 9.13
5/25/2021 6:30:00 PM 20 68 0.031 8.15 3.66 9.1
5/25/2021 6:45:00 PM 19.89 67.802 0.031 8.14 3.65 9.1
5/25/2021 7:00:00 PM 19.75 67.55 0.031 8.12 3.57 9.05
5/25/2021 7:15:00 PM 19.56 67.208 0.031 8.11 3.63 9.04
5/25/2021 7:30:00 PM 19.37 66.866 0.031 8.08 3.63 9.01
5/25/2021 7:45:00 PM 19.18 66.524 0.031 8.02 4.62 8.96
5/25/2021 8:00:00 PM 18.98 66.164 0.031 7.98 3.66 8.9
5/25/2021 8:15:00 PM 18.75 65.75 0.031 7.94 3.7 8.83
5/25/2021 8:30:00 PM 18.56 65.408 0.031 7.89 3.61 8.77
5/25/2021 8:45:00 PM 18.44 65.192 0.032 7.85 3.68 8.71
5/25/2021 9:00:00 PM 18.28 64.904 0.032 7.83 3.79 8.66
5/25/2021 9:15:00 PM 18.16 64.688 0.032 7.8 3.56 8.62
5/25/2021 9:30:00 PM 18.01 64.418 0.032 7.78 3.61 8.59
5/25/2021 9:45:00 PM 17.88 64.184 0.032 7.73 3.71 8.55
5/25/2021 10:00:00 PM 17.76 63.968 0.032 7.72 3.74 8.54
5/25/2021 10:15:00 PM 17.65 63.77 0.032 7.7 3.69 8.52
5/25/2021 10:30:00 PM 17.54 63.572 0.033 7.7 3.6 8.51
5/25/2021 10:45:00 PM 17.45 63.41 0.033 7.68 3.73 8.51
5/25/2021 11:00:00 PM 17.33 63.194 0.033 7.67 3.61 8.52
5/25/2021 11:15:00 PM 17.23 63.014 0.033 7.66 3.59 8.51
5/25/2021 11:30:00 PM 17.15 62.87 0.033 7.64 3.7 8.52
5/25/2021 11:45:00 PM 17.03 62.654 0.033 7.63 3.8 8.53
5/26/2021 12:00:00 AM 16.94 62.492 0.033 7.62 3.8 8.56
5/26/2021 12:15:00 AM 16.86 62.348 0.033 7.61 3.68 8.58
5/26/2021 12:30:00 AM 16.79 62.222 0.033 7.61 3.88 8.58
5/26/2021 12:45:00 AM 16.7 62.06 0.033 7.6 3.81 8.61
5/26/2021 1:00:00 AM 16.63 61.934 0.033 7.59 3.85 8.6
5/26/2021 1:15:00 AM 16.56 61.808 0.033 7.59 3.61 8.63
5/26/2021 1:30:00 AM 16.47 61.646 0.033 7.58 3.76 8.64
5/26/2021 1:45:00 AM 16.4 61.52 0.033 7.57 3.73 8.66
5/26/2021 2:00:00 AM 16.32 61.376 0.033 7.57 4.49 8.67
5/26/2021 2:15:00 AM 16.24 61.232 0.034 7.55 3.66 8.67
5/26/2021 2:30:00 AM 16.15 61.07 0.034 7.55 3.72 8.71
5/26/2021 2:45:00 AM 16.08 60.944 0.034 7.54 3.76 8.71
5/26/2021 3:00:00 AM 16.01 60.818 0.034 7.53 4.17 8.73
5/26/2021 3:15:00 AM 15.93 60.674 0.034 7.53 3.73 8.74
5/26/2021 3:30:00 AM 15.84 60.512 0.034 7.51 3.71 8.76
5/26/2021 3:45:00 AM 15.76 60.368 0.033 7.5 3.8 8.77
5/26/2021 4:00:00 AM 15.69 60.242 0.034 7.51 3.73 8.8
5/26/2021 4:15:00 AM 15.61 60.098 0.034 7.49 3.58 8.8
5/26/2021 4:30:00 AM 15.52 59.936 0.034 7.48 4.62 8.82
5/26/2021 4:45:00 AM 15.45 59.81 0.034 7.48 3.79 8.82
5/26/2021 5:00:00 AM 15.38 59.684 0.034 7.48 3.82 8.86
5/26/2021 5:15:00 AM 15.3 59.54 0.034 7.47 3.81 8.87
5/26/2021 5:30:00 AM 15.23 59.414 0.034 7.47 3.72 8.88
5/26/2021 5:45:00 AM 15.17 59.306 0.034 7.46 3.73 8.89
5/26/2021 6:00:00 AM 15.1 59.18 0.034 7.46 3.82 8.93
5/26/2021 6:15:00 AM 15.04 59.072 0.034 7.46 3.75 8.95
5/26/2021 6:30:00 AM 14.99 58.982 0.034 7.46 3.68 9.02
5/26/2021 6:45:00 AM 14.97 58.946 0.034 7.46 3.68 9.08
5/26/2021 7:00:00 AM 14.95 58.91 0.034 7.48 3.94 9.14
5/26/2021 7:15:00 AM 14.96 58.928 0.034 7.48 3.73 9.22
5/26/2021 7:30:00 AM 14.99 58.982 0.033 7.5 3.83 9.32
5/26/2021 7:45:00 AM 15.01 59.018 0.034 7.52 3.88 9.4
5/26/2021 8:00:00 AM 15.04 59.072 0.034 7.54 3.74 9.47
5/26/2021 8:15:00 AM 15.1 59.18 0.033 7.57 4.08 9.54
5/26/2021 8:30:00 AM 15.16 59.288 0.033 7.6 3.66 9.55
5/26/2021 8:45:00 AM 15.26 59.468 0.033 7.61 3.88 9.65
5/26/2021 9:00:00 AM 15.37 59.666 0.033 7.6 3.89 9.64
5/26/2021 9:15:00 AM 15.49 59.882 0.033 7.62 3.7 9.74
5/26/2021 9:30:00 AM 15.63 60.134 0.033 7.67 3.65 9.75
5/26/2021 9:45:00 AM 15.77 60.386 0.033 7.67 3.64 9.74
5/26/2021 10:00:00 AM 15.91 60.638 0.033 7.71 3.69 9.77
5/26/2021 10:15:00 AM 16.16 61.088 0.032 7.72 3.67 9.75
5/26/2021 10:30:00 AM 16.4 61.52 0.032 7.78 3.92 9.75
5/26/2021 10:45:00 AM 16.58 61.844 0.032 7.8 3.67 9.71
5/26/2021 11:00:00 AM 16.71 62.078 0.032 7.8 3.61 9.72
5/26/2021 11:15:00 AM 16.92 62.456 0.032 7.81 3.66 9.73
5/26/2021 11:30:00 AM 17.17 62.906 0.032 7.82 3.71 9.7
5/26/2021 11:45:00 AM 17.43 63.374 0.032 7.86 3.75 9.67
5/26/2021 12:00:00 PM 17.72 63.896 0.032 7.9 3.6 9.63
5/26/2021 12:15:00 PM 17.96 64.328 0.032 7.9 3.7 9.61
5/26/2021 12:30:00 PM 18.28 64.904 0.032 7.92 3.49 9.55
5/26/2021 12:45:00 PM 18.64 65.552 0.032 7.97 3.55 9.52
5/26/2021 1:00:00 PM 19.02 66.236 0.032 7.99 3.46 9.43
5/26/2021 1:15:00 PM 19.38 66.884 0.032 8.03 3.53 9.41
5/26/2021 1:30:00 PM 19.78 67.604 0.032 8.08 3.52 9.33
5/26/2021 1:45:00 PM 20.15 68.27 0.032 8.12 3.54 9.27
5/26/2021 2:00:00 PM 20.51 68.918 0.031 8.14 3.5 9.19
5/26/2021 2:15:00 PM 20.82 69.476 0.031 8.18 3.42 9.15
5/26/2021 2:30:00 PM 21.18 70.124 0.031 8.22 3.48 9.11
5/26/2021 2:45:00 PM 21.37 70.466 0.031 8.29 3.45 9.03
5/26/2021 3:00:00 PM 21.61 70.898 0.031 8.29 3.5 8.96
5/26/2021 3:15:00 PM 21.91 71.438 0.031 8.33 3.5 8.92
5/26/2021 3:30:00 PM 22.12 71.816 0.031 8.37 3.4 8.88
5/26/2021 3:45:00 PM 22.2 71.96 0.031 8.39 3.37 8.85
5/26/2021 4:00:00 PM 22.29 72.122 0.031 8.38 3.43 8.77
5/26/2021 4:15:00 PM 22.37 72.266 0.031 8.4 3.46 8.78
5/26/2021 4:30:00 PM 22.41 72.338 0.031 8.41 3.53 8.77
5/26/2021 4:45:00 PM 22.45 72.41 0.031 8.4 3.49 8.71
5/26/2021 5:00:00 PM 22.45 72.41 0.031 8.41 3.48 8.74
5/26/2021 5:15:00 PM 22.46 72.42799 0.031 8.4 3.56 8.71
5/26/2021 5:30:00 PM 22.44 72.392 0.031 8.37 3.39 8.67
5/26/2021 5:45:00 PM 22.4 72.32 0.031 8.36 3.46 8.65
5/26/2021 6:00:00 PM 22.33 72.194 0.031 8.36 3.41 8.65
5/26/2021 6:15:00 PM 22.25 72.05 0.031 8.33 3.51 8.62
5/26/2021 6:30:00 PM 22.13 71.834 0.031 8.3 3.48 8.55
5/26/2021 6:45:00 PM 21.95 71.51 0.031 8.25 3.77 8.44
5/26/2021 7:00:00 PM 21.77 71.186 0.032 8.16 4.25 8.33
5/26/2021 7:15:00 PM 21.47 70.646 0.032 8.1 5.17 8.27
5/26/2021 7:30:00 PM 21.28 70.304 0.041 8.09 53.93 8.19
5/26/2021 7:45:00 PM 21 69.8 0.046 8.08 37.67 8.13
5/26/2021 8:00:00 PM 20.8 69.44 0.043 8.02 19.69 8.1
5/26/2021 8:15:00 PM 20.61 69.098 0.04 7.97 16.25 8.03
5/26/2021 8:30:00 PM 20.48 68.864 0.038 7.93 12.86 8
5/26/2021 8:45:00 PM 20.33 68.594 0.036 7.89 8.66 7.99
5/26/2021 9:00:00 PM 20.21 68.378 0.036 7.85 7.9 7.94
5/26/2021 9:15:00 PM 20.07 68.126 0.035 7.82 7.04 7.93
5/26/2021 9:30:00 PM 19.94 67.892 0.035 7.8 5.62 7.91
5/26/2021 9:45:00 PM 19.8 67.64 0.034 7.77 5.29 7.89
5/26/2021 10:00:00 PM 19.7 67.46 0.034 7.77 5.21 7.87
5/26/2021 10:15:00 PM 19.56 67.208 0.034 7.73 4.73 7.87
5/26/2021 10:30:00 PM 19.46 67.028 0.034 7.72 4.57 7.88
5/26/2021 10:45:00 PM 19.34 66.812 0.034 7.71 4.64 7.89
5/26/2021 11:00:00 PM 19.23 66.614 0.034 7.69 4.65 7.89
5/26/2021 11:15:00 PM 19.13 66.434 0.034 7.69 4.4 7.93
5/26/2021 11:30:00 PM 19.02 66.236 0.034 7.67 4.67 7.95
5/26/2021 11:45:00 PM 18.91 66.038 0.034 7.66 4.56 7.98
5/27/2021 12:00:00 AM 18.78 65.804 0.033 7.66 4.4 8.02
5/27/2021 12:15:00 AM 18.65 65.57 0.033 7.65 4.67 8.05
5/27/2021 12:30:00 AM 18.52 65.336 0.033 7.64 4.4 8.08
5/27/2021 12:45:00 AM 18.4 65.12 0.033 7.62 5.19 8.09
5/27/2021 1:00:00 AM 18.25 64.85 0.033 7.62 4.47 8.14
5/27/2021 1:15:00 AM 18.13 64.634 0.033 7.61 4.53 8.17
5/27/2021 1:30:00 AM 18 64.4 0.033 7.59 4.7 8.19
5/27/2021 1:45:00 AM 17.87 64.166 0.033 7.59 5.62 8.23
5/27/2021 2:00:00 AM 17.76 63.968 0.033 7.57 4.42 8.24
5/27/2021 2:15:00 AM 17.65 63.77 0.033 7.57 4.39 8.28
5/27/2021 2:30:00 AM 17.55 63.59 0.032 7.57 4.39 8.31
5/27/2021 2:45:00 AM 17.44 63.392 0.032 7.56 4.35 8.33
5/27/2021 3:00:00 AM 17.35 63.23 0.032 7.56 5.08 8.36
5/27/2021 3:15:00 AM 17.24 63.032 0.033 7.55 4.27 8.39
5/27/2021 3:30:00 AM 17.14 62.852 0.032 7.54 4.31 8.4
5/27/2021 3:45:00 AM 17.06 62.708 0.032 7.53 4.36 8.43
5/27/2021 4:00:00 AM 16.96 62.528 0.032 7.53 4.41 8.46
5/27/2021 4:15:00 AM 16.87 62.366 0.032 7.53 4.28 8.47
5/27/2021 4:30:00 AM 16.75 62.15 0.032 7.53 4.35 8.51
5/27/2021 4:45:00 AM 16.66 61.988 0.033 7.52 4.45 8.53
5/27/2021 5:00:00 AM 16.56 61.808 0.032 7.51 4.53 8.56
5/27/2021 5:15:00 AM 16.46 61.628 0.033 7.5 4.42 8.59
5/27/2021 5:30:00 AM 16.36 61.448 0.033 7.5 4.38 8.61
5/27/2021 5:45:00 AM 16.27 61.286 0.033 7.49 4.8 8.59
5/27/2021 6:00:00 AM 16.17 61.106 0.033 7.49 4.66 8.68
5/27/2021 6:15:00 AM 16.09 60.962 0.033 7.48 4.59 8.71
5/27/2021 6:30:00 AM 16.01 60.818 0.033 7.49 4.54 8.79
5/27/2021 6:45:00 AM 15.94 60.692 0.033 7.49 4.98 8.84
5/27/2021 7:00:00 AM 15.87 60.566 0.033 7.49 4.53 8.89
5/27/2021 7:15:00 AM 15.82 60.476 0.033 7.5 4.5 8.99
5/27/2021 7:30:00 AM 15.79 60.422 0.032 7.51 4.57 9.08
5/27/2021 7:45:00 AM 15.77 60.386 0.032 7.53 4.5 9.15
5/27/2021 8:00:00 AM 15.77 60.386 0.032 7.53 4.63 9.21
5/27/2021 8:15:00 AM 15.78 60.404 0.032 7.54 4.67 9.26
5/27/2021 8:30:00 AM 15.82 60.476 0.032 7.55 4.55 9.29
5/27/2021 8:45:00 AM 15.93 60.674 0.032 7.57 4.65 9.36
5/27/2021 9:00:00 AM 16.04 60.872 0.032 7.59 4.46 9.39
5/27/2021 9:15:00 AM 16.18 61.124 0.031 7.6 4.73 9.4
5/27/2021 9:30:00 AM 16.35 61.43 0.031 7.61 4.51 9.39
5/27/2021 9:45:00 AM 16.49 61.682 0.031 7.63 4.64 9.38
5/27/2021 10:00:00 AM 16.67 62.006 0.031 7.66 4.51 9.42
5/27/2021 10:15:00 AM 16.83 62.294 0.03 7.67 4.43 9.42
5/27/2021 10:30:00 AM 17 62.6 0.031 7.69 4.49 9.41
5/27/2021 10:45:00 AM 17.19 62.942 0.031 7.68 4.57 9.39
5/27/2021 11:00:00 AM 17.38 63.284 0.03 7.7 4.49 9.37
5/27/2021 11:15:00 AM 17.6 63.68 0.03 7.72 4.55 9.34
5/27/2021 11:30:00 AM 17.86 64.148 0.03 7.75 4.32 9.31
5/27/2021 11:45:00 AM 18.08 64.544 0.03 7.75 4.43 9.3
5/27/2021 12:00:00 PM 18.33 64.994 0.03 7.78 4.5 9.27
5/27/2021 12:15:00 PM 18.61 65.498 0.029 7.81 4.41 9.22
5/27/2021 12:30:00 PM 18.91 66.038 0.03 7.83 4.34 9.18
5/27/2021 12:45:00 PM 19.12 66.416 0.029 7.86 4.49 9.15
5/27/2021 1:00:00 PM 19.38 66.884 0.029 7.86 4.35 9.11
5/27/2021 1:15:00 PM 19.67 67.406 0.029 7.87 4.15 9.06
5/27/2021 1:30:00 PM 19.95 67.91 0.029 7.92 4.23 9.01
5/27/2021 1:45:00 PM 20.16 68.288 0.029 7.94 4.36 8.96
5/27/2021 2:00:00 PM 20.38 68.684 0.029 7.96 4.37 8.97
5/27/2021 2:15:00 PM 20.62 69.116 0.029 7.98 4.2 8.92
5/27/2021 2:30:00 PM 20.84 69.512 0.029 7.99 4.23 8.9
5/27/2021 2:45:00 PM 21.05 69.89 0.029 8.03 4.18 8.87
5/27/2021 3:00:00 PM 21.21 70.17799 0.029 8.04 4.06 8.83
5/27/2021 3:15:00 PM 21.37 70.466 0.029 8.07 4.09 8.82
5/27/2021 3:30:00 PM 21.5 70.7 0.029 8.08 4.09 8.78
5/27/2021 3:45:00 PM 21.65 70.97 0.029 8.09 4.13 8.75
5/27/2021 4:00:00 PM 21.74 71.132 0.029 8.1 4.01 8.72
5/27/2021 4:15:00 PM 21.74 71.132 0.029 8.1 4.32 8.69
5/27/2021 4:30:00 PM 21.76 71.168 0.029 8.11 4 8.67
5/27/2021 4:45:00 PM 21.81 71.258 0.029 8.12 4 8.66
5/27/2021 5:00:00 PM 21.78 71.204 0.029 8.12 4.11 8.64
5/27/2021 5:15:00 PM 21.72 71.096 0.029 8.11 4.12 8.63
5/27/2021 5:30:00 PM 21.7 71.06 0.029 8.09 4.05 8.62
5/27/2021 5:45:00 PM 21.63 70.934 0.029 8.09 3.93 8.6
5/27/2021 6:00:00 PM 21.54 70.772 0.029 8.08 4.05 8.6
5/27/2021 6:15:00 PM 21.44 70.592 0.029 8.06 4.07 8.6
5/27/2021 6:30:00 PM 21.27 70.286 0.029 8.04 3.94 8.61
5/27/2021 6:45:00 PM 21.07 69.926 0.029 8.02 3.94 8.6
5/27/2021 7:00:00 PM 20.86 69.548 0.029 7.99 4.08 8.59
5/27/2021 7:15:00 PM 20.64 69.152 0.03 7.97 4.06 8.58
5/27/2021 7:30:00 PM 20.35 68.63 0.03 7.92 4.05 8.53
5/27/2021 7:45:00 PM 20.02 68.036 0.03 7.89 4.07 8.49
5/27/2021 8:00:00 PM 19.79 67.622 0.03 7.82 4.08 8.44
5/27/2021 8:15:00 PM 19.54 67.172 0.03 7.77 3.91 8.39
5/27/2021 8:30:00 PM 19.31 66.758 0.03 7.74 4.5 8.37
5/27/2021 8:45:00 PM 19.08 66.344 0.031 7.7 4.13 8.35
5/27/2021 9:00:00 PM 18.89 66.002 0.031 7.68 4.25 8.32
5/27/2021 9:15:00 PM 18.67 65.606 0.031 7.65 4.05 8.33
5/27/2021 9:30:00 PM 18.49 65.282 0.031 7.62 4.05 8.3
5/27/2021 9:45:00 PM 18.3 64.94 0.031 7.62 4.08 8.33
5/27/2021 10:00:00 PM 18.13 64.634 0.031 7.6 4.45 8.33
5/27/2021 10:15:00 PM 17.95 64.31 0.031 7.58 4.18 8.35
5/27/2021 10:30:00 PM 17.78 64.004 0.031 7.56 4.18 8.35
5/27/2021 10:45:00 PM 17.62 63.716 0.031 7.55 4.16 8.39
5/27/2021 11:00:00 PM 17.44 63.392 0.031 7.53 4.34 8.41
5/27/2021 11:15:00 PM 17.28 63.104 0.032 7.52 4.06 8.44
5/27/2021 11:30:00 PM 17.13 62.834 0.032 7.5 4.08 8.46
5/27/2021 11:45:00 PM 16.98 62.564 0.032 7.51 4.23 8.49
5/28/2021 12:00:00 AM 16.84 62.312 0.032 7.49 4.3 8.52
5/28/2021 12:15:00 AM 16.68 62.024 0.032 7.47 4.07 8.55
5/28/2021 12:30:00 AM 16.53 61.754 0.032 7.46 4.11 8.59
5/28/2021 12:45:00 AM 16.39 61.502 0.032 7.46 4.08 8.61
5/28/2021 1:00:00 AM 16.25 61.25 0.032 7.44 4.13 8.63
5/28/2021 1:15:00 AM 16.11 60.998 0.032 7.45 4.16 8.68
5/28/2021 1:30:00 AM 15.98 60.764 0.032 7.41 4.41 8.67
5/28/2021 1:45:00 AM 15.86 60.548 0.032 7.42 4.12 8.74
5/28/2021 2:00:00 AM 15.73 60.314 0.032 7.42 4.39 8.76
5/28/2021 2:15:00 AM 15.61 60.098 0.033 7.35 9.58 8.71
5/28/2021 2:30:00 AM 15.49 59.882 0.032 7.4 4.32 8.82
5/28/2021 2:45:00 AM 15.38 59.684 0.032 7.38 4.99 8.84
5/28/2021 3:00:00 AM 15.28 59.504 0.032 7.37 4.45 8.88
5/28/2021 3:15:00 AM 15.17 59.306 0.033 7.36 4.46 8.88
5/28/2021 3:30:00 AM 15.07 59.126 0.032 7.36 4.3 8.92
5/28/2021 3:45:00 AM 14.96 58.928 0.032 7.36 4.41 8.95
5/28/2021 4:00:00 AM 14.88 58.784 0.032 7.36 4.1 8.97
5/28/2021 4:15:00 AM 14.78 58.604 0.032 7.36 4.21 9
5/28/2021 4:30:00 AM 14.7 58.46 0.032 7.34 4.18 9.01
5/28/2021 4:45:00 AM 14.61 58.298 0.032 7.33 4.08 9.03
5/28/2021 5:00:00 AM 14.49 58.082 0.033 7.32 4.39 9.05
5/28/2021 5:15:00 AM 14.41 57.938 0.032 7.32 4.29 9.07
5/28/2021 5:30:00 AM 14.32 57.776 0.032 7.31 4.26 9.09
5/28/2021 5:45:00 AM 14.22 57.596 0.032 7.31 4.32 9.13
5/28/2021 6:00:00 AM 14.12 57.416 0.032 7.29 4.2 9.15
5/28/2021 6:15:00 AM 14.03 57.254 0.032 7.27 4.29 9.18
5/28/2021 6:30:00 AM 13.96 57.128 0.032 7.28 4.29 9.24
5/28/2021 6:45:00 AM 14.01 57.218 0.033 7.28 4.32 9.21
5/28/2021 7:00:00 AM 13.94 57.092 0.032 7.28 4.47 9.31
5/28/2021 7:15:00 AM 13.88 56.984 0.032 7.3 4.43 9.38
5/28/2021 7:30:00 AM 13.84 56.912 0.032 7.3 4.42 9.46
5/28/2021 7:45:00 AM 13.81 56.858 0.032 7.31 4.6 9.52
5/28/2021 8:00:00 AM 13.79 56.822 0.032 7.31 4.72 9.57
5/28/2021 8:15:00 AM 13.77 56.786 0.032 7.33 4.54 9.63
5/28/2021 8:30:00 AM 13.76 56.768 0.031 7.33 4.55 9.67
5/28/2021 8:45:00 AM 13.75 56.75 0.032 7.34 4.6 9.74
5/28/2021 9:00:00 AM 13.75 56.75 0.032 7.34 4.43 9.76
5/28/2021 9:15:00 AM 13.76 56.768 0.032 7.34 4.26 9.76
5/28/2021 9:30:00 AM 13.78 56.804 0.031 7.37 4.21 9.83
5/28/2021 9:45:00 AM 13.8 56.84 0.031 7.38 4.37 9.88
5/28/2021 10:00:00 AM 13.79 56.822 0.032 7.37 4.16 9.87
5/28/2021 10:15:00 AM 13.82 56.876 0.031 7.39 4.33 9.92
5/28/2021 10:30:00 AM 13.84